Provisional Data: Hammer Creek near Route 322


Please select a monitoring station.
Please select start date.
Please select start date.

Toggle Unit: C/F Toggle Unit: C/F
Sample Time Temperature (C) Temperature (F) Specific Conductivity (mS/cm) pH   Turbidity (NTU+) DO (mg/L)
4/13/2022 12:00:00 AM 12.75 54.95 0.368 7.84 6.3 9.65
4/13/2022 12:15:00 AM 12.62 54.716 0.368 7.84 6.33 9.67
4/13/2022 12:30:00 AM 12.5 54.5 0.369 7.82 6.14 9.7
4/13/2022 12:45:00 AM 12.4 54.32 0.369 7.83 6.09 9.72
4/13/2022 1:00:00 AM 12.29 54.122 0.369 7.82 6.17 9.75
4/13/2022 1:15:00 AM 12.18 53.924 0.369 7.82 6.2 9.77
4/13/2022 1:30:00 AM 12.07 53.726 0.369 7.8 6.17 9.8
4/13/2022 1:45:00 AM 11.97 53.546 0.369 7.82 6.14 9.83
4/13/2022 2:00:00 AM 11.87 53.366 0.37 7.82 6.18 9.86
4/13/2022 2:15:00 AM 11.78 53.204 0.37 7.82 6.14 9.88
4/13/2022 2:30:00 AM 11.7 53.06 0.37 7.8 5.98 9.9
4/13/2022 2:45:00 AM 11.63 52.934 0.37 7.82 5.91 9.93
4/13/2022 3:00:00 AM 11.55 52.79 0.371 7.82 6.11 9.95
4/13/2022 3:15:00 AM 11.48 52.664 0.371 7.82 5.91 9.97
4/13/2022 3:30:00 AM 11.4 52.52 0.371 7.82 5.67 9.99
4/13/2022 3:45:00 AM 11.34 52.412 0.371 7.81 5.91 10.01
4/13/2022 4:00:00 AM 11.28 52.304 0.371 7.8 6.2 10.03
4/13/2022 4:15:00 AM 11.21 52.178 0.371 7.82 6.06 10.04
4/13/2022 4:30:00 AM 11.15 52.07 0.371 7.82 6.15 10.07
4/13/2022 4:45:00 AM 11.09 51.962 0.371 7.82 6.25 10.08
4/13/2022 5:00:00 AM 11.02 51.836 0.371 7.82 6.13 10.1
4/13/2022 5:15:00 AM 10.96 51.728 0.371 7.81 5.96 10.11
4/13/2022 5:30:00 AM 10.9 51.62 0.371 7.82 6.13 10.13
4/13/2022 5:45:00 AM 10.85 51.53 0.372 7.82 6.21 10.15
4/13/2022 6:00:00 AM 10.79 51.422 0.372 7.82 5.91 10.16
4/13/2022 6:15:00 AM 10.75 51.35 0.372 7.82 5.92 10.18
4/13/2022 6:30:00 AM 10.72 51.296 0.372 7.82 6.01 10.19
4/13/2022 6:45:00 AM 10.69 51.242 0.372 7.82 5.87 10.22
4/13/2022 7:00:00 AM 10.66 51.188 0.372 7.82 5.89 10.25
4/13/2022 7:15:00 AM 10.66 51.188 0.372 7.83 5.79 10.3
4/13/2022 7:30:00 AM 10.65 51.17 0.372 7.83 5.5 10.36
4/13/2022 7:45:00 AM 10.66 51.188 0.372 7.84 5.67 10.43
4/13/2022 8:00:00 AM 10.68 51.224 0.372 7.84 5.33 10.5
4/13/2022 8:15:00 AM 10.67 51.206 0.372 7.85 5.46 10.54
4/13/2022 8:30:00 AM 10.7 51.26 0.372 7.86 5.45 10.64
4/13/2022 8:45:00 AM 10.76 51.368 0.372 7.87 5.33 10.75
4/13/2022 9:00:00 AM 10.81 51.458 0.372 7.86 5.5 10.81
4/13/2022 9:15:00 AM 10.88 51.584 0.372 7.89 5.15 10.89
4/13/2022 9:30:00 AM 10.99 51.782 0.372 7.9 5.28 10.98
4/13/2022 9:45:00 AM 11.12 52.016 0.371 7.91 5.11 11.07
4/13/2022 10:00:00 AM 11.27 52.286 0.371 7.92 5.4 11.16
4/13/2022 10:15:00 AM 11.45 52.61 0.371 7.95 5.3 11.25
4/13/2022 10:30:00 AM 11.66 52.988 0.371 7.97 5.09 11.35
4/13/2022 10:45:00 AM 11.9 53.42 0.37 7.99 5.08 11.46
4/13/2022 11:00:00 AM 12.13 53.834 0.37 8 5.42 11.55
4/13/2022 11:15:00 AM 12.39 54.302 0.37 8.04 5.25 11.64
4/13/2022 11:30:00 AM 12.68 54.824 0.369 8.07 5.44 11.72
4/13/2022 11:45:00 AM 13 55.4 0.369 8.1 5.29 11.8
4/13/2022 12:00:00 PM 13.32 55.976 0.369 8.13 5.26 11.85
4/13/2022 12:15:00 PM 13.61 56.498 0.368 8.16 5.25 11.89
4/13/2022 12:30:00 PM 13.92 57.056 0.368 8.19 5.5 11.91
4/13/2022 12:45:00 PM 14.27 57.686 0.368 8.22 5.45 11.94
4/13/2022 1:00:00 PM 14.58 58.244 0.367 8.24 5.5 11.93
4/13/2022 1:15:00 PM 14.99 58.982 0.367 8.27 5.37 11.93
4/13/2022 1:30:00 PM 15.3 59.54 0.366 8.29 5.71 11.9
4/13/2022 1:45:00 PM 15.56 60.008 0.366 8.31 5.95 11.88
4/13/2022 2:00:00 PM 15.82 60.476 0.366 8.32 5.69 11.84
4/13/2022 2:15:00 PM 16.01 60.818 0.365 8.35 5.4 11.77
4/13/2022 2:30:00 PM 16.2 61.16 0.365 8.37 5.27 11.72
4/13/2022 2:45:00 PM 16.32 61.376 0.365 8.38 5.37 11.65
4/13/2022 3:00:00 PM 16.42 61.556 0.364 8.39 5.43 11.56
4/13/2022 3:15:00 PM 16.54 61.772 0.364 8.4 5.59 11.51
4/13/2022 3:30:00 PM 16.62 61.916 0.364 8.41 5.38 11.44
4/13/2022 3:45:00 PM 16.73 62.114 0.364 8.41 5.6 11.38
4/13/2022 4:00:00 PM 16.79 62.222 0.363 8.42 5.62 11.33
4/13/2022 4:15:00 PM 16.87 62.366 0.363 8.42 5.6 11.27
4/13/2022 4:30:00 PM 16.91 62.438 0.363 8.42 5.6 11.19
4/13/2022 4:45:00 PM 16.95 62.51 0.363 8.41 5.63 11.12
4/13/2022 5:00:00 PM 16.98 62.564 0.363 8.39 5.81 11.04
4/13/2022 5:15:00 PM 16.98 62.564 0.363 8.39 5.95 10.94
4/13/2022 5:30:00 PM 16.96 62.528 0.363 8.38 5.9 10.82
4/13/2022 5:45:00 PM 16.93 62.474 0.363 8.37 5.8 10.7
4/13/2022 6:00:00 PM 16.9 62.42 0.363 8.35 6.24 10.62
4/13/2022 6:15:00 PM 16.83 62.294 0.364 8.33 5.98 10.5
4/13/2022 6:30:00 PM 16.77 62.186 0.364 8.3 6.16 10.41
4/13/2022 6:45:00 PM 16.69 62.042 0.364 8.26 6.17 10.26
4/13/2022 7:00:00 PM 16.6 61.88 0.364 8.24 6.12 10.14
4/13/2022 7:15:00 PM 16.51 61.718 0.365 8.21 5.84 10.01
4/13/2022 7:30:00 PM 16.41 61.538 0.365 8.16 6.01 9.89
4/13/2022 7:45:00 PM 16.32 61.376 0.365 8.14 6.08 9.78
4/13/2022 8:00:00 PM 16.22 61.196 0.365 8.11 6.34 9.68
4/13/2022 8:15:00 PM 16.11 60.998 0.365 8.07 6.15 9.59
4/13/2022 8:30:00 PM 15.99 60.782 0.366 8.05 6.34 9.51
4/13/2022 8:45:00 PM 15.86 60.548 0.366 8.02 6.3 9.45
4/13/2022 9:00:00 PM 15.72 60.296 0.367 7.98 6.52 9.39
4/13/2022 9:15:00 PM 15.59 60.062 0.367 7.98 6.55 9.35
4/13/2022 9:30:00 PM 15.45 59.81 0.367 7.96 6.41 9.32
4/13/2022 9:45:00 PM 15.31 59.558 0.368 7.94 6.56 9.28
4/13/2022 10:00:00 PM 15.18 59.324 0.368 7.92 6.54 9.25
4/13/2022 10:15:00 PM 15.04 59.072 0.369 7.91 6.47 9.23
4/13/2022 10:30:00 PM 14.91 58.838 0.369 7.9 6.72 9.2
4/13/2022 10:45:00 PM 14.78 58.604 0.37 7.88 6.44 9.19
4/13/2022 11:00:00 PM 14.64 58.352 0.37 7.87 6.83 9.18
4/13/2022 11:15:00 PM 14.51 58.118 0.37 7.86 6.31 9.17
4/13/2022 11:30:00 PM 14.39 57.902 0.37 7.86 6.3 9.17
4/13/2022 11:45:00 PM 14.26 57.668 0.37 7.85 6.37 9.18
4/14/2022 12:00:00 AM 14.15 57.47 0.371 7.84 6.26 9.18
4/14/2022 12:15:00 AM 14.03 57.254 0.371 7.84 6.22 9.2
4/14/2022 12:30:00 AM 13.92 57.056 0.371 7.83 6.23 9.21
4/14/2022 12:45:00 AM 13.81 56.858 0.371 7.81 6.2 9.23
4/14/2022 1:00:00 AM 13.71 56.678 0.371 7.83 6.2 9.25
4/14/2022 1:15:00 AM 13.61 56.498 0.371 7.83 6.29 9.28
4/14/2022 1:30:00 AM 13.52 56.336 0.371 7.83 6.06 9.3
4/14/2022 1:45:00 AM 13.44 56.192 0.372 7.83 6.17 9.32
4/14/2022 2:00:00 AM 13.36 56.048 0.372 7.83 6.91 9.35
4/14/2022 2:15:00 AM 13.29 55.922 0.372 7.83 6.57 9.36
4/14/2022 2:30:00 AM 13.22 55.796 0.372 7.82 6.33 9.39
4/14/2022 2:45:00 AM 13.16 55.688 0.372 7.82 6.6 9.41
4/14/2022 3:00:00 AM 13.11 55.598 0.373 7.82 6.17 9.42
4/14/2022 3:15:00 AM 13.05 55.49 0.373 7.82 6.41 9.44
4/14/2022 3:30:00 AM 13 55.4 0.373 7.82 6.24 9.45
4/14/2022 3:45:00 AM 12.95 55.31 0.373 7.82 6.46 9.47
4/14/2022 4:00:00 AM 12.89 55.202 0.373 7.82 6.24 9.48
4/14/2022 4:15:00 AM 12.83 55.094 0.374 7.82 6.21 9.5
4/14/2022 4:30:00 AM 12.77 54.986 0.374 7.82 6.16 9.51
4/14/2022 4:45:00 AM 12.71 54.878 0.374 7.82 6.2 9.53
4/14/2022 5:00:00 AM 12.65 54.77 0.374 7.82 6.04 9.55
4/14/2022 5:15:00 AM 12.6 54.68 0.374 7.82 6.14 9.56
4/14/2022 5:30:00 AM 12.54 54.572 0.374 7.82 6.18 9.57
4/14/2022 5:45:00 AM 12.5 54.5 0.374 7.82 6.2 9.59
4/14/2022 6:00:00 AM 12.45 54.41 0.374 7.82 6.39 9.59
4/14/2022 6:15:00 AM 12.41 54.338 0.374 7.82 6.23 9.61
4/14/2022 6:30:00 AM 12.36 54.248 0.374 7.82 6.38 9.62
4/14/2022 6:45:00 AM 12.32 54.176 0.374 7.83 6.31 9.64
4/14/2022 7:00:00 AM 12.28 54.104 0.374 7.83 5.94 9.68
4/14/2022 7:15:00 AM 12.25 54.05 0.374 7.83 5.9 9.73
4/14/2022 7:30:00 AM 12.21 53.978 0.374 7.83 5.82 9.78
4/14/2022 7:45:00 AM 12.19 53.942 0.374 7.84 5.81 9.83
4/14/2022 8:00:00 AM 12.17 53.906 0.374 7.85 5.91 9.9
4/14/2022 8:15:00 AM 12.17 53.906 0.374 7.85 5.72 9.98
4/14/2022 8:30:00 AM 12.19 53.942 0.374 7.86 5.61 10.08
4/14/2022 8:45:00 AM 12.24 54.032 0.374 7.87 5.56 10.17
4/14/2022 9:00:00 AM 12.32 54.176 0.374 7.89 5.94 10.27
4/14/2022 9:15:00 AM 12.41 54.338 0.373 7.9 5.55 10.36
4/14/2022 9:30:00 AM 12.53 54.554 0.373 7.92 5.6 10.47
4/14/2022 9:45:00 AM 12.69 54.842 0.373 7.94 5.47 10.58
4/14/2022 10:00:00 AM 12.87 55.166 0.373 7.96 5.53 10.68
4/14/2022 10:15:00 AM 13.07 55.526 0.372 7.98 5.47 10.8
4/14/2022 10:30:00 AM 13.3 55.94 0.372 8 5.45 10.91
4/14/2022 10:45:00 AM 13.54 56.372 0.372 8.03 5.44 11.03
4/14/2022 11:00:00 AM 13.83 56.894 0.372 8.04 5.51 11.15
4/14/2022 11:15:00 AM 14.13 57.434 0.371 8.07 5.61 11.25
4/14/2022 11:30:00 AM 14.45 58.01 0.371 8.1 5.7 11.35
4/14/2022 11:45:00 AM 14.81 58.658 0.371 8.15 5.64 11.43
4/14/2022 12:00:00 PM 15.18 59.324 0.37 8.18 5.32 11.5
4/14/2022 12:15:00 PM 15.42 59.756 0.37 8.21 5.46 11.55
4/14/2022 12:30:00 PM 15.71 60.278 0.37 8.24 5.67 11.58
4/14/2022 12:45:00 PM 15.98 60.764 0.369 8.27 5.45 11.61
4/14/2022 1:00:00 PM 16.25 61.25 0.369 8.29 5.43 11.61
4/14/2022 1:15:00 PM 16.53 61.754 0.369 8.33 5.35 11.62
4/14/2022 1:30:00 PM 16.82 62.276 0.368 8.36 5.39 11.62
4/14/2022 1:45:00 PM 16.97 62.546 0.368 8.38 5.44 11.55
4/14/2022 2:00:00 PM 17.19 62.942 0.368 8.4 5.8 11.51
4/14/2022 2:15:00 PM 17.27 63.086 0.367 8.41 5.5 11.42
4/14/2022 2:30:00 PM 17.27 63.086 0.367 8.41 5.68 11.2
4/14/2022 2:45:00 PM 17.26 63.068 0.368 8.39 5.57 10.96
4/14/2022 3:00:00 PM 17.23 63.014 0.367 8.37 5.72 10.74
4/14/2022 3:15:00 PM 17.21 62.978 0.367 8.36 5.55 10.61
4/14/2022 3:30:00 PM 17.18 62.924 0.367 8.34 5.43 10.47
4/14/2022 3:45:00 PM 17.13 62.834 0.367 8.32 8.56 10.34
4/14/2022 4:00:00 PM 17.1 62.78 0.366 8.31 17.28 10.35
4/14/2022 4:15:00 PM 17.16 62.888 0.366 8.32 8.3 10.46
4/14/2022 4:30:00 PM 17.22 62.996 0.366 8.33 5.08 10.55
4/14/2022 4:45:00 PM 17.12 62.816 0.366 8.32 5.18 10.48
4/14/2022 5:00:00 PM 17.09 62.762 0.367 8.3 5.13 10.48
4/14/2022 5:15:00 PM 16.99 62.582 0.367 8.31 5.22 10.48
4/14/2022 5:30:00 PM 16.88 62.384 0.367 8.3 5.29 10.45
4/14/2022 5:45:00 PM 16.74 62.132 0.368 8.28 5.3 10.4
4/14/2022 6:00:00 PM 16.59 61.862 0.368 8.27 5.21 10.36
4/14/2022 6:15:00 PM 16.42 61.556 0.369 8.25 5.45 10.37
4/14/2022 6:30:00 PM 16.21 61.178 0.369 8.23 5.46 10.31
4/14/2022 6:45:00 PM 16.05 60.89 0.369 8.19 5.73 10.23
4/14/2022 7:00:00 PM 15.9 60.62 0.37 8.18 5.1 10.15
4/14/2022 7:15:00 PM 15.71 60.278 0.37 8.15 5.28 10.05
4/14/2022 7:30:00 PM 15.5 59.9 0.37 8.12 5.27 9.97
4/14/2022 7:45:00 PM 15.35 59.63 0.37 8.1 5.17 9.89
4/14/2022 8:00:00 PM 15.21 59.378 0.37 8.08 5.49 9.83
4/14/2022 8:15:00 PM 15.06 59.108 0.37 8.07 5.29 9.77
4/14/2022 8:30:00 PM 14.95 58.91 0.37 8.05 5.65 9.72
4/14/2022 8:45:00 PM 14.83 58.694 0.37 8.04 5.67 9.67
4/14/2022 9:00:00 PM 14.7 58.46 0.371 8.02 5.53 9.64
4/14/2022 9:15:00 PM 14.54 58.172 0.371 8.01 5.61 9.62
4/14/2022 9:30:00 PM 14.39 57.902 0.371 8 5.56 9.61
4/14/2022 9:45:00 PM 14.23 57.614 0.372 7.99 5.47 9.61
4/14/2022 10:00:00 PM 14.07 57.326 0.373 7.98 5.41 9.6
4/14/2022 10:15:00 PM 13.89 57.002 0.373 7.96 5.52 9.58
4/14/2022 10:30:00 PM 13.72 56.696 0.374 7.95 5.54 9.58
4/14/2022 10:45:00 PM 13.54 56.372 0.375 7.94 5.49 9.58
4/14/2022 11:00:00 PM 13.36 56.048 0.375 7.93 5.49 9.58
4/14/2022 11:15:00 PM 13.18 55.724 0.376 7.92 5.3 9.59
4/14/2022 11:30:00 PM 13.01 55.418 0.377 7.91 5.31 9.6
4/14/2022 11:45:00 PM 12.83 55.094 0.377 7.9 5.65 9.62
4/15/2022 12:00:00 AM 12.67 54.806 0.377 7.89 5.62 9.64
4/15/2022 12:15:00 AM 12.51 54.518 0.377 7.89 5.42 9.67
4/15/2022 12:30:00 AM 12.35 54.23 0.377 7.88 5.35 9.69
4/15/2022 12:45:00 AM 12.2 53.96 0.377 7.88 5.36 9.72
4/15/2022 1:00:00 AM 12.05 53.69 0.378 7.88 5.49 9.76
4/15/2022 1:15:00 AM 11.9 53.42 0.378 7.87 5.39 9.79
4/15/2022 1:30:00 AM 11.76 53.168 0.378 7.87 5.23 9.83
4/15/2022 1:45:00 AM 11.62 52.916 0.378 7.87 5.21 9.87
4/15/2022 2:00:00 AM 11.48 52.664 0.378 7.87 5.37 9.9
4/15/2022 2:15:00 AM 11.35 52.43 0.378 7.87 5.23 9.94
4/15/2022 2:30:00 AM 11.22 52.196 0.379 7.87 5.24 9.98
4/15/2022 2:45:00 AM 11.08 51.944 0.379 7.87 5.29 10.02
4/15/2022 3:00:00 AM 10.96 51.728 0.379 7.87 5.15 10.06
4/15/2022 3:15:00 AM 10.84 51.512 0.379 7.87 5.52 10.09
4/15/2022 3:30:00 AM 10.71 51.278 0.38 7.87 5.51 10.13
4/15/2022 3:45:00 AM 10.6 51.08 0.38 7.87 5.37 10.17
4/15/2022 4:00:00 AM 10.49 50.882 0.38 7.87 5.18 10.2
4/15/2022 4:15:00 AM 10.38 50.684 0.38 7.87 5.03 10.24
4/15/2022 4:30:00 AM 10.27 50.486 0.381 7.87 5.05 10.27
4/15/2022 4:45:00 AM 10.17 50.306 0.381 7.86 5.04 10.3
4/15/2022 5:00:00 AM 10.07 50.126 0.381 7.87 5 10.33
4/15/2022 5:15:00 AM 9.97 49.946 0.381 7.87 5.13 10.37
4/15/2022 5:30:00 AM 9.88 49.784 0.382 7.87 5.04 10.4
4/15/2022 5:45:00 AM 9.78 49.604 0.382 7.87 5 10.43
4/15/2022 6:00:00 AM 9.69 49.442 0.382 7.87 5.2 10.46
4/15/2022 6:15:00 AM 9.6 49.28 0.382 7.88 5.43 10.49
4/15/2022 6:30:00 AM 9.52 49.136 0.382 7.88 5.29 10.52
4/15/2022 6:45:00 AM 9.44 48.992 0.382 7.88 5.44 10.56
4/15/2022 7:00:00 AM 9.37 48.866 0.382 7.88 6.23 10.61
4/15/2022 7:15:00 AM 9.31 48.758 0.382 7.89 5.36 10.67
4/15/2022 7:30:00 AM 9.25 48.65 0.382 7.89 5.44 10.74
4/15/2022 7:45:00 AM 9.2 48.56 0.383 7.9 6.1 10.81
4/15/2022 8:00:00 AM 9.17 48.506 0.383 7.91 5.36 10.89
4/15/2022 8:15:00 AM 9.15 48.47 0.383 7.92 5.45 10.98
4/15/2022 8:30:00 AM 9.16 48.488 0.383 7.93 5.56 11.08
4/15/2022 8:45:00 AM 9.21 48.578 0.383 7.94 5.11 11.18
4/15/2022 9:00:00 AM 9.27 48.686 0.383 7.95 5.17 11.28
4/15/2022 9:15:00 AM 9.36 48.848 0.383 7.96 5.17 11.37
4/15/2022 9:30:00 AM 9.45 49.01 0.383 7.97 5.27 11.46
4/15/2022 9:45:00 AM 9.58 49.244 0.383 7.99 5.51 11.56
4/15/2022 10:00:00 AM 9.74 49.532 0.383 8.01 5 11.66
4/15/2022 10:15:00 AM 9.91 49.838 0.383 8.02 4.82 11.75
4/15/2022 10:30:00 AM 10.1 50.18 0.382 8.05 4.64 11.85
4/15/2022 10:45:00 AM 10.32 50.576 0.382 8.07 5.04 11.95
4/15/2022 11:00:00 AM 10.58 51.044 0.382 8.08 5.08 12.04
4/15/2022 11:15:00 AM 10.87 51.566 0.382 8.11 5.11 12.12
4/15/2022 11:30:00 AM 11.17 52.106 0.381 8.15 4.66 12.19
4/15/2022 11:45:00 AM 11.5 52.7 0.381 8.17 4.62 12.25
4/15/2022 12:00:00 PM 11.87 53.366 0.381 8.2 4.64 12.29
4/15/2022 12:15:00 PM 12.25 54.05 0.38 8.23 4.77 12.32
4/15/2022 12:30:00 PM 12.66 54.788 0.38 8.26 5.26 12.33
4/15/2022 12:45:00 PM 13.06 55.508 0.379 8.29 5.34 12.32
4/15/2022 1:00:00 PM 13.48 56.264 0.379 8.31 5.23 12.3
4/15/2022 1:15:00 PM 13.88 56.984 0.379 8.34 5.3 12.28
4/15/2022 1:30:00 PM 14.27 57.686 0.378 8.37 4.86 12.24
4/15/2022 1:45:00 PM 14.62 58.316 0.378 8.39 4.87 12.2
4/15/2022 2:00:00 PM 14.95 58.91 0.378 8.4 4.96 12.16
4/15/2022 2:15:00 PM 15.26 59.468 0.377 8.43 4.81 12.1
4/15/2022 2:30:00 PM 15.54 59.972 0.378 8.45 5.09 12.05
4/15/2022 2:45:00 PM 15.78 60.404 0.378 8.47 4.93 11.99
4/15/2022 3:00:00 PM 16 60.8 0.377 8.48 5.32 11.93
4/15/2022 3:15:00 PM 16.18 61.124 0.377 8.49 5.01 11.87
4/15/2022 3:30:00 PM 16.32 61.376 0.377 8.49 4.75 11.8
4/15/2022 3:45:00 PM 16.41 61.538 0.377 8.52 4.99 11.73
4/15/2022 4:00:00 PM 16.46 61.628 0.376 8.52 4.87 11.65
4/15/2022 4:15:00 PM 16.48 61.664 0.376 8.52 4.91 11.57
4/15/2022 4:30:00 PM 16.49 61.682 0.376 8.52 4.85 11.46
4/15/2022 4:45:00 PM 16.46 61.628 0.376 8.52 5.12 11.35
4/15/2022 5:00:00 PM 16.38 61.484 0.377 8.52 4.84 11.25
4/15/2022 5:15:00 PM 16.29 61.322 0.377 8.51 4.92 11.13
4/15/2022 5:30:00 PM 16.2 61.16 0.377 8.49 5.02 11.02
4/15/2022 5:45:00 PM 16.11 60.998 0.377 8.48 5.26 10.9
4/15/2022 6:00:00 PM 15.99 60.782 0.377 8.46 5.29 10.78
4/15/2022 6:15:00 PM 15.85 60.53 0.378 8.43 5.36 10.64
4/15/2022 6:30:00 PM 15.71 60.278 0.378 8.41 5.27 10.51
4/15/2022 6:45:00 PM 15.57 60.026 0.378 8.38 5.23 10.39
4/15/2022 7:00:00 PM 15.43 59.774 0.379 8.34 5.18 10.27
4/15/2022 7:15:00 PM 15.31 59.558 0.379 8.31 5.21 10.17
4/15/2022 7:30:00 PM 15.18 59.324 0.378 8.28 5.17 10.05
4/15/2022 7:45:00 PM 15.08 59.144 0.379 8.25 6.4 9.96
4/15/2022 8:00:00 PM 14.95 58.91 0.379 8.22 5.26 9.88
4/15/2022 8:15:00 PM 14.82 58.676 0.38 8.18 5.24 9.82
4/15/2022 8:30:00 PM 14.68 58.424 0.38 8.17 5.62 9.77
4/15/2022 8:45:00 PM 14.53 58.154 0.38 8.14 5.54 9.73
4/15/2022 9:00:00 PM 14.38 57.884 0.381 8.12 5.87 9.7
4/15/2022 9:15:00 PM 14.21 57.578 0.382 8.09 5.71 9.69
4/15/2022 9:30:00 PM 14.03 57.254 0.382 8.07 6.01 9.67
4/15/2022 9:45:00 PM 13.86 56.948 0.383 8.06 5.76 9.67
4/15/2022 10:00:00 PM 13.68 56.624 0.383 8.03 5.85 9.67
4/15/2022 10:15:00 PM 13.5 56.3 0.384 8.03 5.9 9.68
4/15/2022 10:30:00 PM 13.31 55.958 0.384 8 5.76 9.69
4/15/2022 10:45:00 PM 13.11 55.598 0.385 8 6.3 9.7
4/15/2022 11:00:00 PM 12.91 55.238 0.385 7.98 6.46 9.71
4/15/2022 11:15:00 PM 12.71 54.878 0.386 7.97 5.99 9.73
4/15/2022 11:30:00 PM 12.53 54.554 0.386 7.96 5.74 9.75
4/15/2022 11:45:00 PM 12.35 54.23 0.387 7.95 6.13 9.76
4/16/2022 12:00:00 AM 12.19 53.942 0.387 7.94 7.19 9.77
4/16/2022 12:15:00 AM 12.05 53.69 0.387 7.93 5.81 9.79
4/16/2022 12:30:00 AM 11.93 53.474 0.388 7.93 5.78 9.82
4/16/2022 12:45:00 AM 11.81 53.258 0.388 7.92 6.21 9.84
4/16/2022 1:00:00 AM 11.71 53.078 0.388 7.92 5.98 9.86
4/16/2022 1:15:00 AM 11.6 52.88 0.388 7.91 5.47 9.89
4/16/2022 1:30:00 AM 11.5 52.7 0.388 7.91 5.33 9.91
4/16/2022 1:45:00 AM 11.4 52.52 0.389 7.91 5.29 9.94
4/16/2022 2:00:00 AM 11.31 52.358 0.389 7.91 5.41 9.97
4/16/2022 2:15:00 AM 11.21 52.178 0.389 7.91 5.17 9.99
4/16/2022 2:30:00 AM 11.13 52.034 0.389 7.91 5.28 10.02
4/16/2022 2:45:00 AM 11.04 51.872 0.389 7.91 5.21 10.04
4/16/2022 3:00:00 AM 10.96 51.728 0.389 7.91 4.96 10.07
4/16/2022 3:15:00 AM 10.88 51.584 0.389 7.9 4.93 10.09
4/16/2022 3:30:00 AM 10.82 51.476 0.39 7.91 4.82 10.11
4/16/2022 3:45:00 AM 10.76 51.368 0.39 7.91 5.06 10.14
4/16/2022 4:00:00 AM 10.7 51.26 0.39 7.91 4.92 10.15
4/16/2022 4:15:00 AM 10.65 51.17 0.39 7.91 4.88 10.17
4/16/2022 4:30:00 AM 10.61 51.098 0.39 7.9 5.05 10.19
4/16/2022 4:45:00 AM 10.57 51.026 0.39 7.91 5.31 10.21
4/16/2022 5:00:00 AM 10.53 50.954 0.39 7.9 5.38 10.22
4/16/2022 5:15:00 AM 10.5 50.9 0.39 7.91 5.4 10.23
4/16/2022 5:30:00 AM 10.47 50.846 0.39 7.9 6.17 10.24
4/16/2022 5:45:00 AM 10.44 50.792 0.39 7.9 6.5 10.25
4/16/2022 6:00:00 AM 10.41 50.738 0.39 7.91 6.54 10.26
4/16/2022 6:15:00 AM 10.39 50.702 0.391 7.91 5.92 10.27
4/16/2022 6:30:00 AM 10.37 50.666 0.391 7.9 5.3 10.28
4/16/2022 6:45:00 AM 10.35 50.63 0.391 7.91 5.35 10.29
4/16/2022 7:00:00 AM 10.34 50.612 0.391 7.91 5.21 10.31
4/16/2022 7:15:00 AM 10.34 50.612 0.39 7.91 5.17 10.32
4/16/2022 7:30:00 AM 10.34 50.612 0.39 7.91 4.99 10.34
4/16/2022 7:45:00 AM 10.34 50.612 0.39 7.91 5.05 10.38
4/16/2022 8:00:00 AM 10.37 50.666 0.39 7.91 4.71 10.45
4/16/2022 8:15:00 AM 10.4 50.72 0.39 7.93 4.92 10.57
4/16/2022 8:30:00 AM 10.46 50.828 0.39 7.94 4.69 10.69
4/16/2022 8:45:00 AM 10.53 50.954 0.39 7.96 4.97 10.81
4/16/2022 9:00:00 AM 10.6 51.08 0.39 7.97 4.57 10.93
4/16/2022 9:15:00 AM 10.71 51.278 0.39 7.99 4.58 11.06
4/16/2022 9:30:00 AM 10.84 51.512 0.389 8.01 4.64 11.2
4/16/2022 9:45:00 AM 10.95 51.71 0.39 8.03 4.67 11.31
4/16/2022 10:00:00 AM 11.05 51.89 0.389 8.05 4.77 11.39
4/16/2022 10:15:00 AM 11.17 52.106 0.389 8.07 4.72 11.49
4/16/2022 10:30:00 AM 11.33 52.394 0.389 8.1 4.75 11.61
4/16/2022 10:45:00 AM 11.51 52.718 0.388 8.12 4.7 11.7
4/16/2022 11:00:00 AM 11.68 53.024 0.388 8.12 4.61 11.77
4/16/2022 11:15:00 AM 11.91 53.438 0.388 8.16 4.53 11.85
4/16/2022 11:30:00 AM 12.12 53.816 0.387 8.18 4.74 11.93
4/16/2022 11:45:00 AM 12.26 54.068 0.387 8.2 4.67 11.99
4/16/2022 12:00:00 PM 12.49 54.482 0.387 8.23 4.67 12.04
4/16/2022 12:15:00 PM 12.68 54.824 0.386 8.24 4.77 12.08
4/16/2022 12:30:00 PM 12.78 55.004 0.386 8.27 6.38 12.07
4/16/2022 12:45:00 PM 12.87 55.166 0.385 8.29 5.18 12.02
4/16/2022 1:00:00 PM 12.93 55.274 0.385 8.3 5.47 11.94
4/16/2022 1:15:00 PM 13.08 55.544 0.384 8.32 5.12 11.95
4/16/2022 1:30:00 PM 13.29 55.922 0.384 8.34 4.92 11.99
4/16/2022 1:45:00 PM 13.48 56.264 0.383 8.36 4.89 12.01
4/16/2022 2:00:00 PM 13.67 56.606 0.383 8.39 5.05 12.03
4/16/2022 2:15:00 PM 13.9 57.02 0.383 8.4 5.02 12.05
4/16/2022 2:30:00 PM 14.25 57.65 0.382 8.43 5.18 12.07
4/16/2022 2:45:00 PM 14.58 58.244 0.382 8.45 4.92 12.05
4/16/2022 3:00:00 PM 14.87 58.766 0.381 8.46 4.77 12
4/16/2022 3:15:00 PM 15.13 59.234 0.382 8.48 4.74 11.96
4/16/2022 3:30:00 PM 15.26 59.468 0.382 8.48 6.28 11.86
4/16/2022 3:45:00 PM 15.21 59.378 0.382 8.48 5.21 11.67
4/16/2022 4:00:00 PM 15.24 59.432 0.382 8.48 4.89 11.57
4/16/2022 4:15:00 PM 15.23 59.414 0.382 8.49 4.88 11.49
4/16/2022 4:30:00 PM 15.18 59.324 0.382 8.48 5.15 11.37
4/16/2022 4:45:00 PM 15.11 59.198 0.382 8.46 5.04 11.31
4/16/2022 5:00:00 PM 15.06 59.108 0.382 8.45 9.68 11.24
4/16/2022 5:15:00 PM 14.98 58.964 0.382 8.44 6.35 11.08
4/16/2022 5:30:00 PM 14.91 58.838 0.381 8.42 4.98 10.91
4/16/2022 5:45:00 PM 14.88 58.784 0.38 8.4 5.31 10.76
4/16/2022 6:00:00 PM 14.88 58.784 0.38 8.38 5.29 10.66
4/16/2022 6:15:00 PM 14.86 58.748 0.379 8.35 5.34 10.51
4/16/2022 6:30:00 PM 14.84 58.712 0.379 8.32 5.33 10.39
4/16/2022 6:45:00 PM 14.83 58.694 0.379 8.28 5.28 10.29
4/16/2022 7:00:00 PM 14.79 58.622 0.38 8.27 5.21 10.19
4/16/2022 7:15:00 PM 14.73 58.514 0.38 8.25 5.46 10.09
4/16/2022 7:30:00 PM 14.64 58.352 0.38 8.22 5.18 9.99
4/16/2022 7:45:00 PM 14.5 58.1 0.381 8.19 5.01 9.91
4/16/2022 8:00:00 PM 14.34 57.812 0.381 8.16 5.15 9.84
4/16/2022 8:15:00 PM 14.18 57.524 0.382 8.14 5.42 9.8
4/16/2022 8:30:00 PM 14.03 57.254 0.383 8.11 5.26 9.75
4/16/2022 8:45:00 PM 13.88 56.984 0.383 8.09 5.31 9.72
4/16/2022 9:00:00 PM 13.74 56.732 0.384 8.07 5.47 9.69
4/16/2022 9:15:00 PM 13.6 56.48 0.384 8.05 5.65 9.67
4/16/2022 9:30:00 PM 13.47 56.246 0.384 8.03 5.39 9.65
4/16/2022 9:45:00 PM 13.33 55.994 0.384 8 5.22 9.64
4/16/2022 10:00:00 PM 13.19 55.742 0.384 8 5.53 9.64
4/16/2022 10:15:00 PM 13.06 55.508 0.384 7.99 5.47 9.64
4/16/2022 10:30:00 PM 12.94 55.292 0.384 7.98 5.55 9.65
4/16/2022 10:45:00 PM 12.8 55.04 0.385 7.97 5.25 9.66
4/16/2022 11:00:00 PM 12.68 54.824 0.385 7.96 5.65 9.67
4/16/2022 11:15:00 PM 12.55 54.59 0.385 7.95 5.31 9.68
4/16/2022 11:30:00 PM 12.41 54.338 0.385 7.93 5.34 9.69
4/16/2022 11:45:00 PM 12.28 54.104 0.386 7.94 5.3 9.7
4/17/2022 12:00:00 AM 12.14 53.852 0.386 7.94 5.28 9.73
4/17/2022 12:15:00 AM 12.01 53.618 0.387 7.92 5.07 9.75
4/17/2022 12:30:00 AM 11.88 53.384 0.387 7.93 5.13 9.78
4/17/2022 12:45:00 AM 11.76 53.168 0.388 7.92 5.1 9.81
4/17/2022 1:00:00 AM 11.64 52.952 0.388 7.91 5.11 9.83
4/17/2022 1:15:00 AM 11.52 52.736 0.388 7.92 5.24 9.86
4/17/2022 1:30:00 AM 11.4 52.52 0.389 7.92 4.9 9.89
4/17/2022 1:45:00 AM 11.29 52.322 0.389 7.92 5.05 9.92
4/17/2022 2:00:00 AM 11.19 52.142 0.389 7.92 4.97 9.95
4/17/2022 2:15:00 AM 11.1 51.98 0.389 7.92 5.01 9.98
4/17/2022 2:30:00 AM 11 51.8 0.388 7.92 4.88 10
4/17/2022 2:45:00 AM 10.9 51.62 0.389 7.92 5.03 10.03
4/17/2022 3:00:00 AM 10.8 51.44 0.389 7.92 5.04 10.06
4/17/2022 3:15:00 AM 10.7 51.26 0.388 7.92 5.26 10.09
4/17/2022 3:30:00 AM 10.6 51.08 0.388 7.91 4.91 10.12
4/17/2022 3:45:00 AM 10.5 50.9 0.389 7.92 4.94 10.15
4/17/2022 4:00:00 AM 10.4 50.72 0.389 7.91 5.06 10.18
4/17/2022 4:15:00 AM 10.3 50.54 0.389 7.91 5.21 10.22
4/17/2022 4:30:00 AM 10.2 50.36 0.389 7.91 5.13 10.25
4/17/2022 4:45:00 AM 10.09 50.162 0.389 7.91 4.87 10.28
4/17/2022 5:00:00 AM 9.99 49.982 0.389 7.91 4.84 10.32
4/17/2022 5:15:00 AM 9.88 49.784 0.389 7.92 4.84 10.35
4/17/2022 5:30:00 AM 9.78 49.604 0.389 7.92 4.6 10.38
4/17/2022 5:45:00 AM 9.68 49.424 0.39 7.91 4.81 10.42
4/17/2022 6:00:00 AM 9.58 49.244 0.39 7.92 5.29 10.45
4/17/2022 6:15:00 AM 9.49 49.082 0.39 7.92 5.46 10.48
4/17/2022 6:30:00 AM 9.39 48.902 0.39 7.92 5.24 10.51
4/17/2022 6:45:00 AM 9.31 48.758 0.391 7.92 5.04 10.56
4/17/2022 7:00:00 AM 9.23 48.614 0.391 7.93 5 10.62
4/17/2022 7:15:00 AM 9.16 48.488 0.391 7.93 4.98 10.69
4/17/2022 7:30:00 AM 9.09 48.362 0.391 7.94 4.85 10.77
4/17/2022 7:45:00 AM 9.04 48.272 0.391 7.94 4.79 10.86
4/17/2022 8:00:00 AM 9.01 48.218 0.392 7.94 4.81 10.97
4/17/2022 8:15:00 AM 9.01 48.218 0.392 7.96 4.68 11.09
4/17/2022 8:30:00 AM 9.05 48.29 0.392 7.98 4.67 11.23
4/17/2022 8:45:00 AM 9.06 48.308 0.392 7.99 4.6 11.32
4/17/2022 9:00:00 AM 9.1 48.38 0.392 8.01 4.7 11.44
4/17/2022 9:15:00 AM 9.1 48.38 0.392 8.02 4.38 11.51
4/17/2022 9:30:00 AM 9.18 48.524 0.392 8.03 4.42 11.63
4/17/2022 9:45:00 AM 9.24 48.632 0.392 8.05 4.45 11.75
4/17/2022 10:00:00 AM 9.22 48.596 0.392 8.05 4.47 11.77
4/17/2022 10:15:00 AM 9.23 48.614 0.392 8.08 4.5 11.82
4/17/2022 10:30:00 AM 9.39 48.902 0.392 8.09 4.46 11.94
4/17/2022 10:45:00 AM 9.49 49.082 0.392 8.11 4.19 12.05
4/17/2022 11:00:00 AM 9.67 49.406 0.392 8.13 4.15 12.13
4/17/2022 11:15:00 AM 9.76 49.568 0.391 8.15 4.06 12.21
4/17/2022 11:30:00 AM 9.96 49.928 0.391 8.17 4.14 12.31
4/17/2022 11:45:00 AM 10.35 50.63 0.391 8.2 4.09 12.41
4/17/2022 12:00:00 PM 10.59 51.062 0.39 8.23 4.14 12.45
4/17/2022 12:15:00 PM 10.93 51.674 0.39 8.26 4.17 12.49
4/17/2022 12:30:00 PM 10.93 51.674 0.39 8.27 4.03 12.48
4/17/2022 12:45:00 PM 10.94 51.692 0.39 8.29 3.93 12.44
4/17/2022 1:00:00 PM 11.08 51.944 0.39 8.31 4.23 12.44
4/17/2022 1:15:00 PM 11.3 52.34 0.389 8.33 4.17 12.45
4/17/2022 1:30:00 PM 11.57 52.826 0.389 8.35 4.24 12.47
4/17/2022 1:45:00 PM 11.69 53.042 0.389 8.37 4.64 12.44
4/17/2022 2:00:00 PM 11.75 53.15 0.389 8.38 4.55 12.4
4/17/2022 2:15:00 PM 11.97 53.546 0.388 8.39 3.97 12.39
4/17/2022 2:30:00 PM 12.24 54.032 0.388 8.41 4.16 12.38
4/17/2022 2:45:00 PM 12.46 54.428 0.388 8.42 4.05 12.34
4/17/2022 3:00:00 PM 12.82 55.076 0.388 8.44 4.14 12.35
4/17/2022 3:15:00 PM 12.9 55.22 0.388 8.46 4.1 12.27
4/17/2022 3:30:00 PM 13.18 55.724 0.388 8.47 4.11 12.25
4/17/2022 3:45:00 PM 13.2 55.76 0.387 8.48 4.17 12.17
4/17/2022 4:00:00 PM 13.34 56.012 0.387 8.49 4.22 12.13
4/17/2022 4:15:00 PM 13.39 56.102 0.387 8.49 4.39 12.05
4/17/2022 4:30:00 PM 13.37 56.066 0.387 8.49 4.71 11.97
4/17/2022 4:45:00 PM 13.3 55.94 0.387 8.49 5.17 11.9
4/17/2022 5:00:00 PM 13.2 55.76 0.387 8.49 4.72 11.82
4/17/2022 5:15:00 PM 13.06 55.508 0.387 8.46 4.46 11.72
4/17/2022 5:30:00 PM 12.97 55.346 0.388 8.47 4.48 11.65
4/17/2022 5:45:00 PM 12.85 55.13 0.388 8.46 5.01 11.58
4/17/2022 6:00:00 PM 12.73 54.914 0.388 8.44 5.94 11.5
4/17/2022 6:15:00 PM 12.61 54.698 0.388 8.43 4.41 11.39
4/17/2022 6:30:00 PM 12.52 54.536 0.389 8.41 4.59 11.27
4/17/2022 6:45:00 PM 12.42 54.356 0.389 8.39 4.66 11.17
4/17/2022 7:00:00 PM 12.32 54.176 0.39 8.36 4.47 11.07
4/17/2022 7:15:00 PM 12.21 53.978 0.39 8.35 4.75 10.98
4/17/2022 7:30:00 PM 12.12 53.816 0.39 8.32 4.44 10.89
4/17/2022 7:45:00 PM 12.02 53.636 0.391 8.3 4.35 10.8
4/17/2022 8:00:00 PM 11.93 53.474 0.391 8.27 4.44 10.73
4/17/2022 8:15:00 PM 11.84 53.312 0.391 8.25 4.57 10.66
4/17/2022 8:30:00 PM 11.76 53.168 0.391 8.23 4.5 10.6
4/17/2022 8:45:00 PM 11.66 52.988 0.392 8.2 4.66 10.57
4/17/2022 9:00:00 PM 11.55 52.79 0.392 8.19 4.75 10.53
4/17/2022 9:15:00 PM 11.42 52.556 0.393 8.17 4.87 10.5
4/17/2022 9:30:00 PM 11.28 52.304 0.393 8.14 5.19 10.49
4/17/2022 9:45:00 PM 11.12 52.016 0.394 8.13 4.7 10.48
4/17/2022 10:00:00 PM 10.97 51.746 0.394 8.12 4.78 10.49
4/17/2022 10:15:00 PM 10.81 51.458 0.395 8.1 4.61 10.5
4/17/2022 10:30:00 PM 10.64 51.152 0.395 8.09 4.7 10.52
4/17/2022 10:45:00 PM 10.46 50.828 0.396 8.07 4.8 10.54
4/17/2022 11:00:00 PM 10.28 50.504 0.396 8.05 4.76 10.56
4/17/2022 11:15:00 PM 10.1 50.18 0.397 8.05 4.65 10.57
4/17/2022 11:30:00 PM 9.92 49.856 0.397 8.04 4.59 10.59
4/17/2022 11:45:00 PM 9.76 49.568 0.398 8.02 4.66 10.61
4/18/2022 12:00:00 AM 9.6 49.28 0.398 8.01 4.58 10.63
4/18/2022 12:15:00 AM 9.45 49.01 0.398 8 4.64 10.64
4/18/2022 12:30:00 AM 9.32 48.776 0.398 7.99 4.59 10.66
4/18/2022 12:45:00 AM 9.19 48.542 0.399 7.98 4.61 10.69
4/18/2022 1:00:00 AM 9.06 48.308 0.399 7.97 4.49 10.71
4/18/2022 1:15:00 AM 8.94 48.092 0.399 7.97 4.67 10.74
4/18/2022 1:30:00 AM 8.82 47.876 0.399 7.97 4.67 10.77
4/18/2022 1:45:00 AM 8.71 47.678 0.4 7.97 4.81 10.8
4/18/2022 2:00:00 AM 8.6 47.48 0.4 7.96 4.46 10.82
4/18/2022 2:15:00 AM 8.48 47.264 0.4 7.96 4.6 10.86
4/18/2022 2:30:00 AM 8.38 47.084 0.4 7.96 4.65 10.89
4/18/2022 2:45:00 AM 8.27 46.886 0.4 7.96 4.54 10.92
4/18/2022 3:00:00 AM 8.17 46.706 0.401 7.96 4.62 10.95
4/18/2022 3:15:00 AM 8.07 46.526 0.401 7.96 4.61 10.98
4/18/2022 3:30:00 AM 7.97 46.346 0.401 7.96 4.53 11.02
4/18/2022 3:45:00 AM 7.88 46.184 0.401 7.96 4.41 11.05
4/18/2022 4:00:00 AM 7.79 46.022 0.402 7.96 4.44 11.08
4/18/2022 4:15:00 AM 7.7 45.86 0.402 7.96 4.68 11.11
4/18/2022 4:30:00 AM 7.61 45.698 0.402 7.96 4.69 11.15
4/18/2022 4:45:00 AM 7.53 45.554 0.402 7.96 4.56 11.18
4/18/2022 5:00:00 AM 7.44 45.392 0.402 7.96 4.41 11.2
4/18/2022 5:15:00 AM 7.36 45.248 0.403 7.96 4.57 11.23
4/18/2022 5:30:00 AM 7.28 45.104 0.403 7.96 4.42 11.26
4/18/2022 5:45:00 AM 7.2 44.96 0.403 7.96 4.08 11.28
4/18/2022 6:00:00 AM 7.13 44.834 0.403 7.96 4.33 11.3
4/18/2022 6:15:00 AM 7.06 44.708 0.403 7.96 4.44 11.33
4/18/2022 6:30:00 AM 6.99 44.582 0.403 7.95 4.33 11.36
4/18/2022 6:45:00 AM 6.93 44.474 0.404 7.96 4.28 11.4
4/18/2022 7:00:00 AM 6.89 44.402 0.404 7.97 4.53 11.46
4/18/2022 7:15:00 AM 6.86 44.348 0.404 7.98 4.52 11.56
4/18/2022 7:30:00 AM 6.86 44.348 0.404 7.98 4.43 11.65
4/18/2022 7:45:00 AM 6.87 44.366 0.404 7.99 4.6 11.75
4/18/2022 8:00:00 AM 6.89 44.402 0.404 8 4.37 11.84
4/18/2022 8:15:00 AM 6.92 44.456 0.404 8.01 4.48 11.93
4/18/2022 8:30:00 AM 6.97 44.546 0.404 8.03 4.48 12.02
4/18/2022 8:45:00 AM 7.03 44.654 0.403 8.04 4.51 12.1
4/18/2022 9:00:00 AM 7.1 44.78 0.403 8.05 4.56 12.19
4/18/2022 9:15:00 AM 7.2 44.96 0.403 8.06 4.27 12.29
4/18/2022 9:30:00 AM 7.27 45.086 0.403 8.08 4.33 12.36
4/18/2022 9:45:00 AM 7.33 45.194 0.403 8.09 4.2 12.41
4/18/2022 10:00:00 AM 7.4 45.32 0.403 8.1 4.13 12.46
4/18/2022 10:15:00 AM 7.48 45.464 0.403 8.12 4.08 12.51
4/18/2022 10:30:00 AM 7.58 45.644 0.402 8.13 4.94 12.58
4/18/2022 10:45:00 AM 7.69 45.842 0.402 8.15 4.18 12.65
4/18/2022 11:00:00 AM 7.77 45.986 0.402 8.16 4.21 12.68
4/18/2022 11:15:00 AM 7.86 46.148 0.401 8.18 4.42 12.72
4/18/2022 11:30:00 AM 7.94 46.292 0.401 8.19 4.17 12.76
4/18/2022 11:45:00 AM 8.04 46.472 0.401 8.21 4.39 12.78
4/18/2022 12:00:00 PM 8.13 46.634 0.401 8.23 4.12 12.8
4/18/2022 12:15:00 PM 8.21 46.778 0.4 8.24 4.01 12.81
4/18/2022 12:30:00 PM 8.28 46.904 0.4 8.25 4 12.78
4/18/2022 12:45:00 PM 8.31 46.958 0.4 8.26 3.95 12.73
4/18/2022 1:00:00 PM 8.36 47.048 0.4 8.26 3.95 12.65
4/18/2022 1:15:00 PM 8.39 47.102 0.4 8.27 3.82 12.57
4/18/2022 1:30:00 PM 8.42 47.156 0.4 8.26 4.97 12.48
4/18/2022 1:45:00 PM 8.43 47.174 0.4 8.26 3.77 12.41
4/18/2022 2:00:00 PM 8.45 47.21 0.399 8.26 4.24 12.35
4/18/2022 2:15:00 PM 8.46 47.228 0.399 8.26 3.71 12.28
4/18/2022 2:30:00 PM 8.49 47.282 0.399 8.25 3.73 12.23
4/18/2022 2:45:00 PM 8.52 47.336 0.399 8.25 3.75 12.17
4/18/2022 3:00:00 PM 8.54 47.372 0.399 8.25 3.76 12.13
4/18/2022 3:15:00 PM 8.57 47.426 0.399 8.25 3.78 12.09
4/18/2022 3:30:00 PM 8.59 47.462 0.399 8.24 3.82 12.06
4/18/2022 3:45:00 PM 8.61 47.498 0.399 8.24 3.78 12.02
4/18/2022 4:00:00 PM 8.61 47.498 0.399 8.23 3.75 11.98
4/18/2022 4:15:00 PM 8.6 47.48 0.398 8.23 3.86 11.95
4/18/2022 4:30:00 PM 8.59 47.462 0.397 8.22 4.14 11.89
4/18/2022 4:45:00 PM 8.55 47.39 0.396 8.21 4.44 11.83
4/18/2022 5:00:00 PM 8.52 47.336 0.394 8.19 4.72 11.8
4/18/2022 5:15:00 PM 8.47 47.246 0.392 8.18 4.75 11.78
4/18/2022 5:30:00 PM 8.42 47.156 0.391 8.17 5.2 11.76
4/18/2022 5:45:00 PM 8.39 47.102 0.39 8.16 5.31 11.75
4/18/2022 6:00:00 PM 8.35 47.03 0.388 8.14 5.8 11.73
4/18/2022 6:15:00 PM 8.32 46.976 0.387 8.12 5.76 11.68
4/18/2022 6:30:00 PM 8.29 46.922 0.387 8.11 5.68 11.64
4/18/2022 6:45:00 PM 8.28 46.904 0.387 8.1 5.63 11.59
4/18/2022 7:00:00 PM 8.27 46.886 0.387 8.08 5.53 11.54
4/18/2022 7:15:00 PM 8.27 46.886 0.388 8.08 5.9 11.49
4/18/2022 7:30:00 PM 8.26 46.868 0.388 8.06 5.92 11.44
4/18/2022 7:45:00 PM 8.25 46.85 0.389 8.05 6.14 11.39
4/18/2022 8:00:00 PM 8.25 46.85 0.389 8.05 5.55 11.34
4/18/2022 8:15:00 PM 8.23 46.814 0.388 8.04 5.86 11.3
4/18/2022 8:30:00 PM 8.2 46.76 0.387 8.03 5.43 11.26
4/18/2022 8:45:00 PM 8.17 46.706 0.385 8.02 5.53 11.24
4/18/2022 9:00:00 PM 8.12 46.616 0.382 8.01 5.93 11.23
4/18/2022 9:15:00 PM 8.07 46.526 0.378 8.01 6.49 11.22
4/18/2022 9:30:00 PM 8.01 46.418 0.373 8 9.07 11.2
4/18/2022 9:45:00 PM 7.96 46.328 0.369 7.99 11.18 11.19
4/18/2022 10:00:00 PM 7.9 46.22 0.365 7.97 14.69 11.16
4/18/2022 10:15:00 PM 7.87 46.166 0.36 7.95 17.3 11.14
4/18/2022 10:30:00 PM 7.82 46.076 0.356 7.94 21.17 11.11
4/18/2022 10:45:00 PM 7.78 46.004 0.352 7.92 24.06 11.09
4/18/2022 11:00:00 PM 7.75 45.95 0.348 7.9 29.21 11.05
4/18/2022 11:15:00 PM 7.72 45.896 0.343 7.89 33.93 11.03
4/18/2022 11:30:00 PM 7.7 45.86 0.34 7.87 39.48 11.02
4/18/2022 11:45:00 PM 7.67 45.806 0.335 7.86 39.62 11.01
4/19/2022 12:00:00 AM 7.62 45.716 0.328 7.84 40.38 11
4/19/2022 12:15:00 AM 7.56 45.608 0.319 7.83 43.96 11.01
4/19/2022 12:30:00 AM 7.48 45.464 0.31 7.81 50.46 11.01
4/19/2022 12:45:00 AM 7.38 45.284 0.3 7.79 58.95 10.97
4/19/2022 1:00:00 AM 7.28 45.104 0.291 7.77 70.42 10.94
4/19/2022 1:15:00 AM 7.15 44.87 0.284 7.75 78.65 10.9
4/19/2022 1:30:00 AM 7.09 44.762 0.282 7.74 82.23 10.89
4/19/2022 1:45:00 AM 7.09 44.762 0.284 7.73 86.09 10.87
4/19/2022 2:00:00 AM 7.04 44.672 0.278 7.72 85.29 10.9
4/19/2022 2:15:00 AM 6.95 44.51 0.266 7.72 87.91 10.94
4/19/2022 2:30:00 AM 6.85 44.33 0.25 7.69 91.79 10.97
4/19/2022 2:45:00 AM 6.76 44.168 0.235 7.67 89.37 11.01
4/19/2022 3:00:00 AM 6.68 44.024 0.226 7.65 86.94 11.03
4/19/2022 3:15:00 AM 6.61 43.898 0.219 7.64 83.04 11.05
4/19/2022 3:30:00 AM 6.57 43.826 0.215 7.63 77.14 11.07
4/19/2022 3:45:00 AM 6.55 43.79 0.212 7.61 73.03 11.08
4/19/2022 4:00:00 AM 6.54 43.772 0.212 7.62 66.18 11.08
4/19/2022 4:15:00 AM 6.55 43.79 0.212 7.62 59.62 11.08
4/19/2022 4:30:00 AM 6.55 43.79 0.214 7.62 57.36 11.07
4/19/2022 4:45:00 AM 6.55 43.79 0.216 7.61 54.34 11.07
4/19/2022 5:00:00 AM 6.55 43.79 0.218 7.62 50.01 11.06
4/19/2022 5:15:00 AM 6.56 43.808 0.221 7.62 46.07 11.05
4/19/2022 5:30:00 AM 6.56 43.808 0.224 7.62 43.63 11.05
4/19/2022 5:45:00 AM 6.57 43.826 0.228 7.63 40.13 11.04
4/19/2022 6:00:00 AM 6.58 43.844 0.231 7.63 37.07 11.04
4/19/2022 6:15:00 AM 6.6 43.88 0.235 7.61 34.17 11.03
4/19/2022 6:30:00 AM 6.61 43.898 0.239 7.64 32.11 11.03
4/19/2022 6:45:00 AM 6.62 43.916 0.243 7.64 29.86 11.03
4/19/2022 7:00:00 AM 6.62 43.916 0.247 7.65 29.01 11.04
4/19/2022 7:15:00 AM 6.62 43.916 0.251 7.65 26.28 11.04
4/19/2022 7:30:00 AM 6.63 43.934 0.255 7.66 25.32 11.06
4/19/2022 7:45:00 AM 6.64 43.952 0.259 7.67 23.2 11.08
4/19/2022 8:00:00 AM 6.65 43.97 0.263 7.68 22.17 11.1
4/19/2022 8:15:00 AM 6.69 44.042 0.267 7.69 20.2 11.14
4/19/2022 8:30:00 AM 6.74 44.132 0.271 7.7 18.89 11.18
4/19/2022 8:45:00 AM 6.79 44.222 0.275 7.71 20.42 11.23
4/19/2022 9:00:00 AM 6.85 44.33 0.278 7.72 19.8 11.28
4/19/2022 9:15:00 AM 6.94 44.492 0.282 7.74 17.09 11.35
4/19/2022 9:30:00 AM 7.04 44.672 0.285 7.75 18.27 11.42
4/19/2022 9:45:00 AM 7.15 44.87 0.288 7.77 18.86 11.49
4/19/2022 10:00:00 AM 7.25 45.05 0.291 7.79 16.04 11.58
4/19/2022 10:15:00 AM 7.46 45.428 0.294 7.8 15.46 11.69
4/19/2022 10:30:00 AM 7.59 45.662 0.297 7.82 16.1 11.77
4/19/2022 10:45:00 AM 7.75 45.95 0.3 7.84 19.35 11.85
4/19/2022 11:00:00 AM 7.93 46.274 0.303 7.86 14.26 11.93
4/19/2022 11:15:00 AM 8.12 46.616 0.305 7.89 14.47 11.97
4/19/2022 11:30:00 AM 8.3 46.94 0.308 7.91 11.63 12.04
4/19/2022 11:45:00 AM 8.4 47.12 0.31 7.92 12.39 12.06
4/19/2022 12:00:00 PM 8.53 47.354 0.312 7.94 12.83 12.08
4/19/2022 12:15:00 PM 8.68 47.624 0.315 7.96 14.34 12.11
4/19/2022 12:30:00 PM 8.89 48.002 0.317 7.97 10.48 12.13
4/19/2022 12:45:00 PM 9.06 48.308 0.319 7.99 11.9 12.15
4/19/2022 1:00:00 PM 9.31 48.758 0.32 8 10.2 12.16
4/19/2022 1:15:00 PM 9.29 48.722 0.322 8 9.04 12.05
4/19/2022 1:30:00 PM 9.55 49.19 0.324 8.01 8.9 12.06
4/19/2022 1:45:00 PM 9.64 49.352 0.326 8.02 10.56 12.05
4/19/2022 2:00:00 PM 9.83 49.694 0.328 8.03 8.48 12.04
4/19/2022 2:15:00 PM 10.08 50.144 0.329 8.05 11.61 12.06
4/19/2022 2:30:00 PM 10.16 50.288 0.331 8.06 8.06 12.06
4/19/2022 2:45:00 PM 10.13 50.234 0.333 8.06 8.21 11.95
4/19/2022 3:00:00 PM 10.25 50.45 0.334 8.07 8.21 11.96
4/19/2022 3:15:00 PM 10.43 50.774 0.335 8.08 10.19 11.97
4/19/2022 3:30:00 PM 10.49 50.882 0.337 8.09 7.49 11.96
4/19/2022 3:45:00 PM 10.52 50.936 0.338 8.09 10.42 11.9
4/19/2022 4:00:00 PM 10.6 51.08 0.34 8.09 9.55 11.87
4/19/2022 4:15:00 PM 10.74 51.332 0.34 8.1 6.95 11.88
4/19/2022 4:30:00 PM 10.79 51.422 0.341 8.1 6.74 11.83
4/19/2022 4:45:00 PM 10.8 51.44 0.343 8.09 6.52 11.76
4/19/2022 5:00:00 PM 10.85 51.53 0.344 8.1 6.71 11.73
4/19/2022 5:15:00 PM 10.84 51.512 0.345 8.1 7.36 11.68
4/19/2022 5:30:00 PM 10.78 51.404 0.346 8.09 6.7 11.59
4/19/2022 5:45:00 PM 10.74 51.332 0.347 8.09 6.73 11.57
4/19/2022 6:00:00 PM 10.62 51.116 0.347 8.08 9.41 11.51
4/19/2022 6:15:00 PM 10.49 50.882 0.349 8.07 7.75 11.45
4/19/2022 6:30:00 PM 10.42 50.756 0.35 8.07 6.36 11.41
4/19/2022 6:45:00 PM 10.35 50.63 0.35 8.05 6.99 11.34
4/19/2022 7:00:00 PM 10.25 50.45 0.351 8.04 7.23 11.28
4/19/2022 7:15:00 PM 10.2 50.36 0.352 8.03 6.22 11.22
4/19/2022 7:30:00 PM 10.13 50.234 0.352 8.02 6.21 11.15
4/19/2022 7:45:00 PM 10.06 50.108 0.353 8.01 12.22 11.09
4/19/2022 8:00:00 PM 9.98 49.964 0.354 8 7.77 11.05
4/19/2022 8:15:00 PM 9.91 49.838 0.354 7.99 10.11 11
4/19/2022 8:30:00 PM 9.82 49.676 0.355 7.99 5.93 10.97
4/19/2022 8:45:00 PM 9.74 49.532 0.356 7.98 5.82 10.94
4/19/2022 9:00:00 PM 9.64 49.352 0.357 7.97 6.07 10.91
4/19/2022 9:15:00 PM 9.54 49.172 0.357 7.96 5.86 10.9
4/19/2022 9:30:00 PM 9.44 48.992 0.358 7.95 6.05 10.89
4/19/2022 9:45:00 PM 9.33 48.794 0.359 7.94 6.1 10.89
4/19/2022 10:00:00 PM 9.21 48.578 0.36 7.94 5.9 10.89
4/19/2022 10:15:00 PM 9.08 48.344 0.361 7.93 6.05 10.88
4/19/2022 10:30:00 PM 8.96 48.128 0.361 7.93 6.41 10.89
4/19/2022 10:45:00 PM 8.83 47.894 0.362 7.92 6.35 10.88
4/19/2022 11:00:00 PM 8.71 47.678 0.362 7.91 6.16 10.87
4/19/2022 11:15:00 PM 8.6 47.48 0.362 7.9 6.23 10.87
4/19/2022 11:30:00 PM 8.49 47.282 0.363 7.9 7.24 10.87
4/19/2022 11:45:00 PM 8.39 47.102 0.363 7.89 6.79 10.88
4/20/2022 12:00:00 AM 8.3 46.94 0.364 7.88 5.96 10.89
4/20/2022 12:15:00 AM 8.22 46.796 0.364 7.88 5.79 10.9
4/20/2022 12:30:00 AM 8.14 46.652 0.364 7.88 5.73 10.92
4/20/2022 12:45:00 AM 8.07 46.526 0.365 7.88 5.75 10.93
4/20/2022 1:00:00 AM 7.99 46.382 0.365 7.87 5.76 10.95
4/20/2022 1:15:00 AM 7.91 46.238 0.365 7.87 5.61 10.98
4/20/2022 1:30:00 AM 7.84 46.112 0.366 7.87 5.45 11
4/20/2022 1:45:00 AM 7.75 45.95 0.366 7.87 5.44 11.02
4/20/2022 2:00:00 AM 7.67 45.806 0.367 7.87 5.25 11.05
4/20/2022 2:15:00 AM 7.59 45.662 0.367 7.87 5.33 11.08
4/20/2022 2:30:00 AM 7.52 45.536 0.368 7.87 5.35 11.11
4/20/2022 2:45:00 AM 7.44 45.392 0.368 7.87 5.18 11.13
4/20/2022 3:00:00 AM 7.37 45.266 0.368 7.86 5.14 11.16
4/20/2022 3:15:00 AM 7.31 45.158 0.368 7.87 5.14 11.19
4/20/2022 3:30:00 AM 7.25 45.05 0.369 7.87 5.25 11.21
4/20/2022 3:45:00 AM 7.19 44.942 0.369 7.87 5.3 11.23
4/20/2022 4:00:00 AM 7.14 44.852 0.369 7.87 5.3 11.25
4/20/2022 4:15:00 AM 7.09 44.762 0.369 7.87 5.26 11.27
4/20/2022 4:30:00 AM 7.04 44.672 0.37 7.87 5.56 11.29
4/20/2022 4:45:00 AM 7 44.6 0.37 7.87 5.3 11.31
4/20/2022 5:00:00 AM 6.96 44.528 0.37 7.87 5.04 11.33
4/20/2022 5:15:00 AM 6.92 44.456 0.37 7.87 5.38 11.34
4/20/2022 5:30:00 AM 6.88 44.384 0.37 7.87 5.13 11.36
4/20/2022 5:45:00 AM 6.85 44.33 0.371 7.87 5.02 11.37
4/20/2022 6:00:00 AM 6.81 44.258 0.371 7.87 5 11.38
4/20/2022 6:15:00 AM 6.78 44.204 0.371 7.87 5.1 11.4
4/20/2022 6:30:00 AM 6.76 44.168 0.371 7.87 5.18 11.42
4/20/2022 6:45:00 AM 6.73 44.114 0.371 7.88 5.06 11.45
4/20/2022 7:00:00 AM 6.7 44.06 0.372 7.88 5.02 11.49
4/20/2022 7:15:00 AM 6.68 44.024 0.372 7.88 5.12 11.54
4/20/2022 7:30:00 AM 6.67 44.006 0.372 7.88 4.83 11.58
4/20/2022 7:45:00 AM 6.67 44.006 0.372 7.89 5.13 11.64
4/20/2022 8:00:00 AM 6.68 44.024 0.372 7.9 4.7 11.7
4/20/2022 8:15:00 AM 6.71 44.078 0.372 7.89 4.77 11.76
4/20/2022 8:30:00 AM 6.75 44.15 0.372 7.91 4.61 11.84
4/20/2022 8:45:00 AM 6.82 44.276 0.372 7.92 4.43 11.9
4/20/2022 9:00:00 AM 6.9 44.42 0.372 7.93 4.29 11.97
4/20/2022 9:15:00 AM 7 44.6 0.372 7.92 4.31 12.02
4/20/2022 9:30:00 AM 7.11 44.798 0.372 7.94 4.63 12.09
4/20/2022 9:45:00 AM 7.25 45.05 0.372 7.96 4.17 12.15
4/20/2022 10:00:00 AM 7.4 45.32 0.372 7.97 4.35 12.22
4/20/2022 10:15:00 AM 7.59 45.662 0.372 7.99 4.17 12.29
4/20/2022 10:30:00 AM 7.82 46.076 0.372 8.01 4.3 12.35
4/20/2022 10:45:00 AM 8.06 46.508 0.372 8.02 4.19 12.41
4/20/2022 11:00:00 AM 8.33 46.994 0.371 8.04 4.2 12.47
4/20/2022 11:15:00 AM 8.65 47.57 0.371 8.06 4.08 12.5
4/20/2022 11:30:00 AM 8.97 48.146 0.371 8.08 4.07 12.53
4/20/2022 11:45:00 AM 9.32 48.776 0.37 8.1 4.16 12.55
4/20/2022 12:00:00 PM 9.7 49.46 0.37 8.11 4.03 12.56
4/20/2022 12:15:00 PM 10.08 50.144 0.37 8.13 4.19 12.54
4/20/2022 12:30:00 PM 10.5 50.9 0.37 8.15 4.18 12.52
4/20/2022 12:45:00 PM 10.9 51.62 0.37 8.17 4.11 12.48
4/20/2022 1:00:00 PM 11.3 52.34 0.369 8.17 3.98 12.44
4/20/2022 1:15:00 PM 11.67 53.006 0.369 8.2 4.19 12.39
4/20/2022 1:30:00 PM 12.07 53.726 0.369 8.21 4.12 12.35
4/20/2022 1:45:00 PM 12.43 54.374 0.369 8.22 4.22 12.3
4/20/2022 2:00:00 PM 12.76 54.968 0.369 8.23 4.39 12.24
4/20/2022 2:15:00 PM 13.09 55.562 0.369 8.24 6.22 12.18
4/20/2022 2:30:00 PM 13.37 56.066 0.369 8.26 4.51 12.11
4/20/2022 2:45:00 PM 13.64 56.552 0.369 8.26 4.92 12.04
4/20/2022 3:00:00 PM 13.89 57.002 0.369 8.28 4.4 11.98
4/20/2022 3:15:00 PM 14.09 57.362 0.369 8.26 5.27 11.91
4/20/2022 3:30:00 PM 14.25 57.65 0.369 8.29 4.48 11.84
4/20/2022 3:45:00 PM 14.35 57.83 0.369 8.28 4.61 11.77
4/20/2022 4:00:00 PM 14.45 58.01 0.369 8.29 4.9 11.7
4/20/2022 4:15:00 PM 14.51 58.118 0.369 8.29 4.57 11.62
4/20/2022 4:30:00 PM 14.52 58.136 0.369 8.29 4.67 11.53
4/20/2022 4:45:00 PM 14.51 58.118 0.369 8.28 4.72 11.44
4/20/2022 5:00:00 PM 14.49 58.082 0.369 8.28 4.66 11.36
4/20/2022 5:15:00 PM 14.44 57.992 0.369 8.27 4.78 11.27
4/20/2022 5:30:00 PM 14.39 57.902 0.37 8.26 4.79 11.18
4/20/2022 5:45:00 PM 14.32 57.776 0.37 8.25 4.79 11.09
4/20/2022 6:00:00 PM 14.25 57.65 0.37 8.24 4.82 10.98
4/20/2022 6:15:00 PM 14.15 57.47 0.37 8.22 4.95 10.87
4/20/2022 6:30:00 PM 14.05 57.29 0.37 8.2 4.94 10.76
4/20/2022 6:45:00 PM 13.96 57.128 0.37 8.16 4.79 10.67
4/20/2022 7:00:00 PM 13.87 56.966 0.37 8.16 4.93 10.58
4/20/2022 7:15:00 PM 13.78 56.804 0.37 8.14 5.54 10.49
4/20/2022 7:30:00 PM 13.67 56.606 0.371 8.12 4.95 10.41
4/20/2022 7:45:00 PM 13.56 56.408 0.371 8.1 4.87 10.34
4/20/2022 8:00:00 PM 13.43 56.174 0.371 8.08 4.73 10.27
4/20/2022 8:15:00 PM 13.3 55.94 0.372 8.05 4.97 10.22
4/20/2022 8:30:00 PM 13.15 55.67 0.372 8.04 5.21 10.19
4/20/2022 8:45:00 PM 12.99 55.382 0.372 8.03 5.22 10.17
4/20/2022 9:00:00 PM 12.82 55.076 0.373 8.02 5.31 10.14
4/20/2022 9:15:00 PM 12.65 54.77 0.373 8 5.31 10.14
4/20/2022 9:30:00 PM 12.47 54.446 0.373 7.99 5.48 10.13
4/20/2022 9:45:00 PM 12.29 54.122 0.374 7.98 5.42 10.14
4/20/2022 10:00:00 PM 12.11 53.798 0.375 7.96 5.53 10.15
4/20/2022 10:15:00 PM 11.92 53.456 0.375 7.96 5.39 10.16
4/20/2022 10:30:00 PM 11.74 53.132 0.375 7.95 5.01 10.17
4/20/2022 10:45:00 PM 11.55 52.79 0.375 7.94 5.46 10.19
4/20/2022 11:00:00 PM 11.37 52.466 0.375 7.93 5.16 10.2
4/20/2022 11:15:00 PM 11.19 52.142 0.376 7.92 5.05 10.21
4/20/2022 11:30:00 PM 11.02 51.836 0.376 7.91 5.03 10.23
4/20/2022 11:45:00 PM 10.85 51.53 0.376 7.91 4.99 10.25
4/21/2022 12:00:00 AM 10.69 51.242 0.376 7.9 5.15 10.28
4/21/2022 12:15:00 AM 10.55 50.99 0.376 7.9 5.15 10.31
4/21/2022 12:30:00 AM 10.42 50.756 0.377 7.89 5.01 10.33
4/21/2022 12:45:00 AM 10.29 50.522 0.377 7.89 5.01 10.36
4/21/2022 1:00:00 AM 10.18 50.324 0.377 7.88 5.09 10.39
4/21/2022 1:15:00 AM 10.09 50.162 0.377 7.88 4.74 10.42
4/21/2022 1:30:00 AM 9.99 49.982 0.377 7.88 4.71 10.45
4/21/2022 1:45:00 AM 9.9 49.82 0.377 7.88 4.76 10.48
4/21/2022 2:00:00 AM 9.8 49.64 0.377 7.88 5.02 10.51
4/21/2022 2:15:00 AM 9.7 49.46 0.377 7.87 4.54 10.54
4/21/2022 2:30:00 AM 9.61 49.298 0.377 7.88 4.59 10.57
4/21/2022 2:45:00 AM 9.52 49.136 0.378 7.87 4.57 10.6
4/21/2022 3:00:00 AM 9.43 48.974 0.378 7.88 4.59 10.63
4/21/2022 3:15:00 AM 9.35 48.83 0.378 7.87 4.67 10.66
4/21/2022 3:30:00 AM 9.27 48.686 0.378 7.87 5.09 10.69
4/21/2022 3:45:00 AM 9.2 48.56 0.378 7.87 5.01 10.71
4/21/2022 4:00:00 AM 9.13 48.434 0.378 7.87 4.6 10.73
4/21/2022 4:15:00 AM 9.07 48.326 0.378 7.87 4.6 10.75
4/21/2022 4:30:00 AM 9 48.2 0.378 7.88 4.87 10.77
4/21/2022 4:45:00 AM 8.95 48.11 0.378 7.88 4.54 10.79
4/21/2022 5:00:00 AM 8.89 48.002 0.378 7.88 4.62 10.81
4/21/2022 5:15:00 AM 8.84 47.912 0.378 7.88 4.72 10.83
4/21/2022 5:30:00 AM 8.78 47.804 0.378 7.87 4.34 10.85
4/21/2022 5:45:00 AM 8.72 47.696 0.378 7.88 4.31 10.87
4/21/2022 6:00:00 AM 8.66 47.588 0.378 7.88 4.36 10.89
4/21/2022 6:15:00 AM 8.6 47.48 0.378 7.88 4.41 10.91
4/21/2022 6:30:00 AM 8.54 47.372 0.378 7.88 4.57 10.93
4/21/2022 6:45:00 AM 8.5 47.3 0.378 7.88 4.41 10.96
4/21/2022 7:00:00 AM 8.46 47.228 0.378 7.88 4.51 11.02
4/21/2022 7:15:00 AM 8.44 47.192 0.378 7.89 4.39 11.09
4/21/2022 7:30:00 AM 8.42 47.156 0.378 7.9 4.24 11.15
4/21/2022 7:45:00 AM 8.45 47.21 0.377 7.9 4.22 11.25
4/21/2022 8:00:00 AM 8.52 47.336 0.378 7.92 4.17 11.36
4/21/2022 8:15:00 AM 8.6 47.48 0.378 7.93 4.19 11.45
4/21/2022 8:30:00 AM 8.67 47.606 0.378 7.94 4.08 11.52
4/21/2022 8:45:00 AM 8.75 47.75 0.377 7.95 4.23 11.58
4/21/2022 9:00:00 AM 8.85 47.93 0.377 7.96 3.85 11.66
4/21/2022 9:15:00 AM 8.98 48.164 0.377 7.98 3.81 11.76
4/21/2022 9:30:00 AM 9.08 48.344 0.377 7.99 3.9 11.83
4/21/2022 9:45:00 AM 9.18 48.524 0.377 8.01 3.63 11.88
4/21/2022 10:00:00 AM 9.38 48.884 0.376 8.02 3.65 11.97
4/21/2022 10:15:00 AM 9.56 49.208 0.376 8.04 3.68 12.05
4/21/2022 10:30:00 AM 9.75 49.55 0.376 8.05 3.87 12.1
4/21/2022 10:45:00 AM 9.91 49.838 0.376 8.07 3.73 12.14
4/21/2022 11:00:00 AM 10.21 50.378 0.375 8.09 3.59 12.22
4/21/2022 11:15:00 AM 10.38 50.684 0.375 8.11 3.8 12.26
4/21/2022 11:30:00 AM 10.52 50.936 0.375 8.13 3.8 12.27
4/21/2022 11:45:00 AM 10.6 51.08 0.374 8.14 3.8 12.26
4/21/2022 12:00:00 PM 10.73 51.314 0.374 8.15 4.26 12.25
4/21/2022 12:15:00 PM 10.92 51.656 0.374 8.16 4.08 12.27
4/21/2022 12:30:00 PM 11.08 51.944 0.373 8.18 3.78 12.28
4/21/2022 12:45:00 PM 11.24 52.232 0.373 8.2 3.97 12.28
4/21/2022 1:00:00 PM 11.59 52.862 0.373 8.21 4.05 12.3
4/21/2022 1:15:00 PM 11.81 53.258 0.373 8.23 3.66 12.3
4/21/2022 1:30:00 PM 11.89 53.402 0.372 8.24 3.86 12.25
4/21/2022 1:45:00 PM 11.97 53.546 0.372 8.23 3.97 12.18
4/21/2022 2:00:00 PM 12.04 53.672 0.372 8.25 3.72 12.12
4/21/2022 2:15:00 PM 12.14 53.852 0.372 8.26 3.77 12.08
4/21/2022 2:30:00 PM 12.28 54.104 0.372 8.26 3.78 12.04
4/21/2022 2:45:00 PM 12.36 54.248 0.372 8.27 3.86 11.98
4/21/2022 3:00:00 PM 12.44 54.392 0.371 8.27 3.72 11.94
4/21/2022 3:15:00 PM 12.47 54.446 0.371 8.27 3.83 11.86
4/21/2022 3:30:00 PM 12.48 54.464 0.372 8.27 3.73 11.78
4/21/2022 3:45:00 PM 12.47 54.446 0.372 8.26 3.79 11.7
4/21/2022 4:00:00 PM 12.44 54.392 0.372 8.25 3.74 11.57
4/21/2022 4:15:00 PM 12.42 54.356 0.372 8.24 3.87 11.5
4/21/2022 4:30:00 PM 12.4 54.32 0.372 8.23 3.98 11.43
4/21/2022 4:45:00 PM 12.39 54.302 0.372 8.21 3.89 11.31
4/21/2022 5:00:00 PM 12.38 54.284 0.372 8.19 3.87 11.21
4/21/2022 5:15:00 PM 12.37 54.266 0.372 8.18 3.75 11.15
4/21/2022 5:30:00 PM 12.34 54.212 0.371 8.15 3.76 11.1
4/21/2022 5:45:00 PM 12.3 54.14 0.372 8.15 3.88 11.05
4/21/2022 6:00:00 PM 12.27 54.086 0.372 8.14 3.95 11.01
4/21/2022 6:15:00 PM 12.24 54.032 0.372 8.13 3.91 10.97
4/21/2022 6:30:00 PM 12.19 53.942 0.372 8.11 3.98 10.92
4/21/2022 6:45:00 PM 12.15 53.87 0.372 8.1 3.98 10.84
4/21/2022 7:00:00 PM 12.1 53.78 0.372 8.08 4.02 10.77
4/21/2022 7:15:00 PM 12.04 53.672 0.372 8.06 4 10.7
4/21/2022 7:30:00 PM 11.98 53.564 0.373 8.04 4.09 10.63
4/21/2022 7:45:00 PM 11.92 53.456 0.373 8.02 5.44 10.56
4/21/2022 8:00:00 PM 11.86 53.348 0.373 8.01 3.93 10.51
4/21/2022 8:15:00 PM 11.79 53.222 0.374 7.98 4.19 10.45
4/21/2022 8:30:00 PM 11.73 53.114 0.374 7.98 4.31 10.41
4/21/2022 8:45:00 PM 11.68 53.024 0.374 7.96 3.97 10.37
4/21/2022 9:00:00 PM 11.62 52.916 0.374 7.95 4.24 10.34
4/21/2022 9:15:00 PM 11.57 52.826 0.375 7.94 4.32 10.32
4/21/2022 9:30:00 PM 11.53 52.754 0.375 7.93 4.24 10.3
4/21/2022 9:45:00 PM 11.48 52.664 0.375 7.92 4.24 10.29
4/21/2022 10:00:00 PM 11.44 52.592 0.376 7.92 4.44 10.27
4/21/2022 10:15:00 PM 11.39 52.502 0.376 7.91 4.14 10.26
4/21/2022 10:30:00 PM 11.34 52.412 0.376 7.9 4.31 10.25
4/21/2022 10:45:00 PM 11.28 52.304 0.376 7.9 4.17 10.24
4/21/2022 11:00:00 PM 11.22 52.196 0.376 7.9 4.26 10.24
4/21/2022 11:15:00 PM 11.15 52.07 0.376 7.89 4.44 10.24
4/21/2022 11:30:00 PM 11.09 51.962 0.376 7.89 4.37 10.23
4/21/2022 11:45:00 PM 11.03 51.854 0.376 7.89 4.4 10.24
4/22/2022 12:00:00 AM 10.97 51.746 0.376 7.88 4.31 10.24
4/22/2022 12:15:00 AM 10.91 51.638 0.376 7.88 4.3 10.25
4/22/2022 12:30:00 AM 10.84 51.512 0.376 7.88 4.26 10.26
4/22/2022 12:45:00 AM 10.77 51.386 0.376 7.88 4.27 10.28
4/22/2022 1:00:00 AM 10.7 51.26 0.376 7.87 4.49 10.29
4/22/2022 1:15:00 AM 10.63 51.134 0.376 7.88 4.3 10.3
4/22/2022 1:30:00 AM 10.55 50.99 0.376 7.88 4.22 10.32
4/22/2022 1:45:00 AM 10.48 50.864 0.376 7.88 4.3 10.34
4/22/2022 2:00:00 AM 10.4 50.72 0.376 7.87 4.09 10.36
4/22/2022 2:15:00 AM 10.33 50.594 0.376 7.88 4.46 10.38
4/22/2022 2:30:00 AM 10.25 50.45 0.377 7.87 4.42 10.4
4/22/2022 2:45:00 AM 10.18 50.324 0.377 7.87 4.18 10.42
4/22/2022 3:00:00 AM 10.11 50.198 0.377 7.88 4.09 10.44
4/22/2022 3:15:00 AM 10.03 50.054 0.377 7.88 4.16 10.47
4/22/2022 3:30:00 AM 9.96 49.928 0.377 7.87 10.02 10.49
4/22/2022 3:45:00 AM 9.89 49.802 0.377 7.87 4.17 10.51
4/22/2022 4:00:00 AM 9.85 49.73 0.377 7.87 4.27 10.53
4/22/2022 4:15:00 AM 9.79 49.622 0.377 7.87 4.06 10.55
4/22/2022 4:30:00 AM 9.73 49.514 0.377 7.87 3.93 10.57
4/22/2022 4:45:00 AM 9.67 49.406 0.377 7.87 4.16 10.59
4/22/2022 5:00:00 AM 9.6 49.28 0.378 7.87 3.85 10.62
4/22/2022 5:15:00 AM 9.53 49.154 0.378 7.87 4.1 10.64
4/22/2022 5:30:00 AM 9.47 49.046 0.378 7.87 4.07 10.65
4/22/2022 5:45:00 AM 9.4 48.92 0.378 7.87 4.45 10.68
4/22/2022 6:00:00 AM 9.33 48.794 0.378 7.87 4.31 10.7
4/22/2022 6:15:00 AM 9.26 48.668 0.378 7.87 4.17 10.72
4/22/2022 6:30:00 AM 9.2 48.56 0.378 7.87 4.4 10.75
4/22/2022 6:45:00 AM 9.14 48.452 0.377 7.88 4.03 10.78
4/22/2022 7:00:00 AM 9.09 48.362 0.378 7.88 3.93 10.83
4/22/2022 7:15:00 AM 9.05 48.29 0.378 7.88 3.8 10.89
4/22/2022 7:30:00 AM 9.01 48.218 0.378 7.89 3.93 10.95
4/22/2022 7:45:00 AM 9 48.2 0.378 7.89 4.14 11.01
4/22/2022 8:00:00 AM 9.01 48.218 0.378 7.9 4.11 11.09
4/22/2022 8:15:00 AM 9.04 48.272 0.378 7.91 4.07 11.18
4/22/2022 8:30:00 AM 9.11 48.398 0.378 7.92 3.7 11.26
4/22/2022 8:45:00 AM 9.21 48.578 0.378 7.93 3.91 11.35
4/22/2022 9:00:00 AM 9.3 48.74 0.378 7.94 3.58 11.43
4/22/2022 9:15:00 AM 9.43 48.974 0.378 7.95 3.59 11.51
4/22/2022 9:30:00 AM 9.57 49.226 0.378 7.96 3.73 11.59
4/22/2022 9:45:00 AM 9.75 49.55 0.377 7.98 3.58 11.67
4/22/2022 10:00:00 AM 9.89 49.802 0.377 7.99 3.62 11.74
4/22/2022 10:15:00 AM 10.1 50.18 0.377 8.01 3.91 11.82
4/22/2022 10:30:00 AM 10.35 50.63 0.377 8.03 3.53 11.91
4/22/2022 10:45:00 AM 10.6 51.08 0.377 8.05 3.6 11.98
4/22/2022 11:00:00 AM 10.88 51.584 0.376 8.07 3.82 12.04
4/22/2022 11:15:00 AM 11.22 52.196 0.376 8.09 4.11 12.1
4/22/2022 11:30:00 AM 11.56 52.808 0.376 8.11 3.77 12.14
4/22/2022 11:45:00 AM 11.88 53.384 0.375 8.13 3.73 12.16
4/22/2022 12:00:00 PM 12.26 54.068 0.375 8.16 4.04 12.17
4/22/2022 12:15:00 PM 12.64 54.752 0.375 8.18 3.96 12.17
4/22/2022 12:30:00 PM 13.05 55.49 0.375 8.2 3.78 12.16
4/22/2022 12:45:00 PM 13.46 56.228 0.374 8.22 3.71 12.14
4/22/2022 1:00:00 PM 13.87 56.966 0.374 8.24 3.87 12.09
4/22/2022 1:15:00 PM 14.25 57.65 0.374 8.25 3.7 12.06
4/22/2022 1:30:00 PM 14.6 58.28 0.373 8.28 3.88 12.02
4/22/2022 1:45:00 PM 14.91 58.838 0.373 8.29 3.76 11.98
4/22/2022 2:00:00 PM 15.21 59.378 0.373 8.31 3.8 11.93
4/22/2022 2:15:00 PM 15.49 59.882 0.373 8.33 3.81 11.89
4/22/2022 2:30:00 PM 15.72 60.296 0.372 8.34 4.42 11.83
4/22/2022 2:45:00 PM 15.9 60.62 0.372 8.35 4.02 11.76
4/22/2022 3:00:00 PM 15.96 60.728 0.372 8.36 5.31 11.68
4/22/2022 3:15:00 PM 16.03 60.854 0.373 8.37 3.8 11.62
4/22/2022 3:30:00 PM 16.02 60.836 0.373 8.37 3.99 11.52
4/22/2022 3:45:00 PM 15.99 60.782 0.373 8.37 4.27 11.41
4/22/2022 4:00:00 PM 16.04 60.872 0.373 8.37 4.57 11.35
4/22/2022 4:15:00 PM 16.05 60.89 0.374 8.37 4.13 11.26
4/22/2022 4:30:00 PM 16.09 60.962 0.373 8.36 4.24 11.19
4/22/2022 4:45:00 PM 16.13 61.034 0.374 8.36 3.91 11.12
4/22/2022 5:00:00 PM 16.15 61.07 0.374 8.35 4.21 11.06
4/22/2022 5:15:00 PM 16.13 61.034 0.373 8.34 4.44 10.98
4/22/2022 5:30:00 PM 16.07 60.926 0.373 8.34 4.21 10.9
4/22/2022 5:45:00 PM 15.99 60.782 0.374 8.3 4.09 10.79
4/22/2022 6:00:00 PM 15.91 60.638 0.374 8.3 4.22 10.68
4/22/2022 6:15:00 PM 15.79 60.422 0.373 8.28 4.31 10.56
4/22/2022 6:30:00 PM 15.66 60.188 0.373 8.25 4.12 10.44
4/22/2022 6:45:00 PM 15.59 60.062 0.373 8.23 4.31 10.37
4/22/2022 7:00:00 PM 15.48 59.864 0.374 8.21 4.28 10.29
4/22/2022 7:15:00 PM 15.37 59.666 0.374 8.19 4.58 10.2
4/22/2022 7:30:00 PM 15.25 59.45 0.374 8.16 4.21 10.1
4/22/2022 7:45:00 PM 15.12 59.216 0.375 8.14 4.38 10.02
4/22/2022 8:00:00 PM 14.99 58.982 0.375 8.11 4.15 9.94
4/22/2022 8:15:00 PM 14.87 58.766 0.375 8.09 4.41 9.87
4/22/2022 8:30:00 PM 14.75 58.55 0.375 8.07 4.47 9.82
4/22/2022 8:45:00 PM 14.64 58.352 0.376 8.05 4.66 9.78
4/22/2022 9:00:00 PM 14.5 58.1 0.376 8.03 4.75 9.74
4/22/2022 9:15:00 PM 14.35 57.83 0.376 8.02 4.85 9.73
4/22/2022 9:30:00 PM 14.19 57.542 0.377 7.98 4.83 9.71
4/22/2022 9:45:00 PM 14.03 57.254 0.377 7.99 4.9 9.71
4/22/2022 10:00:00 PM 13.87 56.966 0.377 7.98 4.88 9.71
4/22/2022 10:15:00 PM 13.71 56.678 0.378 7.97 5.15 9.72
4/22/2022 10:30:00 PM 13.54 56.372 0.378 7.96 4.86 9.72
4/22/2022 10:45:00 PM 13.38 56.084 0.378 7.95 4.79 9.73
4/22/2022 11:00:00 PM 13.22 55.796 0.379 7.94 5.13 9.73
4/22/2022 11:15:00 PM 13.06 55.508 0.379 7.93 5.04 9.75
4/22/2022 11:30:00 PM 12.91 55.238 0.38 7.92 4.93 9.75
4/22/2022 11:45:00 PM 12.77 54.986 0.38 7.91 5.05 9.76
4/23/2022 12:00:00 AM 12.63 54.734 0.38 7.9 4.93 9.77
4/23/2022 12:15:00 AM 12.52 54.536 0.38 7.89 5 9.78
4/23/2022 12:30:00 AM 12.41 54.338 0.381 7.89 4.86 9.8
4/23/2022 12:45:00 AM 12.3 54.14 0.381 7.89 4.67 9.82
4/23/2022 1:00:00 AM 12.2 53.96 0.381 7.88 4.7 9.85
4/23/2022 1:15:00 AM 12.11 53.798 0.381 7.88 4.74 9.87
4/23/2022 1:30:00 AM 12.02 53.636 0.381 7.87 4.83 9.9
4/23/2022 1:45:00 AM 11.94 53.492 0.381 7.87 4.61 9.92
4/23/2022 2:00:00 AM 11.85 53.33 0.381 7.87 4.62 9.94
4/23/2022 2:15:00 AM 11.77 53.186 0.381 7.87 4.56 9.96
4/23/2022 2:30:00 AM 11.7 53.06 0.382 7.87 4.46 9.99
4/23/2022 2:45:00 AM 11.63 52.934 0.382 7.87 4.31 10.01
4/23/2022 3:00:00 AM 11.57 52.826 0.382 7.87 4.31 10.03
4/23/2022 3:15:00 AM 11.51 52.718 0.382 7.86 4.44 10.05
4/23/2022 3:30:00 AM 11.45 52.61 0.382 7.87 4.29 10.07
4/23/2022 3:45:00 AM 11.39 52.502 0.382 7.87 4.29 10.09
4/23/2022 4:00:00 AM 11.34 52.412 0.382 7.87 4.31 10.11
4/23/2022 4:15:00 AM 11.28 52.304 0.382 7.87 4.38 10.12
4/23/2022 4:30:00 AM 11.23 52.214 0.382 7.87 4.35 10.14
4/23/2022 4:45:00 AM 11.19 52.142 0.382 7.87 4.4 10.15
4/23/2022 5:00:00 AM 11.14 52.052 0.382 7.86 4.32 10.17
4/23/2022 5:15:00 AM 11.1 51.98 0.382 7.87 4.24 10.18
4/23/2022 5:30:00 AM 11.06 51.908 0.382 7.87 4.2 10.2
4/23/2022 5:45:00 AM 11.02 51.836 0.382 7.87 4.59 10.21
4/23/2022 6:00:00 AM 10.98 51.764 0.383 7.87 4.55 10.22
4/23/2022 6:15:00 AM 10.94 51.692 0.382 7.87 8.53 10.24
4/23/2022 6:30:00 AM 10.91 51.638 0.383 7.87 6.16 10.26
4/23/2022 6:45:00 AM 10.87 51.566 0.383 7.87 6.76 10.28
4/23/2022 7:00:00 AM 10.85 51.53 0.383 7.87 5.12 10.31
4/23/2022 7:15:00 AM 10.82 51.476 0.383 7.88 4.88 10.34
4/23/2022 7:30:00 AM 10.8 51.44 0.383 7.87 4.11 10.37
4/23/2022 7:45:00 AM 10.78 51.404 0.383 7.88 6.41 10.4
4/23/2022 8:00:00 AM 10.76 51.368 0.383 7.88 5.36 10.45
4/23/2022 8:15:00 AM 10.76 51.368 0.383 7.89 3.85 10.53
4/23/2022 8:30:00 AM 10.79 51.422 0.383 7.91 4.06 10.65
4/23/2022 8:45:00 AM 10.8 51.44 0.383 7.92 3.88 10.74
4/23/2022 9:00:00 AM 10.83 51.494 0.383 7.93 3.87 10.83
4/23/2022 9:15:00 AM 10.85 51.53 0.382 7.93 3.91 10.93
4/23/2022 9:30:00 AM 10.88 51.584 0.382 7.95 4.2 11.02
4/23/2022 9:45:00 AM 10.91 51.638 0.382 7.97 3.67 11.11
4/23/2022 10:00:00 AM 10.98 51.764 0.382 7.99 4.03 11.22
4/23/2022 10:15:00 AM 11.06 51.908 0.38 8 3.93 11.34
4/23/2022 10:30:00 AM 11.13 52.034 0.382 8.02 3.73 11.45
4/23/2022 10:45:00 AM 11.18 52.124 0.381 8.04 3.84 11.52
4/23/2022 11:00:00 AM 11.22 52.196 0.381 8.05 3.71 11.57
4/23/2022 11:15:00 AM 11.3 52.34 0.381 8.07 3.61 11.65
4/23/2022 11:30:00 AM 11.36 52.448 0.381 8.08 3.72 11.69
4/23/2022 11:45:00 AM 11.41 52.538 0.381 8.09 3.59 11.73
4/23/2022 12:00:00 PM 11.49 52.682 0.38 8.11 3.83 11.79
4/23/2022 12:15:00 PM 11.57 52.826 0.38 8.12 3.96 11.85
4/23/2022 12:30:00 PM 11.73 53.114 0.38 8.14 3.59 11.93
4/23/2022 12:45:00 PM 11.89 53.402 0.38 8.17 3.75 12
4/23/2022 1:00:00 PM 11.96 53.528 0.379 8.18 3.69 12
4/23/2022 1:15:00 PM 12 53.6 0.379 8.19 3.81 11.98
4/23/2022 1:30:00 PM 12.1 53.78 0.379 8.2 3.75 12
4/23/2022 1:45:00 PM 12.19 53.942 0.379 8.22 3.69 12.02
4/23/2022 2:00:00 PM 12.26 54.068 0.378 8.24 3.72 12.02
4/23/2022 2:15:00 PM 12.31 54.158 0.378 8.24 3.8 11.98
4/23/2022 2:30:00 PM 12.35 54.23 0.378 8.25 3.77 11.92
4/23/2022 2:45:00 PM 12.42 54.356 0.378 8.26 3.91 11.91
4/23/2022 3:00:00 PM 12.51 54.518 0.378 8.27 3.9 11.92
4/23/2022 3:15:00 PM 12.61 54.698 0.378 8.28 4.04 11.93
4/23/2022 3:30:00 PM 12.69 54.842 0.378 8.29 3.94 11.92
4/23/2022 3:45:00 PM 12.8 55.04 0.377 8.3 3.85 11.91
4/23/2022 4:00:00 PM 12.93 55.274 0.377 8.31 4.06 11.92
4/23/2022 4:15:00 PM 13.03 55.454 0.377 8.31 4.35 11.9
4/23/2022 4:30:00 PM 13.13 55.634 0.377 8.32 4.17 11.87
4/23/2022 4:45:00 PM 13.22 55.796 0.377 8.32 3.88 11.82
4/23/2022 5:00:00 PM 13.3 55.94 0.377 8.32 3.94 11.77
4/23/2022 5:15:00 PM 13.38 56.084 0.377 8.33 3.95 11.74
4/23/2022 5:30:00 PM 13.4 56.12 0.377 8.32 4.09 11.67
4/23/2022 5:45:00 PM 13.41 56.138 0.377 8.31 4.09 11.56
4/23/2022 6:00:00 PM 13.38 56.084 0.377 8.3 4.23 11.46
4/23/2022 6:15:00 PM 13.34 56.012 0.377 8.29 4.15 11.34
4/23/2022 6:30:00 PM 13.28 55.904 0.377 8.26 3.85 11.23
4/23/2022 6:45:00 PM 13.21 55.778 0.378 8.25 4.15 11.11
4/23/2022 7:00:00 PM 13.14 55.652 0.378 8.23 3.79 11.01
4/23/2022 7:15:00 PM 13.11 55.598 0.378 8.21 3.95 10.92
4/23/2022 7:30:00 PM 13.07 55.526 0.378 8.19 3.99 10.8
4/23/2022 7:45:00 PM 13.05 55.49 0.378 8.17 3.95 10.68
4/23/2022 8:00:00 PM 13.01 55.418 0.378 8.14 3.95 10.57
4/23/2022 8:15:00 PM 12.98 55.364 0.378 8.13 5.37 10.47
4/23/2022 8:30:00 PM 12.95 55.31 0.379 8.11 4.36 10.39
4/23/2022 8:45:00 PM 12.91 55.238 0.378 8.08 4.24 10.32
4/23/2022 9:00:00 PM 12.89 55.202 0.379 8.08 4.24 10.26
4/23/2022 9:15:00 PM 12.85 55.13 0.379 8.06 4.39 10.21
4/23/2022 9:30:00 PM 12.79 55.022 0.379 8.04 4.43 10.16
4/23/2022 9:45:00 PM 12.73 54.914 0.379 8.03 4.72 10.13
4/23/2022 10:00:00 PM 12.65 54.77 0.379 8.02 4.88 10.1
4/23/2022 10:15:00 PM 12.56 54.608 0.38 8.01 4.86 10.08
4/23/2022 10:30:00 PM 12.46 54.428 0.38 7.99 4.73 10.07
4/23/2022 10:45:00 PM 12.36 54.248 0.38 7.98 4.8 10.07
4/23/2022 11:00:00 PM 12.24 54.032 0.381 7.97 4.7 10.05
4/23/2022 11:15:00 PM 12.13 53.834 0.381 7.96 4.58 10.05
4/23/2022 11:30:00 PM 12.01 53.618 0.381 7.95 4.8 10.04
4/23/2022 11:45:00 PM 11.9 53.42 0.382 7.94 4.8 10.03
4/24/2022 12:00:00 AM 11.8 53.24 0.382 7.93 4.52 10.03
4/24/2022 12:15:00 AM 11.7 53.06 0.382 7.92 4.73 10.03
4/24/2022 12:30:00 AM 11.61 52.898 0.382 7.91 4.91 10.03
4/24/2022 12:45:00 AM 11.52 52.736 0.382 7.91 4.67 10.03
4/24/2022 1:00:00 AM 11.43 52.574 0.382 7.9 4.66 10.05
4/24/2022 1:15:00 AM 11.34 52.412 0.382 7.89 5.01 10.07
4/24/2022 1:30:00 AM 11.26 52.268 0.382 7.9 4.87 10.08
4/24/2022 1:45:00 AM 11.18 52.124 0.382 7.89 5.3 10.1
4/24/2022 2:00:00 AM 11.09 51.962 0.382 7.89 4.96 10.12
4/24/2022 2:15:00 AM 11.01 51.818 0.382 7.89 9.17 10.14
4/24/2022 2:30:00 AM 10.93 51.674 0.382 7.88 4.57 10.16
4/24/2022 2:45:00 AM 10.86 51.548 0.382 7.88 4.56 10.18
4/24/2022 3:00:00 AM 10.79 51.422 0.382 7.88 4.45 10.2
4/24/2022 3:15:00 AM 10.72 51.296 0.382 7.88 4.56 10.22
4/24/2022 3:30:00 AM 10.65 51.17 0.383 7.88 4.28 10.24
4/24/2022 3:45:00 AM 10.59 51.062 0.383 7.88 4.23 10.25
4/24/2022 4:00:00 AM 10.52 50.936 0.383 7.88 4.2 10.27
4/24/2022 4:15:00 AM 10.46 50.828 0.383 7.88 4.27 10.29
4/24/2022 4:30:00 AM 10.4 50.72 0.383 7.88 4.37 10.31
4/24/2022 4:45:00 AM 10.34 50.612 0.383 7.88 4.32 10.33
4/24/2022 5:00:00 AM 10.29 50.522 0.383 7.88 4.31 10.34
4/24/2022 5:15:00 AM 10.25 50.45 0.383 7.88 4.43 10.36
4/24/2022 5:30:00 AM 10.21 50.378 0.384 7.88 4.41 10.38
4/24/2022 5:45:00 AM 10.17 50.306 0.384 7.88 4.32 10.39
4/24/2022 6:00:00 AM 10.14 50.252 0.384 7.88 5.88 10.4
4/24/2022 6:15:00 AM 10.1 50.18 0.384 7.88 4.18 10.42
4/24/2022 6:30:00 AM 10.07 50.126 0.384 7.88 4.02 10.44
4/24/2022 6:45:00 AM 10.04 50.072 0.384 7.88 4.1 10.48
4/24/2022 7:00:00 AM 10.02 50.036 0.384 7.89 4.07 10.53
4/24/2022 7:15:00 AM 10.01 50.018 0.384 7.89 3.98 10.6
4/24/2022 7:30:00 AM 10 50 0.384 7.89 4.03 10.68
4/24/2022 7:45:00 AM 9.99 49.982 0.383 7.9 4.04 10.75
4/24/2022 8:00:00 AM 10.01 50.018 0.383 7.91 3.9 10.85
4/24/2022 8:15:00 AM 10.07 50.126 0.383 7.92 3.86 10.98
4/24/2022 8:30:00 AM 10.09 50.162 0.383 7.93 3.81 11.03
4/24/2022 8:45:00 AM 10.15 50.27 0.383 7.94 3.85 11.11
4/24/2022 9:00:00 AM 10.26 50.468 0.383 7.96 4.07 11.23
4/24/2022 9:15:00 AM 10.37 50.666 0.383 7.97 3.71 11.32
4/24/2022 9:30:00 AM 10.5 50.9 0.383 7.99 3.71 11.39
4/24/2022 9:45:00 AM 10.64 51.152 0.382 8 3.8 11.48
4/24/2022 10:00:00 AM 10.81 51.458 0.382 8.02 4.05 11.56
4/24/2022 10:15:00 AM 11 51.8 0.382 8.04 3.74 11.64
4/24/2022 10:30:00 AM 11.22 52.196 0.382 8.05 3.9 11.72
4/24/2022 10:45:00 AM 11.47 52.646 0.382 8.08 3.76 11.78
4/24/2022 11:00:00 AM 11.72 53.096 0.382 8.1 3.97 11.86
4/24/2022 11:15:00 AM 12 53.6 0.381 8.12 3.81 11.91
4/24/2022 11:30:00 AM 12.32 54.176 0.381 8.14 4.08 11.96
4/24/2022 11:45:00 AM 12.65 54.77 0.381 8.17 3.97 12.01
4/24/2022 12:00:00 PM 13.01 55.418 0.38 8.19 3.6 12.04
4/24/2022 12:15:00 PM 13.4 56.12 0.38 8.21 3.71 12.05
4/24/2022 12:30:00 PM 13.81 56.858 0.38 8.24 4.44 12.06
4/24/2022 12:45:00 PM 14.23 57.614 0.379 8.26 3.95 12.04
4/24/2022 1:00:00 PM 14.64 58.352 0.379 8.28 3.89 12.02
4/24/2022 1:15:00 PM 15.02 59.036 0.379 8.3 4.38 11.99
4/24/2022 1:30:00 PM 15.45 59.81 0.379 8.31 3.94 11.96
4/24/2022 1:45:00 PM 15.85 60.53 0.379 8.35 3.84 11.91
4/24/2022 2:00:00 PM 16.2 61.16 0.378 8.36 7.24 11.84
4/24/2022 2:15:00 PM 16.5 61.7 0.378 8.38 3.79 11.79
4/24/2022 2:30:00 PM 16.8 62.24 0.378 8.39 4.05 11.72
4/24/2022 2:45:00 PM 17.07 62.726 0.378 8.4 4.97 11.65
4/24/2022 3:00:00 PM 17.31 63.158 0.378 8.41 4.23 11.58
4/24/2022 3:15:00 PM 17.51 63.518 0.378 8.42 4.7 11.5
4/24/2022 3:30:00 PM 17.7 63.86 0.378 8.43 4.54 11.42
4/24/2022 3:45:00 PM 17.85 64.13 0.378 8.41 4.44 11.34
4/24/2022 4:00:00 PM 17.96 64.328 0.378 8.42 4.37 11.25
4/24/2022 4:15:00 PM 18.06 64.508 0.378 8.44 4.19 11.15
4/24/2022 4:30:00 PM 18.1 64.58 0.377 8.43 4.17 11.05
4/24/2022 4:45:00 PM 18.14 64.652 0.378 8.42 4.83 10.93
4/24/2022 5:00:00 PM 18.14 64.652 0.378 8.42 4.15 10.81
4/24/2022 5:15:00 PM 18.12 64.616 0.378 8.4 5 10.68
4/24/2022 5:30:00 PM 18.09 64.562 0.378 8.39 4.68 10.57
4/24/2022 5:45:00 PM 18.03 64.454 0.378 8.37 5.35 10.43
4/24/2022 6:00:00 PM 17.97 64.346 0.379 8.35 4.42 10.29
4/24/2022 6:15:00 PM 17.9 64.22 0.379 8.33 4.56 10.16
4/24/2022 6:30:00 PM 17.81 64.058 0.379 8.31 4.57 10.02
4/24/2022 6:45:00 PM 17.71 63.878 0.379 8.28 4.35 9.88
4/24/2022 7:00:00 PM 17.62 63.716 0.38 8.25 4.52 9.75
4/24/2022 7:15:00 PM -99999.99 -179968 -99999.99 -99999.99 -99999.99 -99999.99
4/24/2022 7:30:00 PM 17.42 63.356 0.38 8.19 4.59 9.51
4/24/2022 7:45:00 PM 17.31 63.158 0.38 8.17 4.74 9.39
4/24/2022 8:00:00 PM 17.2 62.96 0.381 8.14 4.69 9.31
4/24/2022 8:15:00 PM 17.07 62.726 0.381 8.12 4.66 9.23
4/24/2022 8:30:00 PM 16.94 62.492 0.381 8.09 4.69 9.18
4/24/2022 8:45:00 PM 16.8 62.24 0.382 8.07 5.21 9.13
4/24/2022 9:00:00 PM 16.65 61.97 0.382 8.06 5.3 9.1
4/24/2022 9:15:00 PM 16.49 61.682 0.382 8.04 5.25 9.08
4/24/2022 9:30:00 PM 16.33 61.394 0.383 8.02 5.14 9.07
4/24/2022 9:45:00 PM 16.15 61.07 0.383 8 5.32 9.07
4/24/2022 10:00:00 PM 15.97 60.746 0.383 7.99 5.37 9.07
4/24/2022 10:15:00 PM 15.78 60.404 0.384 7.99 5.38 9.08
4/24/2022 10:30:00 PM 15.59 60.062 0.384 7.98 5.37 9.1
4/24/2022 10:45:00 PM 15.4 59.72 0.385 7.97 5.41 9.12
4/24/2022 11:00:00 PM 15.21 59.378 0.385 7.96 5.5 9.12
4/24/2022 11:15:00 PM 15.02 59.036 0.385 7.93 5.59 9.14
4/24/2022 11:30:00 PM 14.83 58.694 0.386 7.94 6.12 9.16
4/24/2022 11:45:00 PM 14.64 58.352 0.386 7.93 5.74 9.18
4/25/2022 12:00:00 AM 14.46 58.028 0.385 7.91 5.51 9.19
4/25/2022 12:15:00 AM 14.3 57.74 0.386 7.91 5.64 9.22
4/25/2022 12:30:00 AM 14.13 57.434 0.386 7.91 5.47 9.25
4/25/2022 12:45:00 AM 13.97 57.146 0.386 7.9 5.35 9.27
4/25/2022 1:00:00 AM 13.83 56.894 0.386 7.9 5.48 9.3
4/25/2022 1:15:00 AM 13.69 56.642 0.386 7.89 5.38 9.33
4/25/2022 1:30:00 AM 13.56 56.408 0.386 7.89 5.08 9.37
4/25/2022 1:45:00 AM 13.43 56.174 0.386 7.89 5.05 9.41
4/25/2022 2:00:00 AM 13.31 55.958 0.386 7.89 5.1 9.44
4/25/2022 2:15:00 AM 13.19 55.742 0.386 7.89 5.36 9.47
4/25/2022 2:30:00 AM 13.07 55.526 0.386 7.89 5.31 9.51
4/25/2022 2:45:00 AM 12.95 55.31 0.386 7.89 5.11 9.54
4/25/2022 3:00:00 AM 12.84 55.112 0.386 7.89 5.42 9.57
4/25/2022 3:15:00 AM 12.73 54.914 0.386 7.89 6.37 9.6
4/25/2022 3:30:00 AM 12.62 54.716 0.386 7.89 5.66 9.62
4/25/2022 3:45:00 AM 12.52 54.536 0.386 7.89 6.43 9.66
4/25/2022 4:00:00 AM 12.43 54.374 0.387 7.89 5.6 9.69
4/25/2022 4:15:00 AM 12.36 54.248 0.387 7.89 5.91 9.71
4/25/2022 4:30:00 AM 12.28 54.104 0.387 7.89 5.88 9.74
4/25/2022 4:45:00 AM 12.21 53.978 0.387 7.89 5.51 9.77
4/25/2022 5:00:00 AM 12.14 53.852 0.387 7.89 5.66 9.79
4/25/2022 5:15:00 AM 12.08 53.744 0.387 7.89 5.21 9.81
4/25/2022 5:30:00 AM 12.02 53.636 0.387 7.9 5.02 9.83
4/25/2022 5:45:00 AM 11.96 53.528 0.387 7.9 4.78 9.85
4/25/2022 6:00:00 AM 11.91 53.438 0.387 7.9 4.69 9.87
4/25/2022 6:15:00 AM 11.85 53.33 0.387 7.9 4.83 9.89
4/25/2022 6:30:00 AM 11.8 53.24 0.388 7.9 4.69 9.92
4/25/2022 6:45:00 AM 11.75 53.15 0.388 7.9 4.84 9.97
4/25/2022 7:00:00 AM 11.71 53.078 0.388 7.91 4.62 10.03
4/25/2022 7:15:00 AM 11.67 53.006 0.388 7.92 4.4 10.11
4/25/2022 7:30:00 AM 11.63 52.934 0.388 7.92 4.51 10.17
4/25/2022 7:45:00 AM 11.6 52.88 0.388 7.93 4.6 10.23
4/25/2022 8:00:00 AM 11.57 52.826 0.388 7.94 4.5 10.3
4/25/2022 8:15:00 AM 11.54 52.772 0.388 7.94 4.2 10.36
4/25/2022 8:30:00 AM 11.52 52.736 0.388 7.95 4.18 10.43
4/25/2022 8:45:00 AM 11.51 52.718 0.388 7.96 4.16 10.52
4/25/2022 9:00:00 AM 11.51 52.718 0.388 7.97 4.01 10.61
4/25/2022 9:15:00 AM 11.51 52.718 0.388 7.98 4.15 10.7
4/25/2022 9:30:00 AM 11.52 52.736 0.388 7.99 4.05 10.8
4/25/2022 9:45:00 AM 11.53 52.754 0.387 8.01 3.97 10.9
4/25/2022 10:00:00 AM 11.55 52.79 0.387 8.02 3.79 10.99
4/25/2022 10:15:00 AM 11.57 52.826 0.387 8.03 3.88 11.07
4/25/2022 10:30:00 AM 11.59 52.862 0.387 8.04 3.92 11.15
4/25/2022 10:45:00 AM 11.61 52.898 0.387 8.06 3.75 11.22
4/25/2022 11:00:00 AM 11.66 52.988 0.387 8.08 3.91 11.31
4/25/2022 11:15:00 AM 11.71 53.078 0.386 8.09 3.79 11.41
4/25/2022 11:30:00 AM 11.79 53.222 0.387 8.11 3.98 11.5
4/25/2022 11:45:00 AM 11.85 53.33 0.386 8.13 4.09 11.57
4/25/2022 12:00:00 PM 11.94 53.492 0.386 8.14 3.9 11.65
4/25/2022 12:15:00 PM 12.04 53.672 0.386 8.16 4.2 11.73
4/25/2022 12:30:00 PM 12.15 53.87 0.385 8.18 3.96 11.81
4/25/2022 12:45:00 PM 12.26 54.068 0.385 8.2 3.87 11.88
4/25/2022 1:00:00 PM 12.4 54.32 0.385 8.22 4.01 11.95
4/25/2022 1:15:00 PM 12.53 54.554 0.384 8.24 4.33 12
4/25/2022 1:30:00 PM 12.64 54.752 0.384 8.26 4.1 12.03
4/25/2022 1:45:00 PM 12.79 55.022 0.384 8.28 5.04 12.06
4/25/2022 2:00:00 PM 12.93 55.274 0.383 8.3 4.09 12.1
4/25/2022 2:15:00 PM 13.06 55.508 0.383 8.31 3.71 12.11
4/25/2022 2:30:00 PM 13.22 55.796 0.383 8.33 3.93 12.12
4/25/2022 2:45:00 PM 13.35 56.03 0.382 8.35 3.58 12.13
4/25/2022 3:00:00 PM 13.49 56.282 0.382 8.36 3.85 12.12
4/25/2022 3:15:00 PM 13.64 56.552 0.382 8.38 3.68 12.12
4/25/2022 3:30:00 PM 13.8 56.84 0.382 8.39 3.57 12.1
4/25/2022 3:45:00 PM 13.95 57.11 0.382 8.41 3.84 12.08
4/25/2022 4:00:00 PM 14.07 57.326 0.381 8.42 3.72 12.04
4/25/2022 4:15:00 PM 14.18 57.524 0.381 8.42 3.81 11.99
4/25/2022 4:30:00 PM 14.28 57.704 0.381 8.43 3.73 11.94
4/25/2022 4:45:00 PM 14.38 57.884 0.381 8.44 3.79 11.88
4/25/2022 5:00:00 PM 14.45 58.01 0.38 8.44 3.88 11.79
4/25/2022 5:15:00 PM 14.49 58.082 0.381 8.44 3.87 11.69
4/25/2022 5:30:00 PM 14.51 58.118 0.381 8.43 3.81 11.56
4/25/2022 5:45:00 PM 14.51 58.118 0.381 8.41 3.86 11.39
4/25/2022 6:00:00 PM 14.49 58.082 0.382 8.39 4.01 11.21
4/25/2022 6:15:00 PM 14.49 58.082 0.382 8.38 4.01 11.08
4/25/2022 6:30:00 PM 14.49 58.082 0.382 8.35 4.44 10.94
4/25/2022 6:45:00 PM 14.47 58.046 0.382 8.32 4.88 10.77
4/25/2022 7:00:00 PM 14.45 58.01 0.383 8.29 4.75 10.61
4/25/2022 7:15:00 PM 14.42 57.956 0.383 8.27 4.4 10.48
4/25/2022 7:30:00 PM 14.41 57.938 0.384 8.25 4.24 10.36
4/25/2022 7:45:00 PM 14.38 57.884 0.384 8.23 4.04 10.24
4/25/2022 8:00:00 PM 14.34 57.812 0.384 8.2 4 10.13
4/25/2022 8:15:00 PM 14.28 57.704 0.385 8.18 4.06 10.04
4/25/2022 8:30:00 PM 14.23 57.614 0.385 8.15 4.38 9.96
4/25/2022 8:45:00 PM 14.16 57.488 0.385 8.13 4.4 9.9
4/25/2022 9:00:00 PM 14.1 57.38 0.385 8.11 4.71 9.84
4/25/2022 9:15:00 PM 14.03 57.254 0.386 8.09 4.44 9.8
4/25/2022 9:30:00 PM 13.95 57.11 0.386 8.08 4.88 9.76
4/25/2022 9:45:00 PM 13.85 56.93 0.386 8.06 4.66 9.73
4/25/2022 10:00:00 PM 13.75 56.75 0.387 8.04 4.7 9.71
4/25/2022 10:15:00 PM 13.66 56.588 0.387 8.03 4.83 9.69
4/25/2022 10:30:00 PM 13.56 56.408 0.388 8.01 5.05 9.69
4/25/2022 10:45:00 PM 13.46 56.228 0.388 8 4.99 9.68
4/25/2022 11:00:00 PM 13.37 56.066 0.388 7.99 5.6 9.66
4/25/2022 11:15:00 PM 13.28 55.904 0.389 7.98 5.27 9.65
4/25/2022 11:30:00 PM 13.19 55.742 0.389 7.97 5.41 9.65
4/25/2022 11:45:00 PM 13.11 55.598 0.389 7.96 5.97 9.65
4/26/2022 12:00:00 AM 13.03 55.454 0.389 7.95 5.96 9.65
4/26/2022 12:15:00 AM 12.96 55.328 0.389 7.94 5.24 9.66
4/26/2022 12:30:00 AM 12.88 55.184 0.389 7.94 5.74 9.66
4/26/2022 12:45:00 AM 12.81 55.058 0.389 7.93 6.1 9.67
4/26/2022 1:00:00 AM 12.75 54.95 0.389 7.93 5.27 9.68
4/26/2022 1:15:00 AM 12.69 54.842 0.389 7.92 5.19 9.69
4/26/2022 1:30:00 AM 12.63 54.734 0.389 7.92 5.38 9.7
4/26/2022 1:45:00 AM 12.58 54.644 0.389 7.92 5.64 9.71
4/26/2022 2:00:00 AM 12.53 54.554 0.39 7.92 5.3 9.73
4/26/2022 2:15:00 AM 12.48 54.464 0.39 7.91 5.18 9.74
4/26/2022 2:30:00 AM 12.43 54.374 0.39 7.91 6.38 9.75
4/26/2022 2:45:00 AM 12.39 54.302 0.39 7.91 5.22 9.76
4/26/2022 3:00:00 AM 12.35 54.23 0.39 7.91 5.48 9.77
4/26/2022 3:15:00 AM 12.3 54.14 0.39 7.91 5.33 9.78
4/26/2022 3:30:00 AM 12.27 54.086 0.39 7.91 4.85 9.8
4/26/2022 3:45:00 AM 12.24 54.032 0.39 7.91 5.07 9.8
4/26/2022 4:00:00 AM 12.2 53.96 0.39 7.91 4.91 9.82
4/26/2022 4:15:00 AM 12.17 53.906 0.391 7.91 5.72 9.82
4/26/2022 4:30:00 AM 12.14 53.852 0.391 7.91 5.71 9.83
4/26/2022 4:45:00 AM 12.1 53.78 0.391 7.91 5.3 9.84
4/26/2022 5:00:00 AM 12.06 53.708 0.391 7.91 4.93 9.85
4/26/2022 5:15:00 AM 12.03 53.654 0.391 7.91 5.66 9.86
4/26/2022 5:30:00 AM 11.99 53.582 0.391 7.91 4.78 9.87
4/26/2022 5:45:00 AM 11.96 53.528 0.391 7.91 4.88 9.88
4/26/2022 6:00:00 AM 11.93 53.474 0.391 7.91 5.03 9.89
4/26/2022 6:15:00 AM 11.9 53.42 0.391 7.91 5.13 9.9
4/26/2022 6:30:00 AM 11.87 53.366 0.391 7.91 5.01 9.92
4/26/2022 6:45:00 AM 11.85 53.33 0.391 7.92 4.5 9.95
4/26/2022 7:00:00 AM 11.83 53.294 0.392 7.92 4.43 9.99
4/26/2022 7:15:00 AM 11.81 53.258 0.392 7.93 4.44 10.03
4/26/2022 7:30:00 AM 11.8 53.24 0.391 7.93 4.41 10.09
4/26/2022 7:45:00 AM 11.79 53.222 0.391 7.94 4.18 10.17
4/26/2022 8:00:00 AM 11.79 53.222 0.391 7.94 4.16 10.25
4/26/2022 8:15:00 AM 11.79 53.222 0.391 7.96 4.11 10.35
4/26/2022 8:30:00 AM 11.81 53.258 0.391 7.97 4.12 10.49
4/26/2022 8:45:00 AM 11.85 53.33 0.391 7.99 4.11 10.62
4/26/2022 9:00:00 AM 11.88 53.384 0.391 8 4.07 10.74
4/26/2022 9:15:00 AM 11.95 53.51 0.39 8.02 3.95 10.88
4/26/2022 9:30:00 AM 12.03 53.654 0.39 8.05 4.03 11.03
4/26/2022 9:45:00 AM 12.12 53.816 0.39 8.06 3.94 11.15
4/26/2022 10:00:00 AM 12.23 54.014 0.39 8.09 4.04 11.29
4/26/2022 10:15:00 AM 12.33 54.194 0.39 8.11 3.93 11.4
4/26/2022 10:30:00 AM 12.46 54.428 0.389 8.13 3.88 11.51
4/26/2022 10:45:00 AM 12.61 54.698 0.389 8.15 3.87 11.62
4/26/2022 11:00:00 AM 12.8 55.04 0.389 8.17 4.15 11.72
4/26/2022 11:15:00 AM 12.93 55.274 0.388 8.2 3.75 11.77
4/26/2022 11:30:00 AM 13.05 55.49 0.388 8.21 3.89 11.8
4/26/2022 11:45:00 AM 13.12 55.616 0.388 8.23 4.27 11.81
4/26/2022 12:00:00 PM 13.19 55.742 0.387 8.25 3.95 11.83
4/26/2022 12:15:00 PM 13.24 55.832 0.387 8.26 4.05 11.81
4/26/2022 12:30:00 PM 13.38 56.084 0.387 8.28 3.98 11.86
4/26/2022 12:45:00 PM 13.4 56.12 0.386 8.29 3.82 11.79
4/26/2022 1:00:00 PM 13.41 56.138 0.387 8.28 3.98 11.65
4/26/2022 1:15:00 PM 13.46 56.228 0.387 8.29 3.64 11.59
4/26/2022 1:30:00 PM 13.52 56.336 0.387 8.3 3.7 11.56
4/26/2022 1:45:00 PM 13.67 56.606 0.386 8.31 3.89 11.6
4/26/2022 2:00:00 PM 13.73 56.714 0.386 8.32 3.83 11.57
4/26/2022 2:15:00 PM 13.78 56.804 0.385 8.32 3.78 11.5
4/26/2022 2:30:00 PM 13.84 56.912 0.385 8.32 3.69 11.46
4/26/2022 2:45:00 PM 13.9 57.02 0.385 8.33 3.66 11.38
4/26/2022 3:00:00 PM 13.93 57.074 0.385 8.32 3.75 11.25
4/26/2022 3:15:00 PM 13.99 57.182 0.385 8.32 3.8 11.19
4/26/2022 3:30:00 PM 14.07 57.326 0.385 8.32 3.99 11.2
4/26/2022 3:45:00 PM 14.08 57.344 0.385 8.32 3.88 11.08
4/26/2022 4:00:00 PM 14.11 57.398 0.385 8.31 3.87 11.02
4/26/2022 4:15:00 PM 14.16 57.488 0.385 8.31 3.96 11
4/26/2022 4:30:00 PM 14.18 57.524 0.385 8.31 3.98 10.96
4/26/2022 4:45:00 PM 14.17 57.506 0.385 8.29 3.97 10.87
4/26/2022 5:00:00 PM 14.15 57.47 0.386 8.28 3.94 10.79
4/26/2022 5:15:00 PM 14.11 57.398 0.386 8.26 4.06 10.7
4/26/2022 5:30:00 PM 14.07 57.326 0.386 8.24 4.14 10.65
4/26/2022 5:45:00 PM 14.04 57.272 0.386 8.23 4.11 10.59
4/26/2022 6:00:00 PM 14 57.2 0.386 8.21 4.09 10.52
4/26/2022 6:15:00 PM 13.97 57.146 0.387 8.19 4.2 10.42
4/26/2022 6:30:00 PM 13.93 57.074 0.387 8.17 4.5 10.34
4/26/2022 6:45:00 PM 13.88 56.984 0.387 8.15 4.39 10.29
4/26/2022 7:00:00 PM 13.83 56.894 0.387 8.13 4.52 10.24
4/26/2022 7:15:00 PM 13.77 56.786 0.387 8.12 4.42 10.17
4/26/2022 7:30:00 PM 13.71 56.678 0.387 8.1 4.49 10.11
4/26/2022 7:45:00 PM 13.65 56.57 0.387 8.09 4.62 10.05
4/26/2022 8:00:00 PM 13.59 56.462 0.387 8.07 4.4 9.99
4/26/2022 8:15:00 PM 13.53 56.354 0.388 8.06 4.5 9.95
4/26/2022 8:30:00 PM 13.47 56.246 0.388 8.04 4.56 9.9
4/26/2022 8:45:00 PM 13.41 56.138 0.388 8.03 4.83 9.86
4/26/2022 9:00:00 PM 13.36 56.048 0.388 8.02 4.9 9.83
4/26/2022 9:15:00 PM 13.3 55.94 0.388 8.01 5.03 9.81
4/26/2022 9:30:00 PM 13.23 55.814 0.389 8 4.84 9.79
4/26/2022 9:45:00 PM 13.16 55.688 0.389 7.99 5.13 9.77
4/26/2022 10:00:00 PM 13.07 55.526 0.389 7.98 4.73 9.76
4/26/2022 10:15:00 PM 12.98 55.364 0.389 7.98 4.77 9.76
4/26/2022 10:30:00 PM 12.89 55.202 0.39 7.97 4.83 9.76
4/26/2022 10:45:00 PM 12.8 55.04 0.39 7.97 4.83 9.76
4/26/2022 11:00:00 PM 12.7 54.86 0.39 7.96 4.73 9.76
4/26/2022 11:15:00 PM 12.6 54.68 0.39 7.96 4.92 9.77
4/26/2022 11:30:00 PM 12.49 54.482 0.39 7.95 4.83 9.78
4/26/2022 11:45:00 PM 12.39 54.302 0.391 7.95 4.93 9.78
4/27/2022 12:00:00 AM 12.3 54.14 0.391 7.94 4.97 9.79
4/27/2022 12:15:00 AM 12.2 53.96 0.391 7.94 4.82 9.8
4/27/2022 12:30:00 AM 12.1 53.78 0.391 7.94 4.74 9.81
4/27/2022 12:45:00 AM 12 53.6 0.391 7.94 4.72 9.83
4/27/2022 1:00:00 AM 11.91 53.438 0.391 7.94 4.62 9.85
4/27/2022 1:15:00 AM 11.82 53.276 0.391 7.93 4.71 9.87
4/27/2022 1:30:00 AM 11.73 53.114 0.391 7.93 4.67 9.9
4/27/2022 1:45:00 AM 11.64 52.952 0.391 7.93 4.59 9.92
4/27/2022 2:00:00 AM 11.54 52.772 0.391 7.93 4.65 9.95
4/27/2022 2:15:00 AM 11.44 52.592 0.391 7.93 4.77 9.97
4/27/2022 2:30:00 AM 11.35 52.43 0.391 7.93 4.47 10
4/27/2022 2:45:00 AM 11.25 52.25 0.391 7.93 4.7 10.02
4/27/2022 3:00:00 AM 11.16 52.088 0.391 7.93 4.53 10.05
4/27/2022 3:15:00 AM 11.07 51.926 0.391 7.93 5 10.08
4/27/2022 3:30:00 AM 10.98 51.764 0.391 7.93 5.71 10.11
4/27/2022 3:45:00 AM 10.88 51.584 0.392 7.93 4.94 10.14
4/27/2022 4:00:00 AM 10.79 51.422 0.391 7.93 4.85 10.16
4/27/2022 4:15:00 AM 10.71 51.278 0.392 7.94 4.61 10.19
4/27/2022 4:30:00 AM 10.64 51.152 0.392 7.93 5.12 10.22
4/27/2022 4:45:00 AM 10.58 51.044 0.392 7.94 4.74 10.24
4/27/2022 5:00:00 AM 10.53 50.954 0.392 7.94 4.72 10.26
4/27/2022 5:15:00 AM 10.47 50.846 0.392 7.94 4.5 10.28
4/27/2022 5:30:00 AM 10.43 50.774 0.392 7.94 6.29 10.3
4/27/2022 5:45:00 AM 10.36 50.648 0.393 7.94 4.93 10.32
4/27/2022 6:00:00 AM 10.28 50.504 0.393 7.94 4.6 10.34
4/27/2022 6:15:00 AM 10.23 50.414 0.393 7.94 4.41 10.36
4/27/2022 6:30:00 AM 10.14 50.252 0.393 7.94 4.4 10.4
4/27/2022 6:45:00 AM 10.09 50.162 0.393 7.95 4.58 10.45
4/27/2022 7:00:00 AM 10.04 50.072 0.393 7.95 4.72 10.49
4/27/2022 7:15:00 AM 9.97 49.946 0.393 7.96 4.66 10.57
4/27/2022 7:30:00 AM 9.92 49.856 0.393 7.97 4.45 10.66
4/27/2022 7:45:00 AM 9.97 49.946 0.396 7.78 3.82 10.92
4/27/2022 8:00:00 AM 9.91 49.838 0.396 7.79 3.58 11.05
4/27/2022 8:15:00 AM 9.88 49.784 0.396 7.81 3.45 11.16
4/27/2022 8:30:00 AM 9.88 49.784 0.396 7.83 3.29 11.27
4/27/2022 8:45:00 AM 9.9 49.82 0.396 7.85 3.24 11.39
4/27/2022 9:00:00 AM 9.92 49.856 0.396 7.87 3.18 11.53
4/27/2022 9:15:00 AM 9.94 49.892 0.396 7.88 3.22 11.63
4/27/2022 9:30:00 AM 10.02 50.036 0.396 7.9 3.46 11.75
4/27/2022 9:45:00 AM 10.11 50.198 0.396 7.92 3.2 11.87
4/27/2022 10:00:00 AM 10.25 50.45 0.395 7.94 3.14 11.99
4/27/2022 10:15:00 AM 10.36 50.648 0.395 7.96 3.17 12.07
4/27/2022 10:30:00 AM 10.42 50.756 0.395 7.98 3.22 12.14
4/27/2022 10:45:00 AM 10.52 50.936 0.395 8 3.09 12.21
4/27/2022 11:00:00 AM 10.57 51.026 0.395 8.01 3.14 12.22
4/27/2022 11:15:00 AM 10.79 51.422 0.395 8.04 3.1 12.31
4/27/2022 11:30:00 AM 11.07 51.926 0.395 8.06 3.02 12.39
4/27/2022 11:45:00 AM 11.42 52.556 0.394 8.09 3.11 12.45
4/27/2022 12:00:00 PM 11.79 53.222 0.394 8.12 3.02 12.51
4/27/2022 12:15:00 PM 11.88 53.384 0.393 8.14 3.01 12.51
4/27/2022 12:30:00 PM 11.94 53.492 0.393 8.17 3.02 12.49
4/27/2022 12:45:00 PM 12 53.6 0.393 8.19 3.04 12.47
4/27/2022 1:00:00 PM 12.1 53.78 0.392 8.21 3.03 12.45
4/27/2022 1:15:00 PM 12.2 53.96 0.392 8.23 3.01 12.45
4/27/2022 1:30:00 PM 12.23 54.014 0.392 8.25 3.16 12.43
4/27/2022 1:45:00 PM 12.46 54.428 0.392 8.26 3.4 12.45
4/27/2022 2:00:00 PM 12.71 54.878 0.392 8.28 3.24 12.45
4/27/2022 2:15:00 PM 13.04 55.472 0.391 8.3 3.43 12.46
4/27/2022 2:30:00 PM 13.28 55.904 0.391 8.31 3.48 12.41
4/27/2022 2:45:00 PM 13.72 56.696 0.392 8.33 3.25 12.39
4/27/2022 3:00:00 PM 14.01 57.218 0.391 8.34 3.34 12.34
4/27/2022 3:15:00 PM 14.18 57.524 0.391 8.36 3.42 12.26
4/27/2022 3:30:00 PM 14.11 57.398 0.391 8.37 3.53 12.18
4/27/2022 3:45:00 PM 14.07 57.326 0.391 8.37 3.51 12.08
4/27/2022 4:00:00 PM 14.06 57.308 0.391 8.38 3.37 12.01
4/27/2022 4:15:00 PM 13.96 57.128 0.391 8.38 3.39 11.92
4/27/2022 4:30:00 PM 13.85 56.93 0.391 8.37 3.32 11.8
4/27/2022 4:45:00 PM 13.74 56.732 0.392 8.36 3.47 11.66
4/27/2022 5:00:00 PM 13.65 56.57 0.392 8.35 3.42 11.56
4/27/2022 5:15:00 PM 13.54 56.372 0.392 8.33 3.5 11.46
4/27/2022 5:30:00 PM 13.41 56.138 0.392 8.31 3.32 11.35
4/27/2022 5:45:00 PM 13.27 55.886 0.392 8.28 3.44 11.23
4/27/2022 6:00:00 PM 13.18 55.724 0.393 8.26 3.46 11.12
4/27/2022 6:15:00 PM 13.08 55.544 0.393 8.23 3.43 11.03
4/27/2022 6:30:00 PM 12.99 55.382 0.393 8.21 3.54 10.95
4/27/2022 6:45:00 PM 12.89 55.202 0.394 8.18 3.48 10.88
4/27/2022 7:00:00 PM 12.77 54.986 0.394 8.16 3.5 10.8
4/27/2022 7:15:00 PM 12.64 54.752 0.395 8.13 3.53 10.71
4/27/2022 7:30:00 PM 12.51 54.518 0.395 8.1 3.54 10.66
4/27/2022 7:45:00 PM 12.35 54.23 0.396 8.08 3.6 10.61
4/27/2022 8:00:00 PM 12.18 53.924 0.396 8.06 3.51 10.58
4/27/2022 8:15:00 PM 12.01 53.618 0.397 8.03 3.49 10.56
4/27/2022 8:30:00 PM 11.85 53.33 0.397 8.01 3.58 10.55
4/27/2022 8:45:00 PM 11.67 53.006 0.398 7.99 3.61 10.54
4/27/2022 9:00:00 PM 11.48 52.664 0.398 7.96 3.8 10.54
4/27/2022 9:15:00 PM 11.32 52.376 0.399 7.95 3.72 10.55
4/27/2022 9:30:00 PM 11.16 52.088 0.399 7.93 3.77 10.56
4/27/2022 9:45:00 PM 10.98 51.764 0.399 7.91 3.7 10.58
4/27/2022 10:00:00 PM 10.84 51.512 0.4 7.9 3.79 10.58
4/27/2022 10:15:00 PM 10.7 51.26 0.4 7.89 3.83 10.6
4/27/2022 10:30:00 PM 10.57 51.026 0.4 7.87 4.3 10.61
4/27/2022 10:45:00 PM 10.44 50.792 0.4 7.86 4.03 10.63
4/27/2022 11:00:00 PM 10.3 50.54 0.401 7.85 3.98 10.65
4/27/2022 11:15:00 PM 10.17 50.306 0.401 7.84 4.24 10.67
4/27/2022 11:30:00 PM 10.04 50.072 0.401 7.84 4.68 10.69
4/27/2022 11:45:00 PM 9.9 49.82 0.401 7.83 4.89 10.71
4/28/2022 12:00:00 AM 9.78 49.604 0.401 7.82 4.41 10.73
4/28/2022 12:15:00 AM 9.66 49.388 0.402 7.82 4.15 10.75
4/28/2022 12:30:00 AM 9.54 49.172 0.402 7.81 4.29 10.78
4/28/2022 12:45:00 AM 9.41 48.938 0.402 7.81 4.07 10.8
4/28/2022 1:00:00 AM 9.27 48.686 0.403 7.8 4.98 10.83
4/28/2022 1:15:00 AM 9.15 48.47 0.403 7.8 4.4 10.86
4/28/2022 1:30:00 AM 9.08 48.344 0.403 7.8 4.35 10.88
4/28/2022 1:45:00 AM 8.99 48.182 0.403 7.8 4 10.91
4/28/2022 2:00:00 AM 8.91 48.038 0.403 7.8 4.02 10.93
4/28/2022 2:15:00 AM 8.83 47.894 0.403 7.8 3.95 10.96
4/28/2022 2:30:00 AM 8.73 47.714 0.403 7.8 3.85 10.98
4/28/2022 2:45:00 AM 8.64 47.552 0.403 7.79 4 11.01
4/28/2022 3:00:00 AM 8.57 47.426 0.403 7.79 3.88 11.03
4/28/2022 3:15:00 AM 8.49 47.282 0.403 7.79 4.43 11.05
4/28/2022 3:30:00 AM 8.43 47.174 0.404 7.79 4.03 11.08
4/28/2022 3:45:00 AM 8.35 47.03 0.404 7.79 3.96 11.1
4/28/2022 4:00:00 AM 8.27 46.886 0.404 7.79 4.11 11.13
4/28/2022 4:15:00 AM 8.21 46.778 0.404 7.79 3.91 11.14
4/28/2022 4:30:00 AM 8.14 46.652 0.404 7.79 3.81 11.17
4/28/2022 4:45:00 AM 8.08 46.544 0.404 7.79 3.6 11.19
4/28/2022 5:00:00 AM 8.02 46.436 0.404 7.8 4.15 11.21
4/28/2022 5:15:00 AM 7.96 46.328 0.404 7.8 4.1 11.23
4/28/2022 5:30:00 AM 7.9 46.22 0.405 7.79 3.87 11.25
4/28/2022 5:45:00 AM 7.85 46.13 0.404 7.8 3.66 11.27
4/28/2022 6:00:00 AM 7.79 46.022 0.405 7.8 3.85 11.27
4/28/2022 6:15:00 AM 7.75 45.95 0.404 7.8 3.8 11.3
4/28/2022 6:30:00 AM 7.7 45.86 0.404 7.8 3.65 11.32
4/28/2022 6:45:00 AM 7.67 45.806 0.404 7.8 3.52 11.37
4/28/2022 7:00:00 AM 7.63 45.734 0.405 7.81 3.64 11.43
4/28/2022 7:15:00 AM 7.61 45.698 0.405 7.81 3.51 11.5
4/28/2022 7:30:00 AM 7.58 45.644 0.404 7.82 3.29 11.58
4/28/2022 7:45:00 AM 7.58 45.644 0.404 7.83 3.38 11.68
4/28/2022 8:00:00 AM 7.59 45.662 0.404 7.85 3.5 11.79
4/28/2022 8:15:00 AM 7.62 45.716 0.404 7.86 3.31 11.91
4/28/2022 8:30:00 AM 7.66 45.788 0.404 7.88 3.31 12.03
4/28/2022 8:45:00 AM 7.7 45.86 0.404 7.9 3.11 12.14
4/28/2022 9:00:00 AM 7.78 46.004 0.404 7.91 3.05 12.26
4/28/2022 9:15:00 AM 7.89 46.202 0.404 7.93 3.01 12.36
4/28/2022 9:30:00 AM 8.02 46.436 0.403 7.95 2.95 12.47
4/28/2022 9:45:00 AM 8.07 46.526 0.403 7.96 3.17 12.51
4/28/2022 10:00:00 AM 8.18 46.724 0.403 7.98 2.85 12.58
4/28/2022 10:15:00 AM 8.35 47.03 0.403 7.99 2.89 12.65
4/28/2022 10:30:00 AM 8.55 47.39 0.403 8.01 2.96 12.71
4/28/2022 10:45:00 AM 8.79 47.822 0.402 8.03 2.89 12.75
4/28/2022 11:00:00 AM 9.02 48.236 0.402 8.05 3.11 12.81
4/28/2022 11:15:00 AM 9.28 48.704 0.402 8.06 2.93 12.84
4/28/2022 11:30:00 AM 9.56 49.208 0.401 8.08 2.83 12.87
4/28/2022 11:45:00 AM 9.87 49.766 0.401 8.1 2.84 12.89
4/28/2022 12:00:00 PM 10.17 50.306 0.401 8.13 2.85 12.91
4/28/2022 12:15:00 PM 10.53 50.954 0.4 8.15 2.78 12.91
4/28/2022 12:30:00 PM 10.9 51.62 0.4 8.17 3.35 12.91
4/28/2022 12:45:00 PM 11.28 52.304 0.399 8.2 3.17 12.89
4/28/2022 1:00:00 PM 11.65 52.97 0.399 8.22 2.99 12.85
4/28/2022 1:15:00 PM 12.03 53.654 0.399 8.24 3.02 12.81
4/28/2022 1:30:00 PM 12.41 54.338 0.398 8.27 3.07 12.76
4/28/2022 1:45:00 PM 12.78 55.004 0.398 8.29 3.02 12.72
4/28/2022 2:00:00 PM 13.13 55.634 0.398 8.31 2.93 12.64
4/28/2022 2:15:00 PM 13.45 56.21 0.398 8.32 3.28 12.58
4/28/2022 2:30:00 PM 13.75 56.75 0.398 8.34 3.15 12.51
4/28/2022 2:45:00 PM 13.98 57.164 0.398 8.36 3.12 12.44
4/28/2022 3:00:00 PM 14.22 57.596 0.397 8.37 3.09 12.37
4/28/2022 3:15:00 PM 14.43 57.974 0.397 8.38 3.09 12.29
4/28/2022 3:30:00 PM 14.55 58.19 0.397 8.39 3.16 12.22
4/28/2022 3:45:00 PM 14.66 58.388 0.397 8.4 3.14 12.14
4/28/2022 4:00:00 PM 14.73 58.514 0.397 8.41 3.21 12.05
4/28/2022 4:15:00 PM 14.72 58.496 0.397 8.41 3.12 11.98
4/28/2022 4:30:00 PM 14.71 58.478 0.397 8.41 3.35 11.89
4/28/2022 4:45:00 PM 14.66 58.388 0.397 8.41 3.31 11.79
4/28/2022 5:00:00 PM 14.58 58.244 0.397 8.41 3.3 11.69
4/28/2022 5:15:00 PM 14.49 58.082 0.397 8.4 3.54 11.6
4/28/2022 5:30:00 PM 14.42 57.956 0.397 8.39 3.85 11.51
4/28/2022 5:45:00 PM 14.3 57.74 0.397 8.38 3.41 11.42
4/28/2022 6:00:00 PM 14.19 57.542 0.397 8.37 3.35 11.31
4/28/2022 6:15:00 PM 14.05 57.29 0.397 8.35 3.71 11.2
4/28/2022 6:30:00 PM 13.9 57.02 0.398 8.33 3.78 11.08
4/28/2022 6:45:00 PM 13.76 56.768 0.398 8.3 3.75 10.98
4/28/2022 7:00:00 PM 13.63 56.534 0.399 8.28 3.59 10.88
4/28/2022 7:15:00 PM 13.5 56.3 0.399 8.25 3.59 10.78
4/28/2022 7:30:00 PM 13.4 56.12 0.4 8.23 3.67 10.68
4/28/2022 7:45:00 PM 13.28 55.904 0.401 8.2 3.53 10.59
4/28/2022 8:00:00 PM 13.15 55.67 0.401 8.17 3.54 10.51
4/28/2022 8:15:00 PM 13.03 55.454 0.402 8.14 3.64 10.44
4/28/2022 8:30:00 PM 12.9 55.22 0.402 8.12 3.64 10.38
4/28/2022 8:45:00 PM 12.77 54.986 0.403 8.09 3.76 10.34
4/28/2022 9:00:00 PM 12.63 54.734 0.403 8.07 3.83 10.31
4/28/2022 9:15:00 PM 12.48 54.464 0.404 8.05 4.07 10.29
4/28/2022 9:30:00 PM 12.3 54.14 0.403 8.03 4.01 10.29
4/28/2022 9:45:00 PM 12.12 53.816 0.404 8.01 3.85 10.31
4/28/2022 10:00:00 PM 11.93 53.474 0.404 7.99 3.95 10.31
4/28/2022 10:15:00 PM 11.74 53.132 0.404 7.97 3.95 10.34
4/28/2022 10:30:00 PM 11.54 52.772 0.404 7.95 4 10.37
4/28/2022 10:45:00 PM 11.34 52.412 0.405 7.94 4.44 10.4
4/28/2022 11:00:00 PM 11.14 52.052 0.405 7.93 4 10.43
4/28/2022 11:15:00 PM 10.94 51.692 0.406 7.91 4.31 10.47
4/28/2022 11:30:00 PM 10.74 51.332 0.406 7.9 4.14 10.51
4/28/2022 11:45:00 PM 10.55 50.99 0.406 7.88 4.13 10.53
4/29/2022 12:00:00 AM 10.36 50.648 0.407 7.87 4.11 10.56
4/29/2022 12:15:00 AM 10.17 50.306 0.407 7.86 4.38 10.59
4/29/2022 12:30:00 AM 9.99 49.982 0.408 7.85 4.45 10.62
4/29/2022 12:45:00 AM 9.84 49.712 0.408 7.84 4.58 10.64
4/29/2022 1:00:00 AM 9.69 49.442 0.408 7.83 5.85 10.67
4/29/2022 1:15:00 AM 9.55 49.19 0.409 7.82 4.62 10.7
4/29/2022 1:30:00 AM 9.42 48.956 0.409 7.82 4.38 10.73
4/29/2022 1:45:00 AM 9.29 48.722 0.409 7.81 4.61 10.77
4/29/2022 2:00:00 AM 9.16 48.488 0.409 7.81 4.2 10.8
4/29/2022 2:15:00 AM 9.04 48.272 0.409 7.81 3.95 10.82
4/29/2022 2:30:00 AM 8.91 48.038 0.409 7.8 4.82 10.86
4/29/2022 2:45:00 AM 8.79 47.822 0.409 7.8 4.41 10.9
4/29/2022 3:00:00 AM 8.68 47.624 0.409 7.8 4.32 10.93
4/29/2022 3:15:00 AM 8.56 47.408 0.409 7.8 5.28 10.96
4/29/2022 3:30:00 AM 8.45 47.21 0.409 7.8 5.52 11
4/29/2022 3:45:00 AM 8.34 47.012 0.409 7.8 5.21 11.03
4/29/2022 4:00:00 AM 8.23 46.814 0.409 7.8 4.52 11.07
4/29/2022 4:15:00 AM 8.13 46.634 0.409 7.8 4.08 11.11
4/29/2022 4:30:00 AM 8.02 46.436 0.409 7.8 3.98 11.13
4/29/2022 4:45:00 AM 7.93 46.274 0.409 7.8 4.24 11.16
4/29/2022 5:00:00 AM 7.83 46.094 0.41 7.8 4.25 11.19
4/29/2022 5:15:00 AM 7.74 45.932 0.41 7.8 4.83 11.23
4/29/2022 5:30:00 AM 7.65 45.77 0.41 7.8 4.72 11.25
4/29/2022 5:45:00 AM 7.56 45.608 0.41 7.8 3.97 11.28
4/29/2022 6:00:00 AM 7.48 45.464 0.41 7.8 3.86 11.31
4/29/2022 6:15:00 AM 7.4 45.32 0.41 7.8 3.83 11.34
4/29/2022 6:30:00 AM 7.33 45.194 0.41 7.8 3.81 11.38
4/29/2022 6:45:00 AM 7.27 45.086 0.41 7.81 3.93 11.44
4/29/2022 7:00:00 AM 7.22 44.996 0.41 7.81 3.86 11.51
4/29/2022 7:15:00 AM 7.18 44.924 0.41 7.82 3.58 11.58
4/29/2022 7:30:00 AM 7.15 44.87 0.41 7.83 3.71 11.67
4/29/2022 7:45:00 AM 7.14 44.852 0.41 7.83 3.41 11.75
4/29/2022 8:00:00 AM 7.17 44.906 0.41 7.84 3.49 11.85
4/29/2022 8:15:00 AM 7.22 44.996 0.41 7.86 3.75 11.96
4/29/2022 8:30:00 AM 7.28 45.104 0.41 7.87 4.53 12.06
4/29/2022 8:45:00 AM 7.35 45.23 0.41 7.88 3.12 12.15
4/29/2022 9:00:00 AM 7.44 45.392 0.409 7.9 3 12.25
4/29/2022 9:15:00 AM 7.55 45.59 0.409 7.91 3.06 12.34
4/29/2022 9:30:00 AM 7.69 45.842 0.409 7.93 2.99 12.42
4/29/2022 9:45:00 AM 7.85 46.13 0.409 7.94 2.85 12.5
4/29/2022 10:00:00 AM 8.02 46.436 0.409 7.96 2.8 12.58
4/29/2022 10:15:00 AM 8.24 46.832 0.408 7.98 2.8 12.65
4/29/2022 10:30:00 AM 8.46 47.228 0.408 8 2.67 12.72
4/29/2022 10:45:00 AM 8.72 47.696 0.407 8.02 2.67 12.78
4/29/2022 11:00:00 AM 9 48.2 0.407 8.04 2.97 12.83
4/29/2022 11:15:00 AM 9.32 48.776 0.407 8.06 2.65 12.88
4/29/2022 11:30:00 AM 9.66 49.388 0.406 8.09 2.65 12.91
4/29/2022 11:45:00 AM 10.01 50.018 0.406 8.11 2.79 12.94
4/29/2022 12:00:00 PM 10.4 50.72 0.405 8.14 2.83 12.94
4/29/2022 12:15:00 PM 10.82 51.476 0.405 8.17 2.59 12.95
4/29/2022 12:30:00 PM 11.23 52.214 0.404 8.19 2.9 12.92
4/29/2022 12:45:00 PM 11.66 52.988 0.404 8.22 2.73 12.89
4/29/2022 1:00:00 PM 12.12 53.816 0.403 8.24 2.76 12.85
4/29/2022 1:15:00 PM 12.56 54.608 0.404 8.27 2.84 12.8
4/29/2022 1:30:00 PM 12.95 55.31 0.403 8.29 2.85 12.73
4/29/2022 1:45:00 PM 13.34 56.012 0.403 8.31 2.93 12.69
4/29/2022 2:00:00 PM 13.69 56.642 0.402 8.33 2.88 12.63
4/29/2022 2:15:00 PM 14.04 57.272 0.402 8.35 2.82 12.55
4/29/2022 2:30:00 PM 14.36 57.848 0.402 8.37 3.14 12.49
4/29/2022 2:45:00 PM 14.64 58.352 0.402 8.38 2.93 12.42
4/29/2022 3:00:00 PM 14.86 58.748 0.402 8.4 3.02 12.34
4/29/2022 3:15:00 PM 15.06 59.108 0.402 8.41 2.91 12.27
4/29/2022 3:30:00 PM 15.25 59.45 0.402 8.42 3.08 12.19
4/29/2022 3:45:00 PM 15.34 59.612 0.402 8.43 3.06 12.1
4/29/2022 4:00:00 PM 15.41 59.738 0.402 8.44 3.33 12.02
4/29/2022 4:15:00 PM 15.47 59.846 0.402 8.44 3.07 11.92
4/29/2022 4:30:00 PM 15.47 59.846 0.402 8.44 3.29 11.83
4/29/2022 4:45:00 PM 15.46 59.828 0.403 8.44 3.27 11.71
4/29/2022 5:00:00 PM 15.43 59.774 0.403 8.44 3.27 11.61
4/29/2022 5:15:00 PM 15.35 59.63 0.403 8.43 3.25 11.51
4/29/2022 5:30:00 PM 15.28 59.504 0.403 8.42 3.46 11.4
4/29/2022 5:45:00 PM 15.18 59.324 0.403 8.41 3.43 11.29
4/29/2022 6:00:00 PM 15.08 59.144 0.403 8.39 3.35 11.17
4/29/2022 6:15:00 PM 14.94 58.892 0.403 8.37 3.52 11.04
4/29/2022 6:30:00 PM 14.81 58.658 0.402 8.35 3.82 10.91
4/29/2022 6:45:00 PM 14.68 58.424 0.402 8.33 3.7 10.79
4/29/2022 7:00:00 PM 14.56 58.208 0.401 8.3 3.68 10.68
4/29/2022 7:15:00 PM 14.42 57.956 0.4 8.27 3.75 10.57
4/29/2022 7:30:00 PM 14.33 57.794 0.4 8.24 3.7 10.46
4/29/2022 7:45:00 PM 14.23 57.614 0.399 8.21 3.69 10.35
4/29/2022 8:00:00 PM 14.11 57.398 0.399 8.17 3.81 10.25
4/29/2022 8:15:00 PM 13.99 57.182 0.399 8.14 3.93 10.16
4/29/2022 8:30:00 PM 13.86 56.948 0.399 8.11 3.99 10.1
4/29/2022 8:45:00 PM 13.72 56.696 0.399 8.09 4.08 10.06
4/29/2022 9:00:00 PM 13.56 56.408 0.399 8.06 4.4 10.03
4/29/2022 9:15:00 PM 13.39 56.102 0.399 8.04 4.47 10.01
4/29/2022 9:30:00 PM 13.21 55.778 0.399 8.02 4.12 10.01
4/29/2022 9:45:00 PM 13.02 55.436 0.4 8 4.14 10.01
4/29/2022 10:00:00 PM 12.82 55.076 0.4 7.97 4.07 10.02
4/29/2022 10:15:00 PM 12.63 54.734 0.399 7.96 4.02 10.04
4/29/2022 10:30:00 PM 12.43 54.374 0.4 7.94 4.12 10.07
4/29/2022 10:45:00 PM 12.24 54.032 0.4 7.93 4.03 10.1
4/29/2022 11:00:00 PM 12.04 53.672 0.401 7.91 4.23 10.14
4/29/2022 11:15:00 PM 11.84 53.312 0.402 7.9 4.22 10.18
4/29/2022 11:30:00 PM 11.64 52.952 0.403 7.89 4.13 10.21
4/29/2022 11:45:00 PM 11.45 52.61 0.404 7.88 4.07 10.24
4/30/2022 12:00:00 AM 11.26 52.268 0.405 7.86 4.18 10.27
4/30/2022 12:15:00 AM 11.08 51.944 0.407 7.86 4.01 10.3
4/30/2022 12:30:00 AM 10.91 51.638 0.408 7.85 4.1 10.33
4/30/2022 12:45:00 AM 10.73 51.314 0.41 7.84 4 10.36
4/30/2022 1:00:00 AM 10.55 50.99 0.411 7.83 3.97 10.39
4/30/2022 1:15:00 AM 10.38 50.684 0.412 7.83 4 10.44
4/30/2022 1:30:00 AM 10.23 50.414 0.412 7.82 4.13 10.48
4/30/2022 1:45:00 AM 10.07 50.126 0.412 7.82 4.02 10.51
4/30/2022 2:00:00 AM 9.92 49.856 0.412 7.81 4.37 10.55
4/30/2022 2:15:00 AM 9.78 49.604 0.412 7.81 4.19 10.59
4/30/2022 2:30:00 AM 9.64 49.352 0.412 7.81 4.34 10.63
4/30/2022 2:45:00 AM 9.51 49.118 0.413 7.81 4.04 10.66
4/30/2022 3:00:00 AM 9.38 48.884 0.413 7.81 3.85 10.71
4/30/2022 3:15:00 AM 9.26 48.668 0.413 7.81 3.93 10.74
4/30/2022 3:30:00 AM 9.14 48.452 0.413 7.8 3.77 10.78
4/30/2022 3:45:00 AM 9.02 48.236 0.413 7.8 3.87 10.82
4/30/2022 4:00:00 AM 8.91 48.038 0.413 7.8 3.85 10.85
4/30/2022 4:15:00 AM 8.81 47.858 0.413 7.8 3.91 10.88
4/30/2022 4:30:00 AM 8.71 47.678 0.413 7.8 3.95 10.92
4/30/2022 4:45:00 AM 8.61 47.498 0.414 7.8 3.94 10.95
4/30/2022 5:00:00 AM 8.51 47.318 0.414 7.8 3.88 10.98
4/30/2022 5:15:00 AM 8.42 47.156 0.414 7.8 4.04 11.01
4/30/2022 5:30:00 AM 8.33 46.994 0.414 7.8 3.77 11.04
4/30/2022 5:45:00 AM 8.23 46.814 0.414 7.8 3.76 11.07
4/30/2022 6:00:00 AM 8.15 46.67 0.414 7.8 3.7 11.1
4/30/2022 6:15:00 AM 8.06 46.508 0.414 7.81 3.66 11.14
4/30/2022 6:30:00 AM 7.98 46.364 0.414 7.81 3.73 11.18
4/30/2022 6:45:00 AM 7.91 46.238 0.414 7.81 3.6 11.25
4/30/2022 7:00:00 AM 7.85 46.13 0.414 7.82 3.58 11.33
4/30/2022 7:15:00 AM 7.79 46.022 0.414 7.83 3.46 11.4
4/30/2022 7:30:00 AM 7.75 45.95 0.414 7.83 3.42 11.49
4/30/2022 7:45:00 AM 7.73 45.914 0.414 7.84 3.56 11.59
4/30/2022 8:00:00 AM 7.73 45.914 0.414 7.86 3.29 11.71
4/30/2022 8:15:00 AM 7.76 45.968 0.414 7.87 3.28 11.82
4/30/2022 8:30:00 AM 7.82 46.076 0.414 7.88 3.25 11.93
4/30/2022 8:45:00 AM 7.91 46.238 0.414 7.9 3.15 12.03
4/30/2022 9:00:00 AM 8.03 46.454 0.414 7.91 3.06 12.13
4/30/2022 9:15:00 AM 8.17 46.706 0.413 7.93 2.89 12.23
4/30/2022 9:30:00 AM 8.31 46.958 0.413 7.95 2.89 12.32
4/30/2022 9:45:00 AM 8.48 47.264 0.413 7.96 2.82 12.4
4/30/2022 10:00:00 AM 8.68 47.624 0.412 7.98 2.77 12.48
4/30/2022 10:15:00 AM 8.91 48.038 0.412 8 2.74 12.56
4/30/2022 10:30:00 AM 9.17 48.506 0.411 8.02 2.81 12.63
4/30/2022 10:45:00 AM 9.44 48.992 0.411 8.04 2.77 12.69
4/30/2022 11:00:00 AM 9.74 49.532 0.411 8.06 2.76 12.74
4/30/2022 11:15:00 AM 10.04 50.072 0.41 8.08 2.7 12.79
4/30/2022 11:30:00 AM 10.4 50.72 0.409 8.11 2.72 12.84
4/30/2022 11:45:00 AM 10.77 51.386 0.409 8.13 2.64 12.86
4/30/2022 12:00:00 PM 11.16 52.088 0.408 8.16 2.75 12.87
4/30/2022 12:15:00 PM 11.57 52.826 0.408 8.19 2.6 12.88
4/30/2022 12:30:00 PM 12.02 53.636 0.408 8.22 3.07 12.86
4/30/2022 12:45:00 PM 12.47 54.446 0.407 8.24 3.86 12.84
4/30/2022 1:00:00 PM 12.9 55.22 0.407 8.27 2.87 12.79
4/30/2022 1:15:00 PM 13.36 56.048 0.406 8.3 2.91 12.76
4/30/2022 1:30:00 PM 13.8 56.84 0.406 8.32 3.2 12.71
4/30/2022 1:45:00 PM 14.2 57.56 0.405 8.35 3.05 12.65
4/30/2022 2:00:00 PM 14.59 58.262 0.405 8.37 2.99 12.58
4/30/2022 2:15:00 PM 14.93 58.874 0.404 8.39 3.08 12.52
4/30/2022 2:30:00 PM 15.27 59.486 0.404 8.41 2.91 12.44
4/30/2022 2:45:00 PM 15.6 60.08 0.403 8.42 3.76 12.38
4/30/2022 3:00:00 PM 15.83 60.494 0.403 8.44 3.14 12.29
4/30/2022 3:15:00 PM 16.02 60.836 0.403 8.45 3.37 12.21
4/30/2022 3:30:00 PM 16.19 61.142 0.402 8.46 3.15 12.13
4/30/2022 3:45:00 PM 16.3 61.34 0.402 8.47 2.97 12.05
4/30/2022 4:00:00 PM 16.41 61.538 0.402 8.47 3.08 11.96
4/30/2022 4:15:00 PM 16.42 61.556 0.402 8.48 3.27 11.85
4/30/2022 4:30:00 PM 16.41 61.538 0.402 8.48 3.39 11.73
4/30/2022 4:45:00 PM 16.46 61.628 0.402 8.48 3.36 11.64
4/30/2022 5:00:00 PM 16.42 61.556 0.402 8.47 3.27 11.53
4/30/2022 5:15:00 PM 16.37 61.466 0.402 8.47 3.39 11.42
4/30/2022 5:30:00 PM 16.3 61.34 0.403 8.46 3.35 11.3
4/30/2022 5:45:00 PM 16.24 61.232 0.403 8.45 3.45 11.16
4/30/2022 6:00:00 PM 16.14 61.052 0.403 8.43 3.5 11.05
4/30/2022 6:15:00 PM 16.08 60.944 0.404 8.41 3.39 10.92
4/30/2022 6:30:00 PM 15.99 60.782 0.404 8.39 3.39 10.78
4/30/2022 6:45:00 PM 15.9 60.62 0.405 8.37 3.5 10.65
4/30/2022 7:00:00 PM 15.81 60.458 0.405 8.34 3.25 10.52
4/30/2022 7:15:00 PM 15.7 60.26 0.406 8.31 3.37 10.39
4/30/2022 7:30:00 PM 15.59 60.062 0.406 8.28 3.58 10.24
4/30/2022 7:45:00 PM 15.47 59.846 0.407 8.24 4.12 10.11
4/30/2022 8:00:00 PM 15.34 59.612 0.407 8.21 3.75 10
4/30/2022 8:15:00 PM 15.21 59.378 0.408 8.17 3.78 9.9
4/30/2022 8:30:00 PM 15.06 59.108 0.408 8.14 3.84 9.81
4/30/2022 8:45:00 PM 14.9 58.82 0.408 8.11 3.87 9.76
4/30/2022 9:00:00 PM 14.74 58.532 0.409 8.09 4.07 9.72
4/30/2022 9:15:00 PM 14.58 58.244 0.409 8.06 4.06 9.68
4/30/2022 9:30:00 PM 14.41 57.938 0.41 8.04 4.1 9.67
4/30/2022 9:45:00 PM 14.23 57.614 0.41 8.02 4.08 9.67
4/30/2022 10:00:00 PM 14.06 57.308 0.411 8 4.09 9.67
4/30/2022 10:15:00 PM 13.88 56.984 0.411 7.98 4.08 9.68
4/30/2022 10:30:00 PM 13.69 56.642 0.412 7.96 4.08 9.7
4/30/2022 10:45:00 PM 13.51 56.318 0.412 7.94 4.35 9.72
4/30/2022 11:00:00 PM 13.32 55.976 0.413 7.93 4.28 9.76
4/30/2022 11:15:00 PM 13.13 55.634 0.413 7.92 3.97 9.79
4/30/2022 11:30:00 PM 12.95 55.31 0.414 7.9 4.18 9.81
4/30/2022 11:45:00 PM 12.75 54.95 0.415 7.89 3.97 9.84
5/1/2022 12:00:00 AM 12.55 54.59 0.415 7.88 3.96 9.88
5/1/2022 12:15:00 AM 12.35 54.23 0.416 7.87 3.92 9.91
5/1/2022 12:30:00 AM 12.16 53.888 0.416 7.86 4.18 9.94
5/1/2022 12:45:00 AM 11.97 53.546 0.416 7.85 4.14 9.98
5/1/2022 1:00:00 AM 11.78 53.204 0.417 7.84 4 10.02
5/1/2022 1:15:00 AM 11.6 52.88 0.417 7.83 4.1 10.06
5/1/2022 1:30:00 AM 11.42 52.556 0.417 7.83 3.78 10.1
5/1/2022 1:45:00 AM 11.25 52.25 0.417 7.82 3.88 10.14
5/1/2022 2:00:00 AM 11.09 51.962 0.417 7.81 3.96 10.18
5/1/2022 2:15:00 AM 10.94 51.692 0.417 7.81 3.75 10.22
5/1/2022 2:30:00 AM 10.79 51.422 0.417 7.81 3.95 10.25
5/1/2022 2:45:00 AM 10.65 51.17 0.417 7.8 3.79 10.29
5/1/2022 3:00:00 AM 10.51 50.918 0.417 7.8 3.8 10.33
5/1/2022 3:15:00 AM 10.38 50.684 0.417 7.8 3.86 10.39
5/1/2022 3:30:00 AM 10.24 50.432 0.417 7.8 3.88 10.42
5/1/2022 3:45:00 AM 10.12 50.216 0.417 7.8 3.83 10.46
5/1/2022 4:00:00 AM 9.99 49.982 0.417 7.8 3.84 10.5
5/1/2022 4:15:00 AM 9.88 49.784 0.417 7.8 3.87 10.53
5/1/2022 4:30:00 AM 9.76 49.568 0.417 7.8 3.99 10.57
5/1/2022 4:45:00 AM 9.65 49.37 0.417 7.8 3.83 10.61
5/1/2022 5:00:00 AM 9.54 49.172 0.417 7.8 4.11 10.64
5/1/2022 5:15:00 AM 9.44 48.992 0.417 7.8 4.48 10.68
5/1/2022 5:30:00 AM 9.34 48.812 0.417 7.8 4.14 10.7
5/1/2022 5:45:00 AM 9.23 48.614 0.417 7.8 4.26 10.75
5/1/2022 6:00:00 AM 9.14 48.452 0.417 7.8 3.61 10.77
5/1/2022 6:15:00 AM 9.05 48.29 0.417 7.8 3.58 10.81
5/1/2022 6:30:00 AM 8.97 48.146 0.417 7.8 3.62 10.87
5/1/2022 6:45:00 AM 8.91 48.038 0.418 7.81 3.55 10.96
5/1/2022 7:00:00 AM 8.85 47.93 0.418 7.82 3.64 11.05
5/1/2022 7:15:00 AM 8.8 47.84 0.417 7.82 3.41 11.13
5/1/2022 7:30:00 AM 8.77 47.786 0.417 7.83 3.34 11.22
5/1/2022 7:45:00 AM 8.76 47.768 0.417 7.84 3.2 11.34
5/1/2022 8:00:00 AM 8.78 47.804 0.417 7.86 3.33 11.46
5/1/2022 8:15:00 AM 8.84 47.912 0.417 7.87 3.42 11.6
5/1/2022 8:30:00 AM 8.92 48.056 0.417 7.89 3.01 11.72
5/1/2022 8:45:00 AM 9.04 48.272 0.416 7.91 2.96 11.86
5/1/2022 9:00:00 AM 9.17 48.506 0.416 7.93 2.95 11.99
5/1/2022 9:15:00 AM 9.32 48.776 0.416 7.95 2.93 12.11
5/1/2022 9:30:00 AM 9.5 49.1 0.415 7.97 3 12.23
5/1/2022 9:45:00 AM 9.66 49.388 0.415 7.99 2.94 12.34
5/1/2022 10:00:00 AM 9.81 49.658 0.414 8.01 2.86 12.44
5/1/2022 10:15:00 AM 9.99 49.982 0.414 8.03 2.75 12.54
5/1/2022 10:30:00 AM 10.23 50.414 0.413 8.06 2.7 12.64
5/1/2022 10:45:00 AM 10.44 50.792 0.413 8.09 2.89 12.72
5/1/2022 11:00:00 AM 10.71 51.278 0.412 8.11 2.73 12.8
5/1/2022 11:15:00 AM 11.01 51.818 0.411 8.14 2.75 12.86
5/1/2022 11:30:00 AM 11.3 52.34 0.411 8.17 2.67 12.91
5/1/2022 11:45:00 AM 11.58 52.844 0.41 8.2 2.67 12.94
5/1/2022 12:00:00 PM 11.69 53.042 0.41 8.22 2.68 12.89
5/1/2022 12:15:00 PM 11.93 53.474 0.41 8.25 2.61 12.89
5/1/2022 12:30:00 PM 12.18 53.924 0.409 8.28 2.67 12.89
5/1/2022 12:45:00 PM 12.35 54.23 0.408 8.3 2.72 12.83
5/1/2022 1:00:00 PM 12.52 54.536 0.408 8.32 2.77 12.75
5/1/2022 1:15:00 PM 12.7 54.86 0.408 8.34 2.81 12.67
5/1/2022 1:30:00 PM 12.92 55.256 0.407 8.36 2.79 12.62
5/1/2022 1:45:00 PM 13.04 55.472 0.407 8.37 2.75 12.51
5/1/2022 2:00:00 PM 13.09 55.562 0.407 8.36 2.89 12.28
5/1/2022 2:15:00 PM 13.15 55.67 0.407 8.35 2.81 12.05
5/1/2022 2:30:00 PM 13.22 55.796 0.406 8.35 2.94 11.91
5/1/2022 2:45:00 PM 13.27 55.886 0.406 8.34 2.95 11.76
5/1/2022 3:00:00 PM 13.33 55.994 0.405 8.33 3.3 11.68
5/1/2022 3:15:00 PM 13.4 56.12 0.405 8.33 2.92 11.65
5/1/2022 3:30:00 PM 13.45 56.21 0.405 8.33 2.93 11.59
5/1/2022 3:45:00 PM 13.49 56.282 0.405 8.32 3.08 11.49
5/1/2022 4:00:00 PM 13.53 56.354 0.405 8.31 3.11 11.39
5/1/2022 4:15:00 PM 13.57 56.426 0.405 8.3 3.29 11.3
5/1/2022 4:30:00 PM 13.61 56.498 0.405 8.28 3.18 11.21
5/1/2022 4:45:00 PM 13.62 56.516 0.405 8.27 3.32 11.12
5/1/2022 5:00:00 PM 13.62 56.516 0.405 8.25 3.36 11.04
5/1/2022 5:15:00 PM 13.6 56.48 0.404 8.23 3.48 10.98
5/1/2022 5:30:00 PM 13.62 56.516 0.404 8.23 3.47 11.04
5/1/2022 5:45:00 PM 13.59 56.462 0.405 8.22 3.55 11.02
5/1/2022 6:00:00 PM 13.53 56.354 0.405 8.2 3.53 10.93
5/1/2022 6:15:00 PM 13.47 56.246 0.405 8.17 3.89 10.86
5/1/2022 6:30:00 PM 13.43 56.174 0.406 8.16 3.36 10.88
5/1/2022 6:45:00 PM 13.37 56.066 0.406 8.15 3.41 10.88
5/1/2022 7:00:00 PM 13.29 55.922 0.406 8.12 3.35 10.78
5/1/2022 7:15:00 PM 13.22 55.796 0.406 8.1 3.28 10.69
5/1/2022 7:30:00 PM 13.16 55.688 0.407 8.08 3.24 10.63
5/1/2022 7:45:00 PM 13.1 55.58 0.408 8.05 3.33 10.52
5/1/2022 8:00:00 PM 13.03 55.454 0.408 8.02 3.36 10.44
5/1/2022 8:15:00 PM 12.97 55.346 0.409 8 3.42 10.35
5/1/2022 8:30:00 PM 12.91 55.238 0.409 7.98 3.66 10.3
5/1/2022 8:45:00 PM 12.85 55.13 0.41 7.96 3.68 10.24
5/1/2022 9:00:00 PM 12.8 55.04 0.409 7.94 3.71 10.19
5/1/2022 9:15:00 PM 12.73 54.914 0.41 7.92 3.66 10.17
5/1/2022 9:30:00 PM 12.67 54.806 0.41 7.91 3.57 10.13
5/1/2022 9:45:00 PM 12.61 54.698 0.41 7.9 3.67 10.12
5/1/2022 10:00:00 PM 12.55 54.59 0.41 7.89 3.61 10.11
5/1/2022 10:15:00 PM 12.48 54.464 0.411 7.88 3.71 10.09
5/1/2022 10:30:00 PM 12.42 54.356 0.411 7.87 3.64 10.1
5/1/2022 10:45:00 PM 12.36 54.248 0.411 7.87 4.03 10.09
5/1/2022 11:00:00 PM 12.31 54.158 0.411 7.86 3.93 10.09
5/1/2022 11:15:00 PM 12.27 54.086 0.412 7.85 3.79 10.08
5/1/2022 11:30:00 PM 12.22 53.996 0.412 7.85 3.94 10.07
5/1/2022 11:45:00 PM 12.17 53.906 0.413 7.84 3.89 10.06
5/2/2022 12:00:00 AM 12.11 53.798 0.413 7.83 3.8 10.05
5/2/2022 12:15:00 AM 12.04 53.672 0.413 7.83 3.93 10.05
5/2/2022 12:30:00 AM 11.99 53.582 0.413 7.82 4.05 10.05
5/2/2022 12:45:00 AM 11.94 53.492 0.413 7.82 3.77 10.05
5/2/2022 1:00:00 AM 11.9 53.42 0.413 7.82 3.7 10.05
5/2/2022 1:15:00 AM 11.86 53.348 0.413 7.81 3.57 10.06
5/2/2022 1:30:00 AM 11.82 53.276 0.413 7.81 3.52 10.06
5/2/2022 1:45:00 AM 11.79 53.222 0.413 7.81 3.72 10.07
5/2/2022 2:00:00 AM 11.76 53.168 0.412 7.8 3.48 10.08
5/2/2022 2:15:00 AM 11.73 53.114 0.412 7.8 3.37 10.09
5/2/2022 2:30:00 AM 11.7 53.06 0.412 7.8 3.4 10.09
5/2/2022 2:45:00 AM 11.66 52.988 0.41 7.8 3.63 10.1
5/2/2022 3:00:00 AM 11.63 52.934 0.409 7.79 3.46 10.1
5/2/2022 3:15:00 AM 11.6 52.88 0.408 7.79 3.41 10.11
5/2/2022 3:30:00 AM 11.57 52.826 0.408 7.79 3.61 10.13
5/2/2022 3:45:00 AM 11.55 52.79 0.407 7.79 4.57 10.12
5/2/2022 4:00:00 AM 11.52 52.736 0.407 7.79 3.67 10.13
5/2/2022 4:15:00 AM 11.49 52.682 0.407 7.79 3.73 10.14
5/2/2022 4:30:00 AM 11.47 52.646 0.408 7.79 3.8 10.15
5/2/2022 4:45:00 AM 11.44 52.592 0.408 7.79 3.75 10.16
5/2/2022 5:00:00 AM 11.42 52.556 0.409 7.79 3.62 10.17
5/2/2022 5:15:00 AM 11.4 52.52 0.409 7.79 3.98 10.17
5/2/2022 5:30:00 AM 11.38 52.484 0.409 7.79 3.61 10.18
5/2/2022 5:45:00 AM 11.36 52.448 0.41 7.79 3.77 10.19
5/2/2022 6:00:00 AM 11.35 52.43 0.411 7.79 3.51 10.2
5/2/2022 6:15:00 AM 11.33 52.394 0.411 7.79 3.55 10.21
5/2/2022 6:30:00 AM 11.32 52.376 0.411 7.79 3.46 10.23
5/2/2022 6:45:00 AM 11.31 52.358 0.412 7.8 3.39 10.26
5/2/2022 7:00:00 AM 11.31 52.358 0.411 7.8 3.44 10.33
5/2/2022 7:15:00 AM 11.32 52.376 0.411 7.81 3.36 10.43
5/2/2022 7:30:00 AM 11.33 52.394 0.411 7.83 3.36 10.56
5/2/2022 7:45:00 AM 11.37 52.466 0.411 7.84 3.39 10.7
5/2/2022 8:00:00 AM 11.4 52.52 0.411 7.86 3.4 10.83
5/2/2022 8:15:00 AM 11.45 52.61 0.411 7.88 3.32 10.95
5/2/2022 8:30:00 AM 11.5 52.7 0.411 7.9 3.15 11.09
5/2/2022 8:45:00 AM 11.56 52.808 0.411 7.92 3.17 11.21
5/2/2022 9:00:00 AM 11.62 52.916 0.411 7.94 3.31 11.33
5/2/2022 9:15:00 AM 11.72 53.096 0.412 7.96 3.15 11.48
5/2/2022 9:30:00 AM 11.83 53.294 0.412 7.99 3.04 11.62
5/2/2022 9:45:00 AM 11.97 53.546 0.412 8.02 2.96 11.77
5/2/2022 10:00:00 AM 12.09 53.762 0.411 8.04 2.88 11.9
5/2/2022 10:15:00 AM 12.28 54.104 0.411 8.07 2.81 12.04
5/2/2022 10:30:00 AM 12.5 54.5 0.411 8.1 2.95 12.16
5/2/2022 10:45:00 AM 12.68 54.824 0.411 8.13 2.92 12.23
5/2/2022 11:00:00 AM 12.9 55.22 0.41 8.15 2.98 12.31
5/2/2022 11:15:00 AM 13.21 55.778 0.41 8.18 2.92 12.39
5/2/2022 11:30:00 AM 13.34 56.012 0.409 8.2 2.92 12.43
5/2/2022 11:45:00 AM 13.52 56.336 0.409 8.23 2.83 12.46
5/2/2022 12:00:00 PM 13.63 56.534 0.408 8.25 2.83 12.48
5/2/2022 12:15:00 PM 14.03 57.254 0.407 8.28 2.81 12.53
5/2/2022 12:30:00 PM 14.19 57.542 0.406 8.3 2.81 12.5
5/2/2022 12:45:00 PM 14.24 57.632 0.405 8.32 2.86 12.47
5/2/2022 1:00:00 PM 14.64 58.352 0.404 8.34 2.78 12.5
5/2/2022 1:15:00 PM 15.14 59.252 0.403 8.37 2.77 12.53
5/2/2022 1:30:00 PM 15.44 59.792 0.402 8.4 3.07 12.52
5/2/2022 1:45:00 PM 15.36 59.648 0.402 8.41 2.94 12.35
5/2/2022 2:00:00 PM 15.4 59.72 0.401 8.42 3.26 12.23
5/2/2022 2:15:00 PM 15.4 59.72 0.401 8.42 3.09 12.11
5/2/2022 2:30:00 PM 15.52 59.936 0.401 8.43 3.02 12.05
5/2/2022 2:45:00 PM 15.56 60.008 0.401 8.44 2.99 11.93
5/2/2022 3:00:00 PM 15.56 60.008 0.401 8.42 2.95 11.69
5/2/2022 3:15:00 PM 15.68 60.224 0.401 8.42 2.81 11.58
5/2/2022 3:30:00 PM 15.78 60.404 0.401 8.42 3.03 11.45
5/2/2022 3:45:00 PM 15.92 60.656 0.402 8.42 3.05 11.36
5/2/2022 4:00:00 PM 16.04 60.872 0.402 8.42 3 11.29
5/2/2022 4:15:00 PM 16.16 61.088 0.402 8.43 2.96 11.21
5/2/2022 4:30:00 PM 16.41 61.538 0.402 8.43 3.09 11.22
5/2/2022 4:45:00 PM 16.52 61.736 0.402 8.44 3.06 11.17
5/2/2022 5:00:00 PM 16.65 61.97 0.402 8.44 3.16 11.14
5/2/2022 5:15:00 PM 16.75 62.15 0.402 8.44 3.14 11.06
5/2/2022 5:30:00 PM 16.83 62.294 0.403 8.43 3.35 10.95
5/2/2022 5:45:00 PM 16.93 62.474 0.403 8.43 4.02 10.91
5/2/2022 6:00:00 PM 16.94 62.492 0.403 8.42 3.33 10.83
5/2/2022 6:15:00 PM 16.87 62.366 0.404 8.39 3.33 10.62
5/2/2022 6:30:00 PM 16.82 62.276 0.404 8.37 3.44 10.5
5/2/2022 6:45:00 PM 16.76 62.168 0.405 8.35 3.45 10.41
5/2/2022 7:00:00 PM 16.69 62.042 0.405 8.33 3.43 10.3
5/2/2022 7:15:00 PM 16.59 61.862 0.406 8.3 3.38 10.17
5/2/2022 7:30:00 PM 16.48 61.664 0.407 8.27 3.35 10.05
5/2/2022 7:45:00 PM 16.37 61.466 0.407 8.24 3.37 9.95
5/2/2022 8:00:00 PM 16.25 61.25 0.408 8.2 4.49 9.82
5/2/2022 8:15:00 PM 16.13 61.034 0.409 8.17 3.4 9.72
5/2/2022 8:30:00 PM 16.02 60.836 0.409 8.13 3.59 9.62
5/2/2022 8:45:00 PM 15.92 60.656 0.41 8.1 3.88 9.54
5/2/2022 9:00:00 PM 15.83 60.494 0.41 8.07 3.95 9.47
5/2/2022 9:15:00 PM 15.73 60.314 0.411 8.04 4.01 9.42
5/2/2022 9:30:00 PM 15.6 60.08 0.412 8.02 4.06 9.39
5/2/2022 9:45:00 PM 15.47 59.846 0.412 8 3.98 9.37
5/2/2022 10:00:00 PM 15.34 59.612 0.412 7.98 4.12 9.36
5/2/2022 10:15:00 PM 15.21 59.378 0.413 7.96 4.32 9.35
5/2/2022 10:30:00 PM 15.08 59.144 0.414 7.95 4.18 9.36
5/2/2022 10:45:00 PM 14.95 58.91 0.414 7.93 4.04 9.36
5/2/2022 11:00:00 PM 14.82 58.676 0.415 7.92 4.4 9.37
5/2/2022 11:15:00 PM 14.68 58.424 0.415 7.9 4.12 9.37
5/2/2022 11:30:00 PM 14.54 58.172 0.416 7.89 4.41 9.39
5/2/2022 11:45:00 PM 14.39 57.902 0.417 7.88 4.41 9.41
5/3/2022 12:00:00 AM 14.23 57.614 0.417 7.87 4.19 9.43
5/3/2022 12:15:00 AM 14.07 57.326 0.418 7.85 4.2 9.45
5/3/2022 12:30:00 AM 13.9 57.02 0.419 7.84 4.31 9.48
5/3/2022 12:45:00 AM 13.74 56.732 0.419 7.83 4.12 9.5
5/3/2022 1:00:00 AM 13.58 56.444 0.42 7.83 4.4 9.53
5/3/2022 1:15:00 AM 13.42 56.156 0.42 7.82 4.3 9.56
5/3/2022 1:30:00 AM 13.27 55.886 0.42 7.81 4.41 9.59
5/3/2022 1:45:00 AM 13.12 55.616 0.421 7.81 4.04 9.63
5/3/2022 2:00:00 AM 12.98 55.364 0.421 7.8 4.33 9.66
5/3/2022 2:15:00 AM 12.84 55.112 0.421 7.8 4.27 9.71
5/3/2022 2:30:00 AM 12.71 54.878 0.421 7.8 4.01 9.74
5/3/2022 2:45:00 AM 12.6 54.68 0.421 7.79 4.04 9.77
5/3/2022 3:00:00 AM 12.51 54.518 0.422 7.79 4.38 9.8
5/3/2022 3:15:00 AM 12.43 54.374 0.421 7.79 4.12 9.83
5/3/2022 3:30:00 AM 12.35 54.23 0.422 7.79 4.31 9.86
5/3/2022 3:45:00 AM 12.26 54.068 0.421 7.79 4.01 9.89
5/3/2022 4:00:00 AM 12.15 53.87 0.422 7.79 4.06 9.92
5/3/2022 4:15:00 AM 12.05 53.69 0.422 7.78 3.99 9.95
5/3/2022 4:30:00 AM 11.95 53.51 0.422 7.78 3.94 9.98
5/3/2022 4:45:00 AM 11.85 53.33 0.422 7.78 5.48 10.01
5/3/2022 5:00:00 AM 11.78 53.204 0.422 7.78 4.7 10.04
5/3/2022 5:15:00 AM 11.72 53.096 0.422 7.78 4.28 10.06
5/3/2022 5:30:00 AM 11.67 53.006 0.422 7.78 7.84 10.08
5/3/2022 5:45:00 AM 11.62 52.916 0.422 7.78 3.76 10.11
5/3/2022 6:00:00 AM 11.58 52.844 0.422 7.78 3.71 10.13
5/3/2022 6:15:00 AM 11.55 52.79 0.422 7.78 3.67 10.15
5/3/2022 6:30:00 AM 11.52 52.736 0.422 7.78 3.53 10.18
5/3/2022 6:45:00 AM 11.5 52.7 0.422 7.79 3.58 10.22
5/3/2022 7:00:00 AM 11.49 52.682 0.422 7.79 3.51 10.28
5/3/2022 7:15:00 AM 11.5 52.7 0.423 7.8 3.33 10.37
5/3/2022 7:30:00 AM 11.51 52.718 0.422 7.81 3.29 10.44
5/3/2022 7:45:00 AM 11.54 52.772 0.423 7.82 3.17 10.55
5/3/2022 8:00:00 AM 11.55 52.79 0.423 7.83 3.27 10.63
5/3/2022 8:15:00 AM 11.57 52.826 0.422 7.85 3.14 10.72
5/3/2022 8:30:00 AM 11.6 52.88 0.422 7.86 3.1 10.84
5/3/2022 8:45:00 AM 11.63 52.934 0.422 7.88 3.06 10.96
5/3/2022 9:00:00 AM 11.69 53.042 0.422 7.9 2.82 11.13
5/3/2022 9:15:00 AM 11.76 53.168 0.421 7.93 2.8 11.27
5/3/2022 9:30:00 AM 11.85 53.33 0.421 7.96 2.87 11.44
5/3/2022 9:45:00 AM 11.98 53.564 0.421 7.98 2.91 11.61
5/3/2022 10:00:00 AM 12.11 53.798 0.42 8.02 2.8 11.79
5/3/2022 10:15:00 AM 12.3 54.14 0.42 8.05 2.79 11.96
5/3/2022 10:30:00 AM 12.51 54.518 0.419 8.08 2.84 12.12
5/3/2022 10:45:00 AM 12.7 54.86 0.419 8.12 2.87 12.24
5/3/2022 11:00:00 AM 12.86 55.148 0.418 8.14 2.8 12.35
5/3/2022 11:15:00 AM 13.08 55.544 0.418 8.17 2.84 12.43
5/3/2022 11:30:00 AM 13.26 55.868 0.417 8.2 2.92 12.52
5/3/2022 11:45:00 AM 13.55 56.39 0.417 8.23 4.8 12.58
5/3/2022 12:00:00 PM 13.86 56.948 0.416 8.26 3.03 12.65
5/3/2022 12:15:00 PM 14.09 57.362 0.416 8.29 2.88 12.71
5/3/2022 12:30:00 PM 14.38 57.884 0.415 8.32 2.84 12.76
5/3/2022 12:45:00 PM 14.73 58.514 0.414 8.35 2.88 12.78
5/3/2022 1:00:00 PM 14.97 58.946 0.414 8.37 2.96 12.78
5/3/2022 1:15:00 PM 15.33 59.594 0.413 8.4 2.89 12.8
5/3/2022 1:30:00 PM 15.62 60.116 0.412 8.43 2.85 12.78
5/3/2022 1:45:00 PM 15.84 60.512 0.411 8.45 2.79 12.77
5/3/2022 2:00:00 PM 16.04 60.872 0.41 8.48 2.86 12.74
5/3/2022 2:15:00 PM 16.31 61.358 0.409 8.5 2.91 12.7
5/3/2022 2:30:00 PM 16.54 61.772 0.408 8.53 2.87 12.66
5/3/2022 2:45:00 PM 16.72 62.096 0.408 8.55 2.84 12.57
5/3/2022 3:00:00 PM 16.91 62.438 0.407 8.56 3.05 12.51
5/3/2022 3:15:00 PM 17.02 62.636 0.406 8.58 2.9 12.38
5/3/2022 3:30:00 PM 17.17 62.906 0.406 8.59 2.87 12.28
5/3/2022 3:45:00 PM 17.27 63.086 0.406 8.59 2.93 12.15
5/3/2022 4:00:00 PM 17.33 63.194 0.405 8.6 2.94 12.02
5/3/2022 4:15:00 PM 17.39 63.302 0.405 8.6 2.98 11.91
5/3/2022 4:30:00 PM 17.45 63.41 0.405 8.6 2.96 11.83
5/3/2022 4:45:00 PM 17.57 63.626 0.405 8.6 3.09 11.75
5/3/2022 5:00:00 PM 17.57 63.626 0.405 8.6 3.07 11.59
5/3/2022 5:15:00 PM 17.58 63.644 0.405 8.59 3.07 11.42
5/3/2022 5:30:00 PM 17.6 63.68 0.405 8.58 3.08 11.29
5/3/2022 5:45:00 PM 17.63 63.734 0.406 8.57 3.11 11.14
5/3/2022 6:00:00 PM 17.64 63.752 0.406 8.56 3.18 11
5/3/2022 6:15:00 PM 17.62 63.716 0.407 8.54 3.3 10.83
5/3/2022 6:30:00 PM 17.56 63.608 0.408 8.51 3.23 10.65
5/3/2022 6:45:00 PM 17.5 63.5 0.408 8.49 3.19 10.51
5/3/2022 7:00:00 PM 17.41 63.338 0.409 8.46 3.24 10.32
5/3/2022 7:15:00 PM 17.31 63.158 0.41 8.42 3.25 10.18
5/3/2022 7:30:00 PM 17.22 62.996 0.411 8.39 3.54 10.04
5/3/2022 7:45:00 PM 17.12 62.816 0.411 8.35 3.48 9.88
5/3/2022 8:00:00 PM 17.01 62.618 0.412 8.31 3.4 9.72
5/3/2022 8:15:00 PM 16.9 62.42 0.413 8.27 3.35 9.59
5/3/2022 8:30:00 PM 16.78 62.204 0.414 8.23 3.65 9.48
5/3/2022 8:45:00 PM 16.66 61.988 0.415 8.19 3.81 9.39
5/3/2022 9:00:00 PM 16.55 61.79 0.415 8.16 3.85 9.32
5/3/2022 9:15:00 PM 16.43 61.574 0.416 8.13 3.96 9.27
5/3/2022 9:30:00 PM 16.32 61.376 0.417 8.1 4.09 9.22
5/3/2022 9:45:00 PM 16.2 61.16 0.418 8.07 3.98 9.18
5/3/2022 10:00:00 PM 16.07 60.926 0.418 8.04 3.92 9.17
5/3/2022 10:15:00 PM 15.94 60.692 0.419 8.02 3.95 9.16
5/3/2022 10:30:00 PM 15.81 60.458 0.419 8 4.59 9.16
5/3/2022 10:45:00 PM 15.68 60.224 0.42 7.98 4.23 9.16
5/3/2022 11:00:00 PM 15.56 60.008 0.42 7.97 4.8 9.16
5/3/2022 11:15:00 PM 15.44 59.792 0.421 7.95 4.8 9.18
5/3/2022 11:30:00 PM 15.33 59.594 0.421 7.93 4.3 9.19
5/3/2022 11:45:00 PM 15.22 59.396 0.422 7.92 4.28 9.2
5/4/2022 12:00:00 AM 15.1 59.18 0.422 7.91 4.21 9.21
5/4/2022 12:15:00 AM 14.96 58.928 0.423 7.89 4.23 9.22
5/4/2022 12:30:00 AM 14.82 58.676 0.424 7.88 4.05 9.24
5/4/2022 12:45:00 AM 14.69 58.442 0.424 7.87 4.12 9.26
5/4/2022 1:00:00 AM 14.52 58.136 0.421 7.86 5.39 9.31
5/4/2022 1:15:00 AM 14.4 57.92 0.421 7.85 5.29 9.3
5/4/2022 1:30:00 AM 14.28 57.704 0.421 7.84 4.53 9.31
5/4/2022 1:45:00 AM 14.15 57.47 0.42 7.83 4.38 9.33
5/4/2022 2:00:00 AM 14.03 57.254 0.42 7.82 4.33 9.34
5/4/2022 2:15:00 AM 13.92 57.056 0.42 7.81 4.51 9.36
5/4/2022 2:30:00 AM 13.8 56.84 0.42 7.81 4.45 9.38
5/4/2022 2:45:00 AM 13.69 56.642 0.419 7.8 4.54 9.4
5/4/2022 3:00:00 AM 13.59 56.462 0.419 7.8 4.86 9.43
5/4/2022 3:15:00 AM 13.48 56.264 0.418 7.79 4.84 9.45
5/4/2022 3:30:00 AM 13.4 56.12 0.418 7.79 4.64 9.47
5/4/2022 3:45:00 AM 13.31 55.958 0.418 7.79 4.76 9.5
5/4/2022 4:00:00 AM 13.23 55.814 0.418 7.79 4.73 9.53
5/4/2022 4:15:00 AM 13.16 55.688 0.418 7.79 4.67 9.53
5/4/2022 4:30:00 AM 13.09 55.562 0.419 7.79 4.58 9.57
5/4/2022 4:45:00 AM 13.03 55.454 0.418 7.79 4.14 9.59
5/4/2022 5:00:00 AM 12.96 55.328 0.417 7.79 4.32 9.62
5/4/2022 5:15:00 AM 12.89 55.202 0.416 7.78 4.23 9.62
5/4/2022 5:30:00 AM 12.83 55.094 0.415 7.78 4.47 9.65
5/4/2022 5:45:00 AM 12.77 54.986 0.415 7.78 4.45 9.66
5/4/2022 6:00:00 AM 12.71 54.878 0.414 7.78 4.34 9.68
5/4/2022 6:15:00 AM 12.66 54.788 0.415 7.78 4.5 9.69
5/4/2022 6:30:00 AM 12.61 54.698 0.415 7.78 4.28 9.7
5/4/2022 6:45:00 AM 12.56 54.608 0.415 7.78 4.19 9.73
5/4/2022 7:00:00 AM 12.51 54.518 0.415 7.78 4.1 9.77
5/4/2022 7:15:00 AM 12.46 54.428 0.414 7.79 4.1 9.82
5/4/2022 7:30:00 AM 12.42 54.356 0.413 7.79 4.33 9.87
5/4/2022 7:45:00 AM 12.38 54.284 0.414 7.79 4.4 9.92
5/4/2022 8:00:00 AM 12.35 54.23 0.414 7.8 4.13 9.99
5/4/2022 8:15:00 AM 12.34 54.212 0.415 7.81 4.04 10.11
5/4/2022 8:30:00 AM 12.32 54.176 0.415 7.82 3.71 10.19
5/4/2022 8:45:00 AM 12.32 54.176 0.415 7.83 3.72 10.26
5/4/2022 9:00:00 AM 12.33 54.194 0.415 7.84 3.59 10.41
5/4/2022 9:15:00 AM 12.35 54.23 0.415 7.86 3.6 10.56
5/4/2022 9:30:00 AM 12.37 54.266 0.415 7.88 3.56 10.7
5/4/2022 9:45:00 AM 12.39 54.302 0.415 7.9 3.38 10.83
5/4/2022 10:00:00 AM 12.41 54.338 0.415 7.91 3.37 10.94
5/4/2022 10:15:00 AM 12.45 54.41 0.415 7.93 3.34 11.06
5/4/2022 10:30:00 AM 12.49 54.482 0.414 7.95 3.46 11.18
5/4/2022 10:45:00 AM 12.51 54.518 0.413 7.97 3.26 11.23
5/4/2022 11:00:00 AM 12.54 54.572 0.411 7.98 3.16 11.32
5/4/2022 11:15:00 AM 12.56 54.608 0.41 8 3.21 11.36
5/4/2022 11:30:00 AM 12.57 54.626 0.408 8 3.2 11.37
5/4/2022 11:45:00 AM 12.59 54.662 0.407 8.01 3.12 11.42
5/4/2022 12:00:00 PM 12.63 54.734 0.406 8.03 3.08 11.47
5/4/2022 12:15:00 PM 12.68 54.824 0.405 8.04 3.19 11.55
5/4/2022 12:30:00 PM 12.73 54.914 0.404 8.06 3.08 11.61
5/4/2022 12:45:00 PM 12.8 55.04 0.403 8.08 3.15 11.7
5/4/2022 1:00:00 PM 12.88 55.184 0.403 8.1 3.07 11.81
5/4/2022 1:15:00 PM 12.98 55.364 0.403 8.13 3.06 11.93
5/4/2022 1:30:00 PM 13.07 55.526 0.402 8.16 3.01 12.02
5/4/2022 1:45:00 PM 13.21 55.778 0.402 8.18 3.09 12.11
5/4/2022 2:00:00 PM 13.33 55.994 0.402 8.21 3.08 12.2
5/4/2022 2:15:00 PM 13.39 56.102 0.403 8.23 3.03 12.2
5/4/2022 2:30:00 PM 13.43 56.174 0.403 8.24 3.09 12.14
5/4/2022 2:45:00 PM 13.43 56.174 0.404 8.24 3.05 11.99
5/4/2022 3:00:00 PM 13.49 56.282 0.404 8.24 3.2 11.98
5/4/2022 3:15:00 PM 13.65 56.57 0.404 8.26 3.22 12.07
5/4/2022 3:30:00 PM 13.78 56.804 0.403 8.28 3.08 12.13
5/4/2022 3:45:00 PM 13.84 56.912 0.403 8.3 3.1 12.13
5/4/2022 4:00:00 PM 13.91 57.038 0.403 8.31 3.02 12.14
5/4/2022 4:15:00 PM 13.97 57.146 0.403 8.32 3.1 12.1
5/4/2022 4:30:00 PM 14.11 57.398 0.402 8.34 3.03 12.13
5/4/2022 4:45:00 PM 14.28 57.704 0.402 8.35 3 12.13
5/4/2022 5:00:00 PM 14.39 57.902 0.401 8.36 3.03 12.09
5/4/2022 5:15:00 PM 14.49 58.082 0.401 8.38 3.03 12.03
5/4/2022 5:30:00 PM 14.56 58.208 0.401 8.38 3.07 11.98
5/4/2022 5:45:00 PM 14.63 58.334 0.401 8.39 3 11.9
5/4/2022 6:00:00 PM 14.7 58.46 0.4 8.39 3.02 11.8
5/4/2022 6:15:00 PM 14.71 58.478 0.401 8.38 3.08 11.64
5/4/2022 6:30:00 PM 14.72 58.496 0.401 8.36 3.36 11.48
5/4/2022 6:45:00 PM 14.7 58.46 0.402 8.34 3.56 11.32
5/4/2022 7:00:00 PM 14.68 58.424 0.402 8.31 3.35 11.19
5/4/2022 7:15:00 PM 14.64 58.352 0.403 8.29 3.35 11.04
5/4/2022 7:30:00 PM 14.62 58.316 0.404 8.26 3.34 10.86
5/4/2022 7:45:00 PM 14.6 58.28 0.405 8.23 3.28 10.68
5/4/2022 8:00:00 PM 14.61 58.298 0.406 8.19 3.26 10.49
5/4/2022 8:15:00 PM 14.62 58.316 0.407 8.16 3.32 10.32
5/4/2022 8:30:00 PM 14.64 58.352 0.407 8.13 3.43 10.18
5/4/2022 8:45:00 PM 14.66 58.388 0.408 8.1 3.64 10.06
5/4/2022 9:00:00 PM 14.67 58.406 0.409 8.08 3.61 9.95
5/4/2022 9:15:00 PM 14.67 58.406 0.41 8.06 3.71 9.87
5/4/2022 9:30:00 PM 14.67 58.406 0.411 8.04 3.78 9.79
5/4/2022 9:45:00 PM 14.65 58.37 0.412 8.02 3.79 9.73
5/4/2022 10:00:00 PM 14.61 58.298 0.413 8.01 3.78 9.68
5/4/2022 10:15:00 PM 14.56 58.208 0.413 7.99 3.74 9.64
5/4/2022 10:30:00 PM 14.5 58.1 0.414 7.97 3.74 9.62
5/4/2022 10:45:00 PM 14.43 57.974 0.415 7.96 3.83 9.6
5/4/2022 11:00:00 PM 14.35 57.83 0.415 7.94 3.85 9.58
5/4/2022 11:15:00 PM 14.27 57.686 0.416 7.93 3.99 9.57
5/4/2022 11:30:00 PM 14.18 57.524 0.417 7.92 3.84 9.56
5/4/2022 11:45:00 PM 14.08 57.344 0.418 7.9 3.99 9.56
5/5/2022 12:00:00 AM 13.98 57.164 0.418 7.89 4.08 9.55
5/5/2022 12:15:00 AM 13.88 56.984 0.419 7.88 3.9 9.55
5/5/2022 12:30:00 AM 13.77 56.786 0.42 7.87 3.99 9.55
5/5/2022 12:45:00 AM 13.68 56.624 0.42 7.85 3.94 9.56
5/5/2022 1:00:00 AM 13.58 56.444 0.42 7.85 4.1 9.56
5/5/2022 1:15:00 AM 13.48 56.264 0.421 7.84 3.88 9.58
5/5/2022 1:30:00 AM 13.39 56.102 0.421 7.83 3.61 9.59
5/5/2022 1:45:00 AM 13.3 55.94 0.422 7.82 3.88 9.6
5/5/2022 2:00:00 AM 13.23 55.814 0.422 7.82 3.71 9.62
5/5/2022 2:15:00 AM 13.16 55.688 0.422 7.82 3.73 9.63
5/5/2022 2:30:00 AM 13.1 55.58 0.423 7.81 3.81 9.65
5/5/2022 2:45:00 AM 13.04 55.472 0.423 7.81 4.16 9.67
5/5/2022 3:00:00 AM 12.99 55.382 0.423 7.81 3.91 9.7
5/5/2022 3:15:00 AM 12.94 55.292 0.423 7.81 3.78 9.71
5/5/2022 3:30:00 AM 12.89 55.202 0.423 7.81 3.72 9.72
5/5/2022 3:45:00 AM 12.84 55.112 0.423 7.8 3.67 9.75
5/5/2022 4:00:00 AM 12.79 55.022 0.423 7.8 3.83 9.76
5/5/2022 4:15:00 AM 12.75 54.95 0.423 7.8 3.81 9.78
5/5/2022 4:30:00 AM 12.7 54.86 0.424 7.8 3.84 9.79
5/5/2022 4:45:00 AM 12.64 54.752 0.424 7.8 3.8 9.81
5/5/2022 5:00:00 AM 12.57 54.626 0.424 7.8 3.65 9.84
5/5/2022 5:15:00 AM 12.49 54.482 0.424 7.8 3.67 9.85
5/5/2022 5:30:00 AM 12.41 54.338 0.424 7.8 4.07 9.87
5/5/2022 5:45:00 AM 12.32 54.176 0.424 7.8 3.76 9.9
5/5/2022 6:00:00 AM 12.24 54.032 0.424 7.8 3.62 9.92
5/5/2022 6:15:00 AM 12.15 53.87 0.425 7.8 3.59 9.96
5/5/2022 6:30:00 AM 12.08 53.744 0.425 7.8 3.43 10.01
5/5/2022 6:45:00 AM 12.02 53.636 0.425 7.81 3.53 10.09
5/5/2022 7:00:00 AM 11.97 53.546 0.425 7.82 3.5 10.17
5/5/2022 7:15:00 AM 11.93 53.474 0.425 7.83 3.36 10.27
5/5/2022 7:30:00 AM 11.9 53.42 0.425 7.84 3.28 10.36
5/5/2022 7:45:00 AM 11.89 53.402 0.425 7.85 3.2 10.47
5/5/2022 8:00:00 AM 11.92 53.456 0.425 7.87 3.18 10.62
5/5/2022 8:15:00 AM 11.96 53.528 0.425 7.89 3.19 10.77
5/5/2022 8:30:00 AM 12 53.6 0.425 7.91 3.36 10.92
5/5/2022 8:45:00 AM 12.06 53.708 0.425 7.93 3.14 11.05
5/5/2022 9:00:00 AM 12.14 53.852 0.425 7.95 2.97 11.2
5/5/2022 9:15:00 AM 12.26 54.068 0.424 7.98 2.98 11.35
5/5/2022 9:30:00 AM 12.37 54.266 0.424 8 2.96 11.5
5/5/2022 9:45:00 AM 12.5 54.5 0.424 8.03 2.91 11.64
5/5/2022 10:00:00 AM 12.66 54.788 0.424 8.05 2.93 11.78
5/5/2022 10:15:00 AM 12.83 55.094 0.423 8.08 2.9 11.92
5/5/2022 10:30:00 AM 13.03 55.454 0.423 8.11 2.98 12.05
5/5/2022 10:45:00 AM 13.26 55.868 0.422 8.14 2.95 12.17
5/5/2022 11:00:00 AM 13.5 56.3 0.422 8.17 2.86 12.29
5/5/2022 11:15:00 AM 13.77 56.786 0.421 8.2 2.81 12.39
5/5/2022 11:30:00 AM 14.06 57.308 0.421 8.23 3.6 12.49
5/5/2022 11:45:00 AM 14.37 57.866 0.42 8.27 2.83 12.57
5/5/2022 12:00:00 PM 14.71 58.478 0.419 8.31 2.94 12.64
5/5/2022 12:15:00 PM 14.86 58.748 0.419 8.33 2.85 12.58
5/5/2022 12:30:00 PM 15.28 59.504 0.418 8.36 2.89 12.61
5/5/2022 12:45:00 PM 15.46 59.828 0.417 8.39 2.78 12.58
5/5/2022 1:00:00 PM 15.76 60.368 0.416 8.43 2.9 12.59
5/5/2022 1:15:00 PM 16.4 61.52 0.415 8.47 2.76 12.7
5/5/2022 1:30:00 PM 16.67 62.006 0.414 8.5 2.79 12.67
5/5/2022 1:45:00 PM 16.98 62.564 0.413 8.53 2.86 12.68
5/5/2022 2:00:00 PM 17.3 63.14 0.412 8.55 3.07 12.63
5/5/2022 2:15:00 PM 17.58 63.644 0.412 8.58 3.04 12.58
5/5/2022 2:30:00 PM 18.06 64.508 0.411 8.6 3.09 12.61
5/5/2022 2:45:00 PM 18.34 65.012 0.41 8.62 2.94 12.56
5/5/2022 3:00:00 PM 18.47 65.246 0.41 8.63 2.99 12.44
5/5/2022 3:15:00 PM 18.76 65.768 0.409 8.64 3.39 12.42
5/5/2022 3:30:00 PM 19.04 66.272 0.409 8.65 3.08 12.36
5/5/2022 3:45:00 PM 19.01 66.218 0.409 8.65 3.02 12.15
5/5/2022 4:00:00 PM 19 66.2 0.409 8.65 3.03 11.94
5/5/2022 4:15:00 PM 18.87 65.966 0.409 8.63 2.97 11.66
5/5/2022 4:30:00 PM 18.68 65.624 0.41 8.61 2.92 11.36
5/5/2022 4:45:00 PM 18.6 65.48 0.41 8.6 2.92 11.19
5/5/2022 5:00:00 PM 18.5 65.3 0.411 8.58 3.04 10.96
5/5/2022 5:15:00 PM 18.42 65.156 0.411 8.55 2.95 10.72
5/5/2022 5:30:00 PM 18.36 65.048 0.412 8.53 3 10.51
5/5/2022 5:45:00 PM 18.34 65.012 0.413 8.51 3.09 10.49
5/5/2022 6:00:00 PM 18.31 64.958 0.413 8.5 3.05 10.46
5/5/2022 6:15:00 PM 18.29 64.922 0.413 8.48 3.23 10.38
5/5/2022 6:30:00 PM 18.26 64.868 0.414 8.46 3.08 10.27
5/5/2022 6:45:00 PM 18.22 64.796 0.414 8.44 3.09 10.16
5/5/2022 7:00:00 PM 18.2 64.76 0.415 8.43 3.24 10.08
5/5/2022 7:15:00 PM 18.18 64.724 0.415 8.41 3.29 9.96
5/5/2022 7:30:00 PM 18.14 64.652 0.416 8.39 3.29 9.83
5/5/2022 7:45:00 PM 18.09 64.562 0.416 8.36 3.2 9.66
5/5/2022 8:00:00 PM 18.03 64.454 0.417 8.32 3.37 9.5
5/5/2022 8:15:00 PM 17.95 64.31 0.418 8.28 3.37 9.34
5/5/2022 8:30:00 PM 17.86 64.148 0.419 8.24 3.55 9.2
5/5/2022 8:45:00 PM 17.77 63.986 0.42 8.2 3.64 9.09
5/5/2022 9:00:00 PM 17.66 63.788 0.421 8.16 3.84 9
5/5/2022 9:15:00 PM 17.54 63.572 0.421 8.12 3.91 8.94
5/5/2022 9:30:00 PM 17.42 63.356 0.423 8.09 3.9 8.89
5/5/2022 9:45:00 PM 17.3 63.14 0.423 8.06 3.95 8.85
5/5/2022 10:00:00 PM 17.17 62.906 0.424 8.03 4.1 8.83
5/5/2022 10:15:00 PM 17.03 62.654 0.425 8.01 4.19 8.84
5/5/2022 10:30:00 PM 16.88 62.384 0.426 7.99 4.21 8.84
5/5/2022 10:45:00 PM 16.73 62.114 0.426 7.97 4.06 8.85
5/5/2022 11:00:00 PM 16.58 61.844 0.427 7.95 4 8.87
5/5/2022 11:15:00 PM 16.43 61.574 0.428 7.93 4.15 8.88
5/5/2022 11:30:00 PM 16.28 61.304 0.429 7.92 4.09 8.9
5/5/2022 11:45:00 PM 16.13 61.034 0.429 7.9 4.26 8.92
5/6/2022 12:00:00 AM 15.98 60.764 0.43 7.89 4.08 8.94
5/6/2022 12:15:00 AM 15.83 60.494 0.43 7.87 3.9 8.96
5/6/2022 12:30:00 AM 15.67 60.206 0.431 7.86 4.07 8.98
5/6/2022 12:45:00 AM 15.53 59.954 0.432 7.85 4.07 8.99
5/6/2022 1:00:00 AM 15.39 59.702 0.432 7.84 4.04 9.02
5/6/2022 1:15:00 AM 15.25 59.45 0.433 7.83 4.08 9.04
5/6/2022 1:30:00 AM 15.13 59.234 0.433 7.82 3.97 9.06
5/6/2022 1:45:00 AM 15 59 0.433 7.81 4.06 9.08
5/6/2022 2:00:00 AM 14.89 58.802 0.434 7.81 3.88 9.11
5/6/2022 2:15:00 AM 14.78 58.604 0.434 7.8 3.87 9.13
5/6/2022 2:30:00 AM 14.68 58.424 0.434 7.8 3.96 9.15
5/6/2022 2:45:00 AM 14.58 58.244 0.434 7.79 3.95 9.17
5/6/2022 3:00:00 AM 14.48 58.064 0.435 7.79 4.16 9.2
5/6/2022 3:15:00 AM 14.39 57.902 0.434 7.79 3.86 9.22
5/6/2022 3:30:00 AM 14.31 57.758 0.434 7.79 3.92 9.24
5/6/2022 3:45:00 AM 14.23 57.614 0.434 7.78 3.76 9.26
5/6/2022 4:00:00 AM 14.15 57.47 0.434 7.78 3.58 9.29
5/6/2022 4:15:00 AM 14.07 57.326 0.434 7.78 3.67 9.31
5/6/2022 4:30:00 AM 14 57.2 0.434 7.78 3.78 9.33
5/6/2022 4:45:00 AM 13.93 57.074 0.434 7.78 3.8 9.35
5/6/2022 5:00:00 AM 13.87 56.966 0.434 7.78 3.85 9.37
5/6/2022 5:15:00 AM 13.8 56.84 0.434 7.78 4.07 9.39
5/6/2022 5:30:00 AM 13.74 56.732 0.434 7.78 4.66 9.4
5/6/2022 5:45:00 AM 13.68 56.624 0.434 7.78 4.05 9.43
5/6/2022 6:00:00 AM 13.62 56.516 0.433 7.78 3.88 9.44
5/6/2022 6:15:00 AM 13.57 56.426 0.433 7.78 3.76 9.46
5/6/2022 6:30:00 AM 13.52 56.336 0.433 7.78 3.78 9.48
5/6/2022 6:45:00 AM 13.47 56.246 0.432 7.78 3.7 9.52
5/6/2022 7:00:00 AM 13.43 56.174 0.431 7.78 3.94 9.56
5/6/2022 7:15:00 AM 13.39 56.102 0.43 7.78 3.68 9.59
5/6/2022 7:30:00 AM 13.36 56.048 0.429 7.78 3.55 9.65
5/6/2022 7:45:00 AM 13.33 55.994 0.427 7.79 3.49 9.7
5/6/2022 8:00:00 AM 13.3 55.94 0.426 7.79 3.99 9.78
5/6/2022 8:15:00 AM 13.28 55.904 0.424 7.8 3.93 9.86
5/6/2022 8:30:00 AM 13.26 55.868 0.422 7.81 4.1 9.93
5/6/2022 8:45:00 AM 13.25 55.85 0.419 7.81 4.99 9.99
5/6/2022 9:00:00 AM 13.23 55.814 0.416 7.82 6.06 10.04
5/6/2022 9:15:00 AM 13.22 55.796 0.414 7.83 6.3 10.12
5/6/2022 9:30:00 AM 13.2 55.76 0.412 7.83 6.41 10.14
5/6/2022 9:45:00 AM 13.18 55.724 0.41 7.83 6.4 10.16
5/6/2022 10:00:00 AM 13.15 55.67 0.407 7.83 6.98 10.16
5/6/2022 10:15:00 AM 13.12 55.616 0.405 7.82 7.36 10.16
5/6/2022 10:30:00 AM 13.09 55.562 0.403 7.82 7.59 10.21
5/6/2022 10:45:00 AM 13.07 55.526 0.4 7.83 8.07 10.24
5/6/2022 11:00:00 AM 13.06 55.508 0.396 7.84 9.59 10.34
5/6/2022 11:15:00 AM 13.04 55.472 0.393 7.84 9.82 10.37
5/6/2022 11:30:00 AM 13.04 55.472 0.39 7.84 9.79 10.46
5/6/2022 11:45:00 AM 13.05 55.49 0.387 7.85 10.18 10.51
5/6/2022 12:00:00 PM 13.07 55.526 0.385 7.86 9.61 10.6
5/6/2022 12:15:00 PM 13.12 55.616 0.381 7.88 9.67 10.74
5/6/2022 12:30:00 PM 13.14 55.652 0.378 7.87 9.8 10.72
5/6/2022 12:45:00 PM 13.16 55.688 0.375 7.87 10.56 10.72
5/6/2022 1:00:00 PM 13.15 55.67 0.372 7.86 11.52 10.61
5/6/2022 1:15:00 PM 13.16 55.688 0.368 7.85 13.48 10.56
5/6/2022 1:30:00 PM 13.16 55.688 0.365 7.84 15.41 10.48
5/6/2022 1:45:00 PM 13.15 55.67 0.362 7.83 16.23 10.47
5/6/2022 2:00:00 PM 13.16 55.688 0.36 7.81 16.9 10.44
5/6/2022 2:15:00 PM 13.15 55.67 0.359 7.8 17.12 10.4
5/6/2022 2:30:00 PM 13.15 55.67 0.359 7.79 18.47 10.35
5/6/2022 2:45:00 PM 13.15 55.67 0.358 7.79 20.04 10.31
5/6/2022 3:00:00 PM 13.14 55.652 0.357 7.78 21.62 10.24
5/6/2022 3:15:00 PM 13.15 55.67 0.355 7.78 21.27 10.29
5/6/2022 3:30:00 PM 13.15 55.67 0.353 7.78 21.05 10.31
5/6/2022 3:45:00 PM 13.14 55.652 0.35 7.77 21.21 10.27
5/6/2022 4:00:00 PM 13.11 55.598 0.343 7.76 21.44 10.25
5/6/2022 4:15:00 PM 13.08 55.544 0.335 7.75 22.98 10.18
5/6/2022 4:30:00 PM 13.04 55.472 0.325 7.73 25.06 10.11
5/6/2022 4:45:00 PM 13 55.4 0.317 7.71 28.73 10.07
5/6/2022 5:00:00 PM 12.96 55.328 0.309 7.68 30.55 10.03
5/6/2022 5:15:00 PM 12.93 55.274 0.304 7.66 33.64 10
5/6/2022 5:30:00 PM 12.9 55.22 0.3 7.64 36.52 9.95
5/6/2022 5:45:00 PM 12.87 55.166 0.297 7.63 38.68 9.91
5/6/2022 6:00:00 PM 12.84 55.112 0.296 7.61 40.24 9.84
5/6/2022 6:15:00 PM 12.81 55.058 0.295 7.6 40.45 9.79
5/6/2022 6:30:00 PM 12.78 55.004 0.293 7.58 39.5 9.74
5/6/2022 6:45:00 PM 12.73 54.914 0.29 7.57 48.71 9.67
5/6/2022 7:00:00 PM 12.7 54.86 0.285 7.57 42.52 9.62
5/6/2022 7:15:00 PM 12.67 54.806 0.278 7.54 43.15 9.58
5/6/2022 7:30:00 PM 12.64 54.752 0.272 7.53 43.43 9.56
5/6/2022 7:45:00 PM 12.61 54.698 0.269 7.52 43.41 9.55
5/6/2022 8:00:00 PM 12.58 54.644 0.267 7.51 43.68 9.52
5/6/2022 8:15:00 PM 12.54 54.572 0.267 7.5 42.96 9.5
5/6/2022 8:30:00 PM 12.5 54.5 0.269 7.5 42.05 9.49
5/6/2022 8:45:00 PM 12.45 54.41 0.271 7.5 40.66 9.48
5/6/2022 9:00:00 PM 12.41 54.338 0.273 7.49 38.84 9.48
5/6/2022 9:15:00 PM 12.37 54.266 0.274 7.49 37.55 9.48
5/6/2022 9:30:00 PM 12.33 54.194 0.274 7.49 35.79 9.49
5/6/2022 9:45:00 PM 12.29 54.122 0.272 7.49 33.46 9.49
5/6/2022 10:00:00 PM 12.25 54.05 0.269 7.48 31.88 9.5
5/6/2022 10:15:00 PM 12.21 53.978 0.266 7.48 29.85 9.5
5/6/2022 10:30:00 PM 12.16 53.888 0.263 7.48 28.52 9.52
5/6/2022 10:45:00 PM 12.12 53.816 0.262 7.47 26.93 9.54
5/6/2022 11:00:00 PM 12.07 53.726 0.261 7.47 26.37 9.55
5/6/2022 11:15:00 PM 12.02 53.636 0.262 7.47 25.18 9.56
5/6/2022 11:30:00 PM 11.98 53.564 0.263 7.47 24.3 9.58
5/6/2022 11:45:00 PM 11.94 53.492 0.265 7.47 22.79 9.59
5/7/2022 12:00:00 AM 11.89 53.402 0.267 7.47 21.54 9.59
5/7/2022 12:15:00 AM 11.85 53.33 0.27 7.47 20.89 9.6
5/7/2022 12:30:00 AM 11.81 53.258 0.273 7.48 19.94 9.62
5/7/2022 12:45:00 AM 11.77 53.186 0.277 7.48 19.08 9.63
5/7/2022 1:00:00 AM 11.73 53.114 0.28 7.48 18.47 9.65
5/7/2022 1:15:00 AM 11.69 53.042 0.284 7.49 16.97 9.67
5/7/2022 1:30:00 AM 11.65 52.97 0.288 7.5 16.68 9.69
5/7/2022 1:45:00 AM 11.61 52.898 0.291 7.5 16.23 9.71
5/7/2022 2:00:00 AM 11.58 52.844 0.295 7.51 16.98 9.72
5/7/2022 2:15:00 AM 11.55 52.79 0.298 7.51 16.04 9.73
5/7/2022 2:30:00 AM 11.52 52.736 0.301 7.52 14.76 9.75
5/7/2022 2:45:00 AM 11.49 52.682 0.304 7.52 14.49 9.75
5/7/2022 3:00:00 AM 11.46 52.628 0.307 7.52 13.64 9.77
5/7/2022 3:15:00 AM 11.43 52.574 0.31 7.53 13.46 9.79
5/7/2022 3:30:00 AM 11.4 52.52 0.312 7.53 13.2 9.8
5/7/2022 3:45:00 AM 11.37 52.466 0.314 7.54 13.04 9.82
5/7/2022 4:00:00 AM 11.35 52.43 0.317 7.54 12.78 9.83
5/7/2022 4:15:00 AM 11.32 52.376 0.319 7.55 12.39 9.85
5/7/2022 4:30:00 AM 11.3 52.34 0.321 7.55 11.79 9.86
5/7/2022 4:45:00 AM 11.28 52.304 0.322 7.55 11.55 9.88
5/7/2022 5:00:00 AM 11.25 52.25 0.323 7.56 11.24 9.89
5/7/2022 5:15:00 AM 11.23 52.214 0.324 7.56 11.12 9.91
5/7/2022 5:30:00 AM 11.2 52.16 0.324 7.57 11.62 9.92
5/7/2022 5:45:00 AM 11.18 52.124 0.323 7.57 11.88 9.92
5/7/2022 6:00:00 AM 11.16 52.088 0.323 7.57 12.37 9.93
5/7/2022 6:15:00 AM 11.14 52.052 0.322 7.56 12.97 9.94
5/7/2022 6:30:00 AM 11.13 52.034 0.322 7.56 13.27 9.94
5/7/2022 6:45:00 AM 11.11 51.998 0.322 7.55 13.15 9.95
5/7/2022 7:00:00 AM 11.1 51.98 0.323 7.55 13.27 9.96
5/7/2022 7:15:00 AM 11.08 51.944 0.323 7.55 13.66 9.96
5/7/2022 7:30:00 AM 11.07 51.926 0.324 7.55 13.93 9.97
5/7/2022 7:45:00 AM 11.06 51.908 0.326 7.55 13.82 9.97
5/7/2022 8:00:00 AM 11.05 51.89 0.328 7.56 13.56 9.99
5/7/2022 8:15:00 AM 11.04 51.872 0.329 7.56 13.63 10
5/7/2022 8:30:00 AM 11.03 51.854 0.327 7.57 14.26 10.02
5/7/2022 8:45:00 AM 11.02 51.836 0.324 7.56 15.35 10.02
5/7/2022 9:00:00 AM 11.01 51.818 0.319 7.56 16.81 10.02
5/7/2022 9:15:00 AM 11.01 51.818 0.314 7.55 19.04 10.05
5/7/2022 9:30:00 AM 11.02 51.836 0.311 7.54 20.25 10.06
5/7/2022 9:45:00 AM 11.02 51.836 0.31 7.54 21.83 10.05
5/7/2022 10:00:00 AM 11.03 51.854 0.309 7.54 23.46 10.05